<?xml version="1.0" encoding="UTF-8" standalone="no" ?>
<gpx xmlns="http://www.topografix.com/GPX/1/1" xmlns:xsi="http://www.w3.org/2001/XMLSchema-instance" xsi:schemaLocation="http://www.topografix.com/GPX/1/1 http://www.topografix.com/GPX/1/1/gpx.xsd" version="1.1" creator="VisuGPX - https://www.visugpx.com">
  <metadata>
    <name> St Pierre d\'Allevard</name>
    <desc><![CDATA[2cols au dessus de St Pierre d\'Allevard.
Parcours cyclable à 100%]]></desc>
  </metadata>
  <trk>
    <name><![CDATA[2014-08-28-10-10-48 on GPSies.com]]></name>
    <trkseg>
      <trkpt lat="45.37712" lon="6.05124">
        <ele>504</ele>
        <time>2014-08-28T10:10:48Z</time>
      </trkpt>
      <trkpt lat="45.37654" lon="6.0503">
        <ele>504</ele>
        <time>2014-08-28T10:11:21Z</time>
      </trkpt>
      <trkpt lat="45.37637" lon="6.05002">
        <ele>504</ele>
        <time>2014-08-28T10:11:29Z</time>
      </trkpt>
      <trkpt lat="45.37623" lon="6.0498">
        <ele>506</ele>
        <time>2014-08-28T10:11:35Z</time>
      </trkpt>
      <trkpt lat="45.37599" lon="6.0494">
        <ele>506</ele>
        <time>2014-08-28T10:11:46Z</time>
      </trkpt>
      <trkpt lat="45.37585" lon="6.04921">
        <ele>506</ele>
        <time>2014-08-28T10:11:52Z</time>
      </trkpt>
      <trkpt lat="45.37574" lon="6.04902">
        <ele>506</ele>
        <time>2014-08-28T10:11:57Z</time>
      </trkpt>
      <trkpt lat="45.3752" lon="6.04821">
        <ele>506</ele>
        <time>2014-08-28T10:12:18Z</time>
      </trkpt>
      <trkpt lat="45.37506" lon="6.04797">
        <ele>506</ele>
        <time>2014-08-28T10:12:24Z</time>
      </trkpt>
      <trkpt lat="45.37482" lon="6.04764">
        <ele>506</ele>
        <time>2014-08-28T10:12:32Z</time>
      </trkpt>
      <trkpt lat="45.37469" lon="6.04741">
        <ele>506</ele>
        <time>2014-08-28T10:12:37Z</time>
      </trkpt>
      <trkpt lat="45.37445" lon="6.04706">
        <ele>506</ele>
        <time>2014-08-28T10:12:46Z</time>
      </trkpt>
      <trkpt lat="45.37415" lon="6.04659">
        <ele>506</ele>
        <time>2014-08-28T10:12:58Z</time>
      </trkpt>
      <trkpt lat="45.37362" lon="6.04588">
        <ele>508</ele>
        <time>2014-08-28T10:13:18Z</time>
      </trkpt>
      <trkpt lat="45.37344" lon="6.04572">
        <ele>508</ele>
        <time>2014-08-28T10:13:24Z</time>
      </trkpt>
      <trkpt lat="45.37335" lon="6.04557">
        <ele>508</ele>
        <time>2014-08-28T10:13:28Z</time>
      </trkpt>
      <trkpt lat="45.37318" lon="6.04536">
        <ele>508</ele>
        <time>2014-08-28T10:13:35Z</time>
      </trkpt>
      <trkpt lat="45.3727" lon="6.04461">
        <ele>508</ele>
        <time>2014-08-28T10:13:54Z</time>
      </trkpt>
      <trkpt lat="45.37199" lon="6.04357">
        <ele>508</ele>
        <time>2014-08-28T10:14:10Z</time>
      </trkpt>
      <trkpt lat="45.37182" lon="6.04334">
        <ele>506</ele>
        <time>2014-08-28T10:14:13Z</time>
      </trkpt>
      <trkpt lat="45.37142" lon="6.04274">
        <ele>504</ele>
        <time>2014-08-28T10:14:20Z</time>
      </trkpt>
      <trkpt lat="45.37096" lon="6.04209">
        <ele>502</ele>
        <time>2014-08-28T10:14:28Z</time>
      </trkpt>
      <trkpt lat="45.36957" lon="6.03994">
        <ele>497</ele>
        <time>2014-08-28T10:14:58Z</time>
      </trkpt>
      <trkpt lat="45.36936" lon="6.03963">
        <ele>496</ele>
        <time>2014-08-28T10:15:02Z</time>
      </trkpt>
      <trkpt lat="45.36888" lon="6.03898">
        <ele>495</ele>
        <time>2014-08-28T10:15:10Z</time>
      </trkpt>
      <trkpt lat="45.36865" lon="6.03869">
        <ele>493</ele>
        <time>2014-08-28T10:15:14Z</time>
      </trkpt>
      <trkpt lat="45.3686" lon="6.03862">
        <ele>493</ele>
        <time>2014-08-28T10:15:15Z</time>
      </trkpt>
      <trkpt lat="45.36857" lon="6.03854">
        <ele>492</ele>
        <time>2014-08-28T10:15:16Z</time>
      </trkpt>
      <trkpt lat="45.36857" lon="6.03847">
        <ele>492</ele>
        <time>2014-08-28T10:15:17Z</time>
      </trkpt>
      <trkpt lat="45.3686" lon="6.03841">
        <ele>492</ele>
        <time>2014-08-28T10:15:18Z</time>
      </trkpt>
      <trkpt lat="45.36864" lon="6.03837">
        <ele>491</ele>
        <time>2014-08-28T10:15:19Z</time>
      </trkpt>
      <trkpt lat="45.36879" lon="6.03827">
        <ele>491</ele>
        <time>2014-08-28T10:15:23Z</time>
      </trkpt>
      <trkpt lat="45.36885" lon="6.03821">
        <ele>491</ele>
        <time>2014-08-28T10:15:25Z</time>
      </trkpt>
      <trkpt lat="45.3689" lon="6.03805">
        <ele>491</ele>
        <time>2014-08-28T10:15:29Z</time>
      </trkpt>
      <trkpt lat="45.36892" lon="6.03777">
        <ele>491</ele>
        <time>2014-08-28T10:15:36Z</time>
      </trkpt>
      <trkpt lat="45.36889" lon="6.03744">
        <ele>494</ele>
        <time>2014-08-28T10:15:49Z</time>
      </trkpt>
      <trkpt lat="45.36891" lon="6.03728">
        <ele>496</ele>
        <time>2014-08-28T10:15:55Z</time>
      </trkpt>
      <trkpt lat="45.3689" lon="6.03706">
        <ele>497</ele>
        <time>2014-08-28T10:16:03Z</time>
      </trkpt>
      <trkpt lat="45.36887" lon="6.03688">
        <ele>498</ele>
        <time>2014-08-28T10:16:10Z</time>
      </trkpt>
      <trkpt lat="45.36887" lon="6.0366">
        <ele>500</ele>
        <time>2014-08-28T10:16:21Z</time>
      </trkpt>
      <trkpt lat="45.36884" lon="6.03645">
        <ele>502</ele>
        <time>2014-08-28T10:16:26Z</time>
      </trkpt>
      <trkpt lat="45.36874" lon="6.03613">
        <ele>502</ele>
        <time>2014-08-28T10:16:37Z</time>
      </trkpt>
      <trkpt lat="45.36864" lon="6.03595">
        <ele>504</ele>
        <time>2014-08-28T10:16:45Z</time>
      </trkpt>
      <trkpt lat="45.36841" lon="6.03572">
        <ele>505</ele>
        <time>2014-08-28T10:16:58Z</time>
      </trkpt>
      <trkpt lat="45.36815" lon="6.03553">
        <ele>508</ele>
        <time>2014-08-28T10:17:13Z</time>
      </trkpt>
      <trkpt lat="45.36801" lon="6.03533">
        <ele>509</ele>
        <time>2014-08-28T10:17:21Z</time>
      </trkpt>
      <trkpt lat="45.36786" lon="6.03493">
        <ele>510</ele>
        <time>2014-08-28T10:17:34Z</time>
      </trkpt>
      <trkpt lat="45.36778" lon="6.03467">
        <ele>510</ele>
        <time>2014-08-28T10:17:42Z</time>
      </trkpt>
      <trkpt lat="45.36775" lon="6.03441">
        <ele>513</ele>
        <time>2014-08-28T10:17:49Z</time>
      </trkpt>
      <trkpt lat="45.36778" lon="6.03413">
        <ele>513</ele>
        <time>2014-08-28T10:17:56Z</time>
      </trkpt>
      <trkpt lat="45.36782" lon="6.03389">
        <ele>513</ele>
        <time>2014-08-28T10:18:02Z</time>
      </trkpt>
      <trkpt lat="45.36803" lon="6.03326">
        <ele>515</ele>
        <time>2014-08-28T10:18:18Z</time>
      </trkpt>
      <trkpt lat="45.3681" lon="6.03295">
        <ele>516</ele>
        <time>2014-08-28T10:18:26Z</time>
      </trkpt>
      <trkpt lat="45.36817" lon="6.03256">
        <ele>517</ele>
        <time>2014-08-28T10:18:35Z</time>
      </trkpt>
      <trkpt lat="45.3682" lon="6.03217">
        <ele>517</ele>
        <time>2014-08-28T10:18:43Z</time>
      </trkpt>
      <trkpt lat="45.36825" lon="6.03099">
        <ele>521</ele>
        <time>2014-08-28T10:19:08Z</time>
      </trkpt>
      <trkpt lat="45.36828" lon="6.03065">
        <ele>521</ele>
        <time>2014-08-28T10:19:15Z</time>
      </trkpt>
      <trkpt lat="45.36841" lon="6.02995">
        <ele>523</ele>
        <time>2014-08-28T10:19:30Z</time>
      </trkpt>
      <trkpt lat="45.36844" lon="6.02961">
        <ele>524</ele>
        <time>2014-08-28T10:19:37Z</time>
      </trkpt>
      <trkpt lat="45.3685" lon="6.02862">
        <ele>527</ele>
        <time>2014-08-28T10:19:59Z</time>
      </trkpt>
      <trkpt lat="45.3685" lon="6.02803">
        <ele>529</ele>
        <time>2014-08-28T10:20:11Z</time>
      </trkpt>
      <trkpt lat="45.36861" lon="6.02718">
        <ele>529</ele>
        <time>2014-08-28T10:20:27Z</time>
      </trkpt>
      <trkpt lat="45.36861" lon="6.02696">
        <ele>529</ele>
        <time>2014-08-28T10:20:31Z</time>
      </trkpt>
      <trkpt lat="45.36855" lon="6.02647">
        <ele>530</ele>
        <time>2014-08-28T10:20:42Z</time>
      </trkpt>
      <trkpt lat="45.36856" lon="6.02612">
        <ele>531</ele>
        <time>2014-08-28T10:20:51Z</time>
      </trkpt>
      <trkpt lat="45.36861" lon="6.02592">
        <ele>533</ele>
        <time>2014-08-28T10:20:57Z</time>
      </trkpt>
      <trkpt lat="45.36886" lon="6.02551">
        <ele>534</ele>
        <time>2014-08-28T10:21:10Z</time>
      </trkpt>
      <trkpt lat="45.36893" lon="6.02542">
        <ele>536</ele>
        <time>2014-08-28T10:21:13Z</time>
      </trkpt>
      <trkpt lat="45.36924" lon="6.02505">
        <ele>536</ele>
        <time>2014-08-28T10:21:26Z</time>
      </trkpt>
      <trkpt lat="45.36928" lon="6.02499">
        <ele>536</ele>
        <time>2014-08-28T10:21:29Z</time>
      </trkpt>
      <trkpt lat="45.36939" lon="6.02471">
        <ele>539</ele>
        <time>2014-08-28T10:21:41Z</time>
      </trkpt>
      <trkpt lat="45.36941" lon="6.0246">
        <ele>540</ele>
        <time>2014-08-28T10:21:45Z</time>
      </trkpt>
      <trkpt lat="45.36941" lon="6.02444">
        <ele>541</ele>
        <time>2014-08-28T10:21:52Z</time>
      </trkpt>
      <trkpt lat="45.36931" lon="6.02378">
        <ele>544</ele>
        <time>2014-08-28T10:22:15Z</time>
      </trkpt>
      <trkpt lat="45.36925" lon="6.02279">
        <ele>551</ele>
        <time>2014-08-28T10:22:49Z</time>
      </trkpt>
      <trkpt lat="45.36919" lon="6.0222">
        <ele>554</ele>
        <time>2014-08-28T10:23:09Z</time>
      </trkpt>
      <trkpt lat="45.36915" lon="6.02193">
        <ele>557</ele>
        <time>2014-08-28T10:23:18Z</time>
      </trkpt>
      <trkpt lat="45.36911" lon="6.02148">
        <ele>557</ele>
        <time>2014-08-28T10:23:32Z</time>
      </trkpt>
      <trkpt lat="45.36913" lon="6.02125">
        <ele>557</ele>
        <time>2014-08-28T10:23:39Z</time>
      </trkpt>
      <trkpt lat="45.36919" lon="6.0211">
        <ele>559</ele>
        <time>2014-08-28T10:23:44Z</time>
      </trkpt>
      <trkpt lat="45.36934" lon="6.0208">
        <ele>559</ele>
        <time>2014-08-28T10:23:54Z</time>
      </trkpt>
      <trkpt lat="45.36979" lon="6.02016">
        <ele>565</ele>
        <time>2014-08-28T10:24:24Z</time>
      </trkpt>
      <trkpt lat="45.36986" lon="6.02008">
        <ele>565</ele>
        <time>2014-08-28T10:24:29Z</time>
      </trkpt>
      <trkpt lat="45.36992" lon="6.02008">
        <ele>565</ele>
        <time>2014-08-28T10:24:32Z</time>
      </trkpt>
      <trkpt lat="45.36993" lon="6.0201">
        <ele>565</ele>
        <time>2014-08-28T10:24:33Z</time>
      </trkpt>
      <trkpt lat="45.36995" lon="6.02017">
        <ele>567</ele>
        <time>2014-08-28T10:24:36Z</time>
      </trkpt>
      <trkpt lat="45.36994" lon="6.02022">
        <ele>567</ele>
        <time>2014-08-28T10:24:38Z</time>
      </trkpt>
      <trkpt lat="45.36985" lon="6.02039">
        <ele>568</ele>
        <time>2014-08-28T10:24:45Z</time>
      </trkpt>
      <trkpt lat="45.36967" lon="6.02067">
        <ele>571</ele>
        <time>2014-08-28T10:25:00Z</time>
      </trkpt>
      <trkpt lat="45.36954" lon="6.02094">
        <ele>573</ele>
        <time>2014-08-28T10:25:13Z</time>
      </trkpt>
      <trkpt lat="45.36945" lon="6.02108">
        <ele>576</ele>
        <time>2014-08-28T10:25:20Z</time>
      </trkpt>
      <trkpt lat="45.36937" lon="6.0213">
        <ele>578</ele>
        <time>2014-08-28T10:25:30Z</time>
      </trkpt>
      <trkpt lat="45.36937" lon="6.02137">
        <ele>578</ele>
        <time>2014-08-28T10:25:33Z</time>
      </trkpt>
      <trkpt lat="45.36938" lon="6.02149">
        <ele>578</ele>
        <time>2014-08-28T10:25:37Z</time>
      </trkpt>
      <trkpt lat="45.36941" lon="6.02159">
        <ele>580</ele>
        <time>2014-08-28T10:25:41Z</time>
      </trkpt>
      <trkpt lat="45.36953" lon="6.02183">
        <ele>582</ele>
        <time>2014-08-28T10:25:51Z</time>
      </trkpt>
      <trkpt lat="45.36962" lon="6.02215">
        <ele>583</ele>
        <time>2014-08-28T10:26:02Z</time>
      </trkpt>
      <trkpt lat="45.36982" lon="6.02252">
        <ele>584</ele>
        <time>2014-08-28T10:26:16Z</time>
      </trkpt>
      <trkpt lat="45.3699" lon="6.02271">
        <ele>586</ele>
        <time>2014-08-28T10:26:23Z</time>
      </trkpt>
      <trkpt lat="45.37" lon="6.02307">
        <ele>588</ele>
        <time>2014-08-28T10:26:36Z</time>
      </trkpt>
      <trkpt lat="45.37002" lon="6.0231">
        <ele>588</ele>
        <time>2014-08-28T10:26:38Z</time>
      </trkpt>
      <trkpt lat="45.37004" lon="6.02311">
        <ele>588</ele>
        <time>2014-08-28T10:26:39Z</time>
      </trkpt>
      <trkpt lat="45.37009" lon="6.02303">
        <ele>589</ele>
        <time>2014-08-28T10:26:43Z</time>
      </trkpt>
      <trkpt lat="45.3701" lon="6.02295">
        <ele>590</ele>
        <time>2014-08-28T10:26:46Z</time>
      </trkpt>
      <trkpt lat="45.37008" lon="6.02289">
        <ele>590</ele>
        <time>2014-08-28T10:26:48Z</time>
      </trkpt>
      <trkpt lat="45.36993" lon="6.02256">
        <ele>592</ele>
        <time>2014-08-28T10:27:00Z</time>
      </trkpt>
      <trkpt lat="45.36981" lon="6.02221">
        <ele>593</ele>
        <time>2014-08-28T10:27:11Z</time>
      </trkpt>
      <trkpt lat="45.36969" lon="6.02156">
        <ele>596</ele>
        <time>2014-08-28T10:27:32Z</time>
      </trkpt>
      <trkpt lat="45.3697" lon="6.02133">
        <ele>597</ele>
        <time>2014-08-28T10:27:40Z</time>
      </trkpt>
      <trkpt lat="45.36971" lon="6.02131">
        <ele>597</ele>
        <time>2014-08-28T10:27:41Z</time>
      </trkpt>
      <trkpt lat="45.36977" lon="6.02129">
        <ele>598</ele>
        <time>2014-08-28T10:27:44Z</time>
      </trkpt>
      <trkpt lat="45.36998" lon="6.02129">
        <ele>599</ele>
        <time>2014-08-28T10:27:53Z</time>
      </trkpt>
      <trkpt lat="45.37003" lon="6.02131">
        <ele>600</ele>
        <time>2014-08-28T10:27:56Z</time>
      </trkpt>
      <trkpt lat="45.37011" lon="6.02129">
        <ele>600</ele>
        <time>2014-08-28T10:28:00Z</time>
      </trkpt>
      <trkpt lat="45.37055" lon="6.02111">
        <ele>605</ele>
        <time>2014-08-28T10:28:27Z</time>
      </trkpt>
      <trkpt lat="45.37062" lon="6.02107">
        <ele>607</ele>
        <time>2014-08-28T10:28:30Z</time>
      </trkpt>
      <trkpt lat="45.37079" lon="6.02102">
        <ele>608</ele>
        <time>2014-08-28T10:28:39Z</time>
      </trkpt>
      <trkpt lat="45.37087" lon="6.02102">
        <ele>609</ele>
        <time>2014-08-28T10:28:43Z</time>
      </trkpt>
      <trkpt lat="45.37096" lon="6.02105">
        <ele>609</ele>
        <time>2014-08-28T10:28:48Z</time>
      </trkpt>
      <trkpt lat="45.37104" lon="6.02111">
        <ele>610</ele>
        <time>2014-08-28T10:28:52Z</time>
      </trkpt>
      <trkpt lat="45.37136" lon="6.02156">
        <ele>613</ele>
        <time>2014-08-28T10:29:12Z</time>
      </trkpt>
      <trkpt lat="45.37158" lon="6.02176">
        <ele>615</ele>
        <time>2014-08-28T10:29:25Z</time>
      </trkpt>
      <trkpt lat="45.37176" lon="6.02189">
        <ele>617</ele>
        <time>2014-08-28T10:29:36Z</time>
      </trkpt>
      <trkpt lat="45.37195" lon="6.02198">
        <ele>619</ele>
        <time>2014-08-28T10:29:46Z</time>
      </trkpt>
      <trkpt lat="45.37225" lon="6.02218">
        <ele>622</ele>
        <time>2014-08-28T10:30:05Z</time>
      </trkpt>
      <trkpt lat="45.37253" lon="6.02233">
        <ele>625</ele>
        <time>2014-08-28T10:30:24Z</time>
      </trkpt>
      <trkpt lat="45.37255" lon="6.02239">
        <ele>626</ele>
        <time>2014-08-28T10:30:29Z</time>
      </trkpt>
      <trkpt lat="45.3726" lon="6.02239">
        <ele>627</ele>
        <time>2014-08-28T10:30:32Z</time>
      </trkpt>
      <trkpt lat="45.37281" lon="6.02249">
        <ele>631</ele>
        <time>2014-08-28T10:30:51Z</time>
      </trkpt>
      <trkpt lat="45.37285" lon="6.02247">
        <ele>631</ele>
        <time>2014-08-28T10:30:53Z</time>
      </trkpt>
      <trkpt lat="45.37291" lon="6.02247">
        <ele>631</ele>
        <time>2014-08-28T10:30:56Z</time>
      </trkpt>
      <trkpt lat="45.37301" lon="6.02244">
        <ele>632</ele>
        <time>2014-08-28T10:31:02Z</time>
      </trkpt>
      <trkpt lat="45.37308" lon="6.02245">
        <ele>634</ele>
        <time>2014-08-28T10:31:07Z</time>
      </trkpt>
      <trkpt lat="45.3732" lon="6.02253">
        <ele>635</ele>
        <time>2014-08-28T10:31:17Z</time>
      </trkpt>
      <trkpt lat="45.37319" lon="6.02256">
        <ele>636</ele>
        <time>2014-08-28T10:31:19Z</time>
      </trkpt>
      <trkpt lat="45.37306" lon="6.02264">
        <ele>636</ele>
        <time>2014-08-28T10:31:28Z</time>
      </trkpt>
      <trkpt lat="45.37289" lon="6.02272">
        <ele>638</ele>
        <time>2014-08-28T10:31:39Z</time>
      </trkpt>
      <trkpt lat="45.37283" lon="6.02272">
        <ele>638</ele>
        <time>2014-08-28T10:31:44Z</time>
      </trkpt>
      <trkpt lat="45.37278" lon="6.02276">
        <ele>640</ele>
        <time>2014-08-28T10:31:48Z</time>
      </trkpt>
      <trkpt lat="45.37267" lon="6.0228">
        <ele>641</ele>
        <time>2014-08-28T10:31:56Z</time>
      </trkpt>
      <trkpt lat="45.3726" lon="6.02286">
        <ele>642</ele>
        <time>2014-08-28T10:32:01Z</time>
      </trkpt>
      <trkpt lat="45.37241" lon="6.02297">
        <ele>644</ele>
        <time>2014-08-28T10:32:15Z</time>
      </trkpt>
      <trkpt lat="45.37223" lon="6.02324">
        <ele>648</ele>
        <time>2014-08-28T10:32:31Z</time>
      </trkpt>
      <trkpt lat="45.372" lon="6.02366">
        <ele>652</ele>
        <time>2014-08-28T10:32:57Z</time>
      </trkpt>
      <trkpt lat="45.37186" lon="6.0238">
        <ele>655</ele>
        <time>2014-08-28T10:33:10Z</time>
      </trkpt>
      <trkpt lat="45.37167" lon="6.02392">
        <ele>657</ele>
        <time>2014-08-28T10:33:23Z</time>
      </trkpt>
      <trkpt lat="45.37158" lon="6.02404">
        <ele>658</ele>
        <time>2014-08-28T10:33:31Z</time>
      </trkpt>
      <trkpt lat="45.37157" lon="6.02408">
        <ele>659</ele>
        <time>2014-08-28T10:33:33Z</time>
      </trkpt>
      <trkpt lat="45.37158" lon="6.02414">
        <ele>659</ele>
        <time>2014-08-28T10:33:36Z</time>
      </trkpt>
      <trkpt lat="45.37164" lon="6.02418">
        <ele>659</ele>
        <time>2014-08-28T10:33:41Z</time>
      </trkpt>
      <trkpt lat="45.3717" lon="6.02415">
        <ele>660</ele>
        <time>2014-08-28T10:33:45Z</time>
      </trkpt>
      <trkpt lat="45.37182" lon="6.02402">
        <ele>661</ele>
        <time>2014-08-28T10:33:54Z</time>
      </trkpt>
      <trkpt lat="45.37194" lon="6.02394">
        <ele>661</ele>
        <time>2014-08-28T10:34:01Z</time>
      </trkpt>
      <trkpt lat="45.37225" lon="6.02382">
        <ele>665</ele>
        <time>2014-08-28T10:34:20Z</time>
      </trkpt>
      <trkpt lat="45.3725" lon="6.02367">
        <ele>667</ele>
        <time>2014-08-28T10:34:35Z</time>
      </trkpt>
      <trkpt lat="45.37255" lon="6.02367">
        <ele>668</ele>
        <time>2014-08-28T10:34:38Z</time>
      </trkpt>
      <trkpt lat="45.3726" lon="6.02364">
        <ele>669</ele>
        <time>2014-08-28T10:34:41Z</time>
      </trkpt>
      <trkpt lat="45.37274" lon="6.02363">
        <ele>670</ele>
        <time>2014-08-28T10:34:49Z</time>
      </trkpt>
      <trkpt lat="45.37281" lon="6.0236">
        <ele>672</ele>
        <time>2014-08-28T10:34:53Z</time>
      </trkpt>
      <trkpt lat="45.37298" lon="6.02364">
        <ele>674</ele>
        <time>2014-08-28T10:35:05Z</time>
      </trkpt>
      <trkpt lat="45.37317" lon="6.02381">
        <ele>676</ele>
        <time>2014-08-28T10:35:18Z</time>
      </trkpt>
      <trkpt lat="45.3733" lon="6.02387">
        <ele>677</ele>
        <time>2014-08-28T10:35:26Z</time>
      </trkpt>
      <trkpt lat="45.37338" lon="6.02395">
        <ele>678</ele>
        <time>2014-08-28T10:35:32Z</time>
      </trkpt>
      <trkpt lat="45.37338" lon="6.02402">
        <ele>678</ele>
        <time>2014-08-28T10:35:36Z</time>
      </trkpt>
      <trkpt lat="45.37333" lon="6.02403">
        <ele>679</ele>
        <time>2014-08-28T10:35:39Z</time>
      </trkpt>
      <trkpt lat="45.37326" lon="6.02401">
        <ele>680</ele>
        <time>2014-08-28T10:35:43Z</time>
      </trkpt>
      <trkpt lat="45.37318" lon="6.02394">
        <ele>680</ele>
        <time>2014-08-28T10:35:48Z</time>
      </trkpt>
      <trkpt lat="45.37292" lon="6.02393">
        <ele>682</ele>
        <time>2014-08-28T10:36:05Z</time>
      </trkpt>
      <trkpt lat="45.37286" lon="6.02395">
        <ele>684</ele>
        <time>2014-08-28T10:36:10Z</time>
      </trkpt>
      <trkpt lat="45.37275" lon="6.024">
        <ele>685</ele>
        <time>2014-08-28T10:36:17Z</time>
      </trkpt>
      <trkpt lat="45.37243" lon="6.02421">
        <ele>690</ele>
        <time>2014-08-28T10:36:40Z</time>
      </trkpt>
      <trkpt lat="45.37224" lon="6.02439">
        <ele>691</ele>
        <time>2014-08-28T10:36:51Z</time>
      </trkpt>
      <trkpt lat="45.37212" lon="6.02454">
        <ele>692</ele>
        <time>2014-08-28T10:36:59Z</time>
      </trkpt>
      <trkpt lat="45.37203" lon="6.0247">
        <ele>695</ele>
        <time>2014-08-28T10:37:08Z</time>
      </trkpt>
      <trkpt lat="45.37196" lon="6.02488">
        <ele>697</ele>
        <time>2014-08-28T10:37:18Z</time>
      </trkpt>
      <trkpt lat="45.37194" lon="6.02498">
        <ele>697</ele>
        <time>2014-08-28T10:37:24Z</time>
      </trkpt>
      <trkpt lat="45.37195" lon="6.02502">
        <ele>698</ele>
        <time>2014-08-28T10:37:27Z</time>
      </trkpt>
      <trkpt lat="45.37192" lon="6.02521">
        <ele>699</ele>
        <time>2014-08-28T10:37:37Z</time>
      </trkpt>
      <trkpt lat="45.37184" lon="6.0257">
        <ele>703</ele>
        <time>2014-08-28T10:37:58Z</time>
      </trkpt>
      <trkpt lat="45.37185" lon="6.0262">
        <ele>708</ele>
        <time>2014-08-28T10:38:21Z</time>
      </trkpt>
      <trkpt lat="45.37183" lon="6.02652">
        <ele>711</ele>
        <time>2014-08-28T10:38:37Z</time>
      </trkpt>
      <trkpt lat="45.3718" lon="6.02665">
        <ele>712</ele>
        <time>2014-08-28T10:38:43Z</time>
      </trkpt>
      <trkpt lat="45.37162" lon="6.02695">
        <ele>714</ele>
        <time>2014-08-28T10:38:55Z</time>
      </trkpt>
      <trkpt lat="45.37159" lon="6.02704">
        <ele>715</ele>
        <time>2014-08-28T10:39:00Z</time>
      </trkpt>
      <trkpt lat="45.37154" lon="6.02712">
        <ele>717</ele>
        <time>2014-08-28T10:39:06Z</time>
      </trkpt>
      <trkpt lat="45.37141" lon="6.02723">
        <ele>718</ele>
        <time>2014-08-28T10:39:17Z</time>
      </trkpt>
      <trkpt lat="45.37132" lon="6.02729">
        <ele>719</ele>
        <time>2014-08-28T10:39:23Z</time>
      </trkpt>
      <trkpt lat="45.37125" lon="6.02736">
        <ele>720</ele>
        <time>2014-08-28T10:39:28Z</time>
      </trkpt>
      <trkpt lat="45.37118" lon="6.0274">
        <ele>722</ele>
        <time>2014-08-28T10:39:32Z</time>
      </trkpt>
      <trkpt lat="45.37101" lon="6.02762">
        <ele>724</ele>
        <time>2014-08-28T10:39:44Z</time>
      </trkpt>
      <trkpt lat="45.3709" lon="6.02773">
        <ele>724</ele>
        <time>2014-08-28T10:39:52Z</time>
      </trkpt>
      <trkpt lat="45.37084" lon="6.02787">
        <ele>726</ele>
        <time>2014-08-28T10:39:59Z</time>
      </trkpt>
      <trkpt lat="45.37086" lon="6.02803">
        <ele>728</ele>
        <time>2014-08-28T10:40:07Z</time>
      </trkpt>
      <trkpt lat="45.37091" lon="6.02819">
        <ele>729</ele>
        <time>2014-08-28T10:40:16Z</time>
      </trkpt>
      <trkpt lat="45.37096" lon="6.02829">
        <ele>730</ele>
        <time>2014-08-28T10:40:21Z</time>
      </trkpt>
      <trkpt lat="45.37106" lon="6.02862">
        <ele>732</ele>
        <time>2014-08-28T10:40:38Z</time>
      </trkpt>
      <trkpt lat="45.37111" lon="6.02869">
        <ele>734</ele>
        <time>2014-08-28T10:40:42Z</time>
      </trkpt>
      <trkpt lat="45.37123" lon="6.02882">
        <ele>735</ele>
        <time>2014-08-28T10:40:51Z</time>
      </trkpt>
      <trkpt lat="45.37127" lon="6.02899">
        <ele>736</ele>
        <time>2014-08-28T10:40:59Z</time>
      </trkpt>
      <trkpt lat="45.37139" lon="6.02927">
        <ele>738</ele>
        <time>2014-08-28T10:41:12Z</time>
      </trkpt>
      <trkpt lat="45.3715" lon="6.02962">
        <ele>740</ele>
        <time>2014-08-28T10:41:28Z</time>
      </trkpt>
      <trkpt lat="45.37156" lon="6.02996">
        <ele>743</ele>
        <time>2014-08-28T10:41:43Z</time>
      </trkpt>
      <trkpt lat="45.37171" lon="6.03036">
        <ele>746</ele>
        <time>2014-08-28T10:42:02Z</time>
      </trkpt>
      <trkpt lat="45.37177" lon="6.03047">
        <ele>747</ele>
        <time>2014-08-28T10:42:08Z</time>
      </trkpt>
      <trkpt lat="45.37186" lon="6.03066">
        <ele>749</ele>
        <time>2014-08-28T10:42:18Z</time>
      </trkpt>
      <trkpt lat="45.37195" lon="6.03099">
        <ele>752</ele>
        <time>2014-08-28T10:42:33Z</time>
      </trkpt>
      <trkpt lat="45.37204" lon="6.03114">
        <ele>753</ele>
        <time>2014-08-28T10:42:42Z</time>
      </trkpt>
      <trkpt lat="45.37205" lon="6.03124">
        <ele>755</ele>
        <time>2014-08-28T10:42:46Z</time>
      </trkpt>
      <trkpt lat="45.37213" lon="6.03151">
        <ele>757</ele>
        <time>2014-08-28T10:42:58Z</time>
      </trkpt>
      <trkpt lat="45.37228" lon="6.03177">
        <ele>759</ele>
        <time>2014-08-28T10:43:12Z</time>
      </trkpt>
      <trkpt lat="45.37239" lon="6.03188">
        <ele>759</ele>
        <time>2014-08-28T10:43:20Z</time>
      </trkpt>
      <trkpt lat="45.37261" lon="6.03242">
        <ele>764</ele>
        <time>2014-08-28T10:43:46Z</time>
      </trkpt>
      <trkpt lat="45.37265" lon="6.03247">
        <ele>765</ele>
        <time>2014-08-28T10:43:49Z</time>
      </trkpt>
      <trkpt lat="45.37272" lon="6.0325">
        <ele>765</ele>
        <time>2014-08-28T10:43:53Z</time>
      </trkpt>
      <trkpt lat="45.37277" lon="6.0326">
        <ele>766</ele>
        <time>2014-08-28T10:43:58Z</time>
      </trkpt>
      <trkpt lat="45.37277" lon="6.03264">
        <ele>767</ele>
        <time>2014-08-28T10:44:00Z</time>
      </trkpt>
      <trkpt lat="45.3728" lon="6.03273">
        <ele>768</ele>
        <time>2014-08-28T10:44:04Z</time>
      </trkpt>
      <trkpt lat="45.37302" lon="6.03315">
        <ele>772</ele>
        <time>2014-08-28T10:44:26Z</time>
      </trkpt>
      <trkpt lat="45.37314" lon="6.03349">
        <ele>774</ele>
        <time>2014-08-28T10:44:42Z</time>
      </trkpt>
      <trkpt lat="45.37319" lon="6.03358">
        <ele>774</ele>
        <time>2014-08-28T10:44:47Z</time>
      </trkpt>
      <trkpt lat="45.37333" lon="6.03373">
        <ele>776</ele>
        <time>2014-08-28T10:44:57Z</time>
      </trkpt>
      <trkpt lat="45.37343" lon="6.0339">
        <ele>778</ele>
        <time>2014-08-28T10:45:06Z</time>
      </trkpt>
      <trkpt lat="45.37355" lon="6.03408">
        <ele>779</ele>
        <time>2014-08-28T10:45:17Z</time>
      </trkpt>
      <trkpt lat="45.37358" lon="6.03409">
        <ele>780</ele>
        <time>2014-08-28T10:45:19Z</time>
      </trkpt>
      <trkpt lat="45.37376" lon="6.03423">
        <ele>782</ele>
        <time>2014-08-28T10:45:34Z</time>
      </trkpt>
      <trkpt lat="45.37384" lon="6.03427">
        <ele>782</ele>
        <time>2014-08-28T10:45:39Z</time>
      </trkpt>
      <trkpt lat="45.37388" lon="6.03431">
        <ele>783</ele>
        <time>2014-08-28T10:45:42Z</time>
      </trkpt>
      <trkpt lat="45.37394" lon="6.03433">
        <ele>784</ele>
        <time>2014-08-28T10:45:45Z</time>
      </trkpt>
      <trkpt lat="45.37401" lon="6.03441">
        <ele>784</ele>
        <time>2014-08-28T10:45:52Z</time>
      </trkpt>
      <trkpt lat="45.37408" lon="6.03452">
        <ele>787</ele>
        <time>2014-08-28T10:45:58Z</time>
      </trkpt>
      <trkpt lat="45.37418" lon="6.03463">
        <ele>788</ele>
        <time>2014-08-28T10:46:07Z</time>
      </trkpt>
      <trkpt lat="45.37435" lon="6.03471">
        <ele>790</ele>
        <time>2014-08-28T10:46:18Z</time>
      </trkpt>
      <trkpt lat="45.37443" lon="6.03471">
        <ele>791</ele>
        <time>2014-08-28T10:46:25Z</time>
      </trkpt>
      <trkpt lat="45.37451" lon="6.03476">
        <ele>792</ele>
        <time>2014-08-28T10:46:30Z</time>
      </trkpt>
      <trkpt lat="45.37462" lon="6.03488">
        <ele>793</ele>
        <time>2014-08-28T10:46:37Z</time>
      </trkpt>
      <trkpt lat="45.37473" lon="6.03492">
        <ele>794</ele>
        <time>2014-08-28T10:46:43Z</time>
      </trkpt>
      <trkpt lat="45.3748" lon="6.03504">
        <ele>795</ele>
        <time>2014-08-28T10:46:49Z</time>
      </trkpt>
      <trkpt lat="45.37486" lon="6.03509">
        <ele>795</ele>
        <time>2014-08-28T10:46:53Z</time>
      </trkpt>
      <trkpt lat="45.37511" lon="6.03516">
        <ele>797</ele>
        <time>2014-08-28T10:47:07Z</time>
      </trkpt>
      <trkpt lat="45.37527" lon="6.03528">
        <ele>800</ele>
        <time>2014-08-28T10:47:18Z</time>
      </trkpt>
      <trkpt lat="45.37548" lon="6.03528">
        <ele>802</ele>
        <time>2014-08-28T10:47:30Z</time>
      </trkpt>
      <trkpt lat="45.37576" lon="6.03535">
        <ele>805</ele>
        <time>2014-08-28T10:47:45Z</time>
      </trkpt>
      <trkpt lat="45.37584" lon="6.0354">
        <ele>805</ele>
        <time>2014-08-28T10:47:50Z</time>
      </trkpt>
      <trkpt lat="45.37606" lon="6.03549">
        <ele>809</ele>
        <time>2014-08-28T10:48:06Z</time>
      </trkpt>
      <trkpt lat="45.37622" lon="6.03551">
        <ele>810</ele>
        <time>2014-08-28T10:48:15Z</time>
      </trkpt>
      <trkpt lat="45.37632" lon="6.0355">
        <ele>812</ele>
        <time>2014-08-28T10:48:22Z</time>
      </trkpt>
      <trkpt lat="45.37646" lon="6.03554">
        <ele>814</ele>
        <time>2014-08-28T10:48:31Z</time>
      </trkpt>
      <trkpt lat="45.37668" lon="6.03564">
        <ele>815</ele>
        <time>2014-08-28T10:48:43Z</time>
      </trkpt>
      <trkpt lat="45.37695" lon="6.03566">
        <ele>817</ele>
        <time>2014-08-28T10:48:57Z</time>
      </trkpt>
      <trkpt lat="45.37713" lon="6.03563">
        <ele>819</ele>
        <time>2014-08-28T10:49:08Z</time>
      </trkpt>
      <trkpt lat="45.37746" lon="6.0354">
        <ele>824</ele>
        <time>2014-08-28T10:49:31Z</time>
      </trkpt>
      <trkpt lat="45.37755" lon="6.0354">
        <ele>825</ele>
        <time>2014-08-28T10:49:37Z</time>
      </trkpt>
      <trkpt lat="45.37769" lon="6.03535">
        <ele>826</ele>
        <time>2014-08-28T10:49:47Z</time>
      </trkpt>
      <trkpt lat="45.37779" lon="6.03535">
        <ele>828</ele>
        <time>2014-08-28T10:49:55Z</time>
      </trkpt>
      <trkpt lat="45.37784" lon="6.03537">
        <ele>828</ele>
        <time>2014-08-28T10:49:58Z</time>
      </trkpt>
      <trkpt lat="45.37799" lon="6.03551">
        <ele>830</ele>
        <time>2014-08-28T10:50:08Z</time>
      </trkpt>
      <trkpt lat="45.37804" lon="6.0356">
        <ele>830</ele>
        <time>2014-08-28T10:50:14Z</time>
      </trkpt>
      <trkpt lat="45.37819" lon="6.03576">
        <ele>833</ele>
        <time>2014-08-28T10:50:26Z</time>
      </trkpt>
      <trkpt lat="45.37827" lon="6.03577">
        <ele>835</ele>
        <time>2014-08-28T10:50:33Z</time>
      </trkpt>
      <trkpt lat="45.37853" lon="6.03586">
        <ele>838</ele>
        <time>2014-08-28T10:50:51Z</time>
      </trkpt>
      <trkpt lat="45.37873" lon="6.03602">
        <ele>840</ele>
        <time>2014-08-28T10:51:03Z</time>
      </trkpt>
      <trkpt lat="45.3788" lon="6.03605">
        <ele>841</ele>
        <time>2014-08-28T10:51:07Z</time>
      </trkpt>
      <trkpt lat="45.37892" lon="6.03607">
        <ele>842</ele>
        <time>2014-08-28T10:51:14Z</time>
      </trkpt>
      <trkpt lat="45.37897" lon="6.0361">
        <ele>843</ele>
        <time>2014-08-28T10:51:17Z</time>
      </trkpt>
      <trkpt lat="45.37913" lon="6.03625">
        <ele>845</ele>
        <time>2014-08-28T10:51:28Z</time>
      </trkpt>
      <trkpt lat="45.37915" lon="6.03632">
        <ele>845</ele>
        <time>2014-08-28T10:51:31Z</time>
      </trkpt>
      <trkpt lat="45.37917" lon="6.03644">
        <ele>846</ele>
        <time>2014-08-28T10:51:37Z</time>
      </trkpt>
      <trkpt lat="45.37929" lon="6.03659">
        <ele>847</ele>
        <time>2014-08-28T10:51:47Z</time>
      </trkpt>
      <trkpt lat="45.37932" lon="6.0366">
        <ele>848</ele>
        <time>2014-08-28T10:51:49Z</time>
      </trkpt>
      <trkpt lat="45.37937" lon="6.0366">
        <ele>849</ele>
        <time>2014-08-28T10:51:52Z</time>
      </trkpt>
      <trkpt lat="45.3795" lon="6.03667">
        <ele>850</ele>
        <time>2014-08-28T10:52:01Z</time>
      </trkpt>
      <trkpt lat="45.37954" lon="6.03672">
        <ele>851</ele>
        <time>2014-08-28T10:52:05Z</time>
      </trkpt>
      <trkpt lat="45.37959" lon="6.03674">
        <ele>851</ele>
        <time>2014-08-28T10:52:08Z</time>
      </trkpt>
      <trkpt lat="45.37966" lon="6.03679">
        <ele>853</ele>
        <time>2014-08-28T10:52:14Z</time>
      </trkpt>
      <trkpt lat="45.37982" lon="6.03682">
        <ele>855</ele>
        <time>2014-08-28T10:52:25Z</time>
      </trkpt>
      <trkpt lat="45.37983" lon="6.03681">
        <ele>855</ele>
        <time>2014-08-28T10:52:26Z</time>
      </trkpt>
      <trkpt lat="45.37983" lon="6.0368">
        <ele>856</ele>
        <time>2014-08-28T10:52:27Z</time>
      </trkpt>
      <trkpt lat="45.3798" lon="6.03673">
        <ele>856</ele>
        <time>2014-08-28T10:52:32Z</time>
      </trkpt>
      <trkpt lat="45.37974" lon="6.03665">
        <ele>857</ele>
        <time>2014-08-28T10:52:37Z</time>
      </trkpt>
      <trkpt lat="45.37962" lon="6.03657">
        <ele>858</ele>
        <time>2014-08-28T10:52:46Z</time>
      </trkpt>
      <trkpt lat="45.37955" lon="6.03648">
        <ele>860</ele>
        <time>2014-08-28T10:52:53Z</time>
      </trkpt>
      <trkpt lat="45.37948" lon="6.03633">
        <ele>860</ele>
        <time>2014-08-28T10:53:01Z</time>
      </trkpt>
      <trkpt lat="45.3794" lon="6.03604">
        <ele>862</ele>
        <time>2014-08-28T10:53:15Z</time>
      </trkpt>
      <trkpt lat="45.37937" lon="6.03598">
        <ele>864</ele>
        <time>2014-08-28T10:53:18Z</time>
      </trkpt>
      <trkpt lat="45.37934" lon="6.03581">
        <ele>864</ele>
        <time>2014-08-28T10:53:26Z</time>
      </trkpt>
      <trkpt lat="45.37931" lon="6.03575">
        <ele>866</ele>
        <time>2014-08-28T10:53:29Z</time>
      </trkpt>
      <trkpt lat="45.37916" lon="6.03534">
        <ele>869</ele>
        <time>2014-08-28T10:53:51Z</time>
      </trkpt>
      <trkpt lat="45.37913" lon="6.03518">
        <ele>870</ele>
        <time>2014-08-28T10:53:58Z</time>
      </trkpt>
      <trkpt lat="45.37907" lon="6.03505">
        <ele>871</ele>
        <time>2014-08-28T10:54:05Z</time>
      </trkpt>
      <trkpt lat="45.37896" lon="6.03487">
        <ele>872</ele>
        <time>2014-08-28T10:54:16Z</time>
      </trkpt>
      <trkpt lat="45.37898" lon="6.0348">
        <ele>874</ele>
        <time>2014-08-28T10:54:20Z</time>
      </trkpt>
      <trkpt lat="45.37904" lon="6.0348">
        <ele>874</ele>
        <time>2014-08-28T10:54:24Z</time>
      </trkpt>
      <trkpt lat="45.37915" lon="6.03492">
        <ele>876</ele>
        <time>2014-08-28T10:54:32Z</time>
      </trkpt>
      <trkpt lat="45.37923" lon="6.03506">
        <ele>876</ele>
        <time>2014-08-28T10:54:40Z</time>
      </trkpt>
      <trkpt lat="45.37928" lon="6.03524">
        <ele>879</ele>
        <time>2014-08-28T10:54:48Z</time>
      </trkpt>
      <trkpt lat="45.37932" lon="6.03531">
        <ele>879</ele>
        <time>2014-08-28T10:54:52Z</time>
      </trkpt>
      <trkpt lat="45.37942" lon="6.03538">
        <ele>880</ele>
        <time>2014-08-28T10:54:59Z</time>
      </trkpt>
      <trkpt lat="45.37952" lon="6.0354">
        <ele>881</ele>
        <time>2014-08-28T10:55:05Z</time>
      </trkpt>
      <trkpt lat="45.37961" lon="6.03545">
        <ele>882</ele>
        <time>2014-08-28T10:55:11Z</time>
      </trkpt>
      <trkpt lat="45.37974" lon="6.0357">
        <ele>884</ele>
        <time>2014-08-28T10:55:24Z</time>
      </trkpt>
      <trkpt lat="45.37981" lon="6.03578">
        <ele>885</ele>
        <time>2014-08-28T10:55:29Z</time>
      </trkpt>
      <trkpt lat="45.37988" lon="6.03586">
        <ele>885</ele>
        <time>2014-08-28T10:55:34Z</time>
      </trkpt>
      <trkpt lat="45.37998" lon="6.03593">
        <ele>887</ele>
        <time>2014-08-28T10:55:41Z</time>
      </trkpt>
      <trkpt lat="45.38012" lon="6.036">
        <ele>888</ele>
        <time>2014-08-28T10:55:50Z</time>
      </trkpt>
      <trkpt lat="45.38024" lon="6.03617">
        <ele>889</ele>
        <time>2014-08-28T10:56:02Z</time>
      </trkpt>
      <trkpt lat="45.38036" lon="6.0363">
        <ele>891</ele>
        <time>2014-08-28T10:56:10Z</time>
      </trkpt>
      <trkpt lat="45.38048" lon="6.03639">
        <ele>891</ele>
        <time>2014-08-28T10:56:17Z</time>
      </trkpt>
      <trkpt lat="45.38067" lon="6.03643">
        <ele>893</ele>
        <time>2014-08-28T10:56:28Z</time>
      </trkpt>
      <trkpt lat="45.38089" lon="6.03644">
        <ele>893</ele>
        <time>2014-08-28T10:56:37Z</time>
      </trkpt>
      <trkpt lat="45.38096" lon="6.03646">
        <ele>894</ele>
        <time>2014-08-28T10:56:40Z</time>
      </trkpt>
      <trkpt lat="45.38098" lon="6.03648">
        <ele>895</ele>
        <time>2014-08-28T10:56:41Z</time>
      </trkpt>
      <trkpt lat="45.38111" lon="6.03681">
        <ele>895</ele>
        <time>2014-08-28T10:56:52Z</time>
      </trkpt>
      <trkpt lat="45.3812" lon="6.03716">
        <ele>899</ele>
        <time>2014-08-28T10:57:08Z</time>
      </trkpt>
      <trkpt lat="45.3813" lon="6.0373">
        <ele>899</ele>
        <time>2014-08-28T10:57:17Z</time>
      </trkpt>
      <trkpt lat="45.38137" lon="6.03732">
        <ele>901</ele>
        <time>2014-08-28T10:57:22Z</time>
      </trkpt>
      <trkpt lat="45.38153" lon="6.0373">
        <ele>902</ele>
        <time>2014-08-28T10:57:32Z</time>
      </trkpt>
      <trkpt lat="45.38163" lon="6.0373">
        <ele>904</ele>
        <time>2014-08-28T10:57:39Z</time>
      </trkpt>
      <trkpt lat="45.38169" lon="6.03732">
        <ele>904</ele>
        <time>2014-08-28T10:57:44Z</time>
      </trkpt>
      <trkpt lat="45.38176" lon="6.03737">
        <ele>906</ele>
        <time>2014-08-28T10:57:48Z</time>
      </trkpt>
      <trkpt lat="45.3819" lon="6.03766">
        <ele>908</ele>
        <time>2014-08-28T10:58:04Z</time>
      </trkpt>
      <trkpt lat="45.38203" lon="6.0378">
        <ele>909</ele>
        <time>2014-08-28T10:58:12Z</time>
      </trkpt>
      <trkpt lat="45.3822" lon="6.03789">
        <ele>910</ele>
        <time>2014-08-28T10:58:21Z</time>
      </trkpt>
      <trkpt lat="45.38235" lon="6.03794">
        <ele>910</ele>
        <time>2014-08-28T10:58:28Z</time>
      </trkpt>
      <trkpt lat="45.38245" lon="6.03803">
        <ele>912</ele>
        <time>2014-08-28T10:58:34Z</time>
      </trkpt>
      <trkpt lat="45.38252" lon="6.03815">
        <ele>912</ele>
        <time>2014-08-28T10:58:39Z</time>
      </trkpt>
      <trkpt lat="45.38265" lon="6.03819">
        <ele>912</ele>
        <time>2014-08-28T10:58:47Z</time>
      </trkpt>
      <trkpt lat="45.38277" lon="6.03818">
        <ele>912</ele>
        <time>2014-08-28T10:58:53Z</time>
      </trkpt>
      <trkpt lat="45.38285" lon="6.03814">
        <ele>912</ele>
        <time>2014-08-28T10:58:58Z</time>
      </trkpt>
      <trkpt lat="45.38304" lon="6.03835">
        <ele>914</ele>
        <time>2014-08-28T10:59:05Z</time>
      </trkpt>
      <trkpt lat="45.38343" lon="6.03913">
        <ele>916</ele>
        <time>2014-08-28T10:59:32Z</time>
      </trkpt>
      <trkpt lat="45.38354" lon="6.03922">
        <ele>916</ele>
        <time>2014-08-28T10:59:37Z</time>
      </trkpt>
      <trkpt lat="45.3837" lon="6.03929">
        <ele>916</ele>
        <time>2014-08-28T10:59:43Z</time>
      </trkpt>
      <trkpt lat="45.38384" lon="6.03942">
        <ele>916</ele>
        <time>2014-08-28T10:59:50Z</time>
      </trkpt>
      <trkpt lat="45.38392" lon="6.03954">
        <ele>918</ele>
        <time>2014-08-28T10:59:54Z</time>
      </trkpt>
      <trkpt lat="45.38394" lon="6.0396">
        <ele>918</ele>
        <time>2014-08-28T10:59:56Z</time>
      </trkpt>
      <trkpt lat="45.38399" lon="6.03981">
        <ele>918</ele>
        <time>2014-08-28T11:00:02Z</time>
      </trkpt>
      <trkpt lat="45.38411" lon="6.04003">
        <ele>918</ele>
        <time>2014-08-28T11:00:10Z</time>
      </trkpt>
      <trkpt lat="45.38417" lon="6.04009">
        <ele>919</ele>
        <time>2014-08-28T11:00:13Z</time>
      </trkpt>
      <trkpt lat="45.38454" lon="6.04033">
        <ele>920</ele>
        <time>2014-08-28T11:00:31Z</time>
      </trkpt>
      <trkpt lat="45.38477" lon="6.04053">
        <ele>920</ele>
        <time>2014-08-28T11:00:42Z</time>
      </trkpt>
      <trkpt lat="45.38508" lon="6.04072">
        <ele>920</ele>
        <time>2014-08-28T11:00:52Z</time>
      </trkpt>
      <trkpt lat="45.3851" lon="6.04071">
        <ele>920</ele>
        <time>2014-08-28T11:00:53Z</time>
      </trkpt>
      <trkpt lat="45.38514" lon="6.04064">
        <ele>920</ele>
        <time>2014-08-28T11:00:55Z</time>
      </trkpt>
      <trkpt lat="45.38511" lon="6.04057">
        <ele>920</ele>
        <time>2014-08-28T11:00:58Z</time>
      </trkpt>
      <trkpt lat="45.38497" lon="6.0405">
        <ele>922</ele>
        <time>2014-08-28T11:01:08Z</time>
      </trkpt>
      <trkpt lat="45.38488" lon="6.04043">
        <ele>923</ele>
        <time>2014-08-28T11:01:16Z</time>
      </trkpt>
      <trkpt lat="45.38476" lon="6.04029">
        <ele>925</ele>
        <time>2014-08-28T11:01:28Z</time>
      </trkpt>
      <trkpt lat="45.38472" lon="6.04027">
        <ele>926</ele>
        <time>2014-08-28T11:01:31Z</time>
      </trkpt>
      <trkpt lat="45.38468" lon="6.04019">
        <ele>927</ele>
        <time>2014-08-28T11:01:37Z</time>
      </trkpt>
      <trkpt lat="45.38461" lon="6.04013">
        <ele>928</ele>
        <time>2014-08-28T11:01:43Z</time>
      </trkpt>
      <trkpt lat="45.38459" lon="6.04008">
        <ele>929</ele>
        <time>2014-08-28T11:01:46Z</time>
      </trkpt>
      <trkpt lat="45.3845" lon="6.03999">
        <ele>929</ele>
        <time>2014-08-28T11:01:54Z</time>
      </trkpt>
      <trkpt lat="45.38446" lon="6.03991">
        <ele>931</ele>
        <time>2014-08-28T11:01:59Z</time>
      </trkpt>
      <trkpt lat="45.38436" lon="6.03978">
        <ele>931</ele>
        <time>2014-08-28T11:02:09Z</time>
      </trkpt>
      <trkpt lat="45.38431" lon="6.03968">
        <ele>933</ele>
        <time>2014-08-28T11:02:15Z</time>
      </trkpt>
      <trkpt lat="45.38421" lon="6.03955">
        <ele>933</ele>
        <time>2014-08-28T11:02:25Z</time>
      </trkpt>
      <trkpt lat="45.38418" lon="6.03949">
        <ele>935</ele>
        <time>2014-08-28T11:02:29Z</time>
      </trkpt>
      <trkpt lat="45.38414" lon="6.03935">
        <ele>935</ele>
        <time>2014-08-28T11:02:38Z</time>
      </trkpt>
      <trkpt lat="45.38413" lon="6.03907">
        <ele>939</ele>
        <time>2014-08-28T11:02:53Z</time>
      </trkpt>
      <trkpt lat="45.38408" lon="6.03896">
        <ele>939</ele>
        <time>2014-08-28T11:03:00Z</time>
      </trkpt>
      <trkpt lat="45.38401" lon="6.03891">
        <ele>940</ele>
        <time>2014-08-28T11:03:05Z</time>
      </trkpt>
      <trkpt lat="45.38399" lon="6.0389">
        <ele>941</ele>
        <time>2014-08-28T11:03:07Z</time>
      </trkpt>
      <trkpt lat="45.38397" lon="6.03886">
        <ele>941</ele>
        <time>2014-08-28T11:03:10Z</time>
      </trkpt>
      <trkpt lat="45.38385" lon="6.03876">
        <ele>943</ele>
        <time>2014-08-28T11:03:19Z</time>
      </trkpt>
      <trkpt lat="45.38372" lon="6.03855">
        <ele>945</ele>
        <time>2014-08-28T11:03:35Z</time>
      </trkpt>
      <trkpt lat="45.38372" lon="6.03843">
        <ele>947</ele>
        <time>2014-08-28T11:03:42Z</time>
      </trkpt>
      <trkpt lat="45.38365" lon="6.03813">
        <ele>948</ele>
        <time>2014-08-28T11:03:56Z</time>
      </trkpt>
      <trkpt lat="45.38352" lon="6.03777">
        <ele>952</ele>
        <time>2014-08-28T11:04:17Z</time>
      </trkpt>
      <trkpt lat="45.38343" lon="6.03735">
        <ele>956</ele>
        <time>2014-08-28T11:04:43Z</time>
      </trkpt>
      <trkpt lat="45.38324" lon="6.03712">
        <ele>960</ele>
        <time>2014-08-28T11:05:02Z</time>
      </trkpt>
      <trkpt lat="45.38319" lon="6.03704">
        <ele>960</ele>
        <time>2014-08-28T11:05:08Z</time>
      </trkpt>
      <trkpt lat="45.38292" lon="6.03685">
        <ele>965</ele>
        <time>2014-08-28T11:05:30Z</time>
      </trkpt>
      <trkpt lat="45.38279" lon="6.03668">
        <ele>966</ele>
        <time>2014-08-28T11:05:39Z</time>
      </trkpt>
      <trkpt lat="45.38272" lon="6.03655">
        <ele>966</ele>
        <time>2014-08-28T11:05:45Z</time>
      </trkpt>
      <trkpt lat="45.38266" lon="6.0364">
        <ele>966</ele>
        <time>2014-08-28T11:05:51Z</time>
      </trkpt>
      <trkpt lat="45.38261" lon="6.03619">
        <ele>966</ele>
        <time>2014-08-28T11:05:57Z</time>
      </trkpt>
      <trkpt lat="45.38257" lon="6.03584">
        <ele>966</ele>
        <time>2014-08-28T11:06:04Z</time>
      </trkpt>
      <trkpt lat="45.38248" lon="6.03578">
        <ele>966</ele>
        <time>2014-08-28T11:06:07Z</time>
      </trkpt>
      <trkpt lat="45.38244" lon="6.03578">
        <ele>965</ele>
        <time>2014-08-28T11:06:08Z</time>
      </trkpt>
      <trkpt lat="45.38222" lon="6.03586">
        <ele>964</ele>
        <time>2014-08-28T11:06:12Z</time>
      </trkpt>
      <trkpt lat="45.38214" lon="6.03591">
        <ele>964</ele>
        <time>2014-08-28T11:06:14Z</time>
      </trkpt>
      <trkpt lat="45.38196" lon="6.03606">
        <ele>963</ele>
        <time>2014-08-28T11:06:18Z</time>
      </trkpt>
      <trkpt lat="45.38186" lon="6.03608">
        <ele>962</ele>
        <time>2014-08-28T11:06:20Z</time>
      </trkpt>
      <trkpt lat="45.38153" lon="6.03609">
        <ele>960</ele>
        <time>2014-08-28T11:06:25Z</time>
      </trkpt>
      <trkpt lat="45.38143" lon="6.03603">
        <ele>960</ele>
        <time>2014-08-28T11:06:28Z</time>
      </trkpt>
      <trkpt lat="45.38136" lon="6.0359">
        <ele>959</ele>
        <time>2014-08-28T11:06:32Z</time>
      </trkpt>
      <trkpt lat="45.38138" lon="6.03577">
        <ele>958</ele>
        <time>2014-08-28T11:06:34Z</time>
      </trkpt>
      <trkpt lat="45.38138" lon="6.03562">
        <ele>957</ele>
        <time>2014-08-28T11:06:37Z</time>
      </trkpt>
      <trkpt lat="45.38129" lon="6.03527">
        <ele>954</ele>
        <time>2014-08-28T11:06:44Z</time>
      </trkpt>
      <trkpt lat="45.38086" lon="6.03485">
        <ele>951</ele>
        <time>2014-08-28T11:06:52Z</time>
      </trkpt>
      <trkpt lat="45.38068" lon="6.0348">
        <ele>951</ele>
        <time>2014-08-28T11:06:57Z</time>
      </trkpt>
      <trkpt lat="45.38062" lon="6.03474">
        <ele>951</ele>
        <time>2014-08-28T11:07:01Z</time>
      </trkpt>
      <trkpt lat="45.38056" lon="6.03462">
        <ele>951</ele>
        <time>2014-08-28T11:07:06Z</time>
      </trkpt>
      <trkpt lat="45.38045" lon="6.03448">
        <ele>953</ele>
        <time>2014-08-28T11:07:13Z</time>
      </trkpt>
      <trkpt lat="45.38041" lon="6.03433">
        <ele>953</ele>
        <time>2014-08-28T11:07:17Z</time>
      </trkpt>
      <trkpt lat="45.38028" lon="6.03402">
        <ele>953</ele>
        <time>2014-08-28T11:07:22Z</time>
      </trkpt>
      <trkpt lat="45.38019" lon="6.03384">
        <ele>952</ele>
        <time>2014-08-28T11:07:25Z</time>
      </trkpt>
      <trkpt lat="45.38006" lon="6.03364">
        <ele>951</ele>
        <time>2014-08-28T11:07:29Z</time>
      </trkpt>
      <trkpt lat="45.37961" lon="6.03319">
        <ele>949</ele>
        <time>2014-08-28T11:07:39Z</time>
      </trkpt>
      <trkpt lat="45.37951" lon="6.03312">
        <ele>949</ele>
        <time>2014-08-28T11:07:45Z</time>
      </trkpt>
      <trkpt lat="45.37946" lon="6.0331">
        <ele>949</ele>
        <time>2014-08-28T11:07:48Z</time>
      </trkpt>
      <trkpt lat="45.37928" lon="6.03303">
        <ele>950</ele>
        <time>2014-08-28T11:07:58Z</time>
      </trkpt>
      <trkpt lat="45.37911" lon="6.0329">
        <ele>951</ele>
        <time>2014-08-28T11:08:08Z</time>
      </trkpt>
      <trkpt lat="45.37901" lon="6.0328">
        <ele>951</ele>
        <time>2014-08-28T11:08:13Z</time>
      </trkpt>
      <trkpt lat="45.37879" lon="6.03247">
        <ele>951</ele>
        <time>2014-08-28T11:08:22Z</time>
      </trkpt>
      <trkpt lat="45.37874" lon="6.03244">
        <ele>951</ele>
        <time>2014-08-28T11:08:23Z</time>
      </trkpt>
      <trkpt lat="45.37852" lon="6.0322">
        <ele>951</ele>
        <time>2014-08-28T11:08:28Z</time>
      </trkpt>
      <trkpt lat="45.37831" lon="6.03187">
        <ele>948</ele>
        <time>2014-08-28T11:08:38Z</time>
      </trkpt>
      <trkpt lat="45.37837" lon="6.03209">
        <ele>947</ele>
        <time>2014-08-28T11:12:04Z</time>
      </trkpt>
      <trkpt lat="45.37843" lon="6.03227">
        <ele>947</ele>
        <time>2014-08-28T11:12:13Z</time>
      </trkpt>
      <trkpt lat="45.37847" lon="6.0323">
        <ele>949</ele>
        <time>2014-08-28T11:12:17Z</time>
      </trkpt>
      <trkpt lat="45.37851" lon="6.03241">
        <ele>949</ele>
        <time>2014-08-28T11:12:25Z</time>
      </trkpt>
      <trkpt lat="45.37863" lon="6.03252">
        <ele>949</ele>
        <time>2014-08-28T11:12:50Z</time>
      </trkpt>
      <trkpt lat="45.37888" lon="6.03266">
        <ele>949</ele>
        <time>2014-08-28T11:13:04Z</time>
      </trkpt>
      <trkpt lat="45.37916" lon="6.03279">
        <ele>953</ele>
        <time>2014-08-28T11:13:17Z</time>
      </trkpt>
      <trkpt lat="45.37932" lon="6.03295">
        <ele>953</ele>
        <time>2014-08-28T11:13:26Z</time>
      </trkpt>
      <trkpt lat="45.37957" lon="6.03309">
        <ele>952</ele>
        <time>2014-08-28T11:13:33Z</time>
      </trkpt>
      <trkpt lat="45.37988" lon="6.03344">
        <ele>949</ele>
        <time>2014-08-28T11:13:39Z</time>
      </trkpt>
      <trkpt lat="45.37999" lon="6.03352">
        <ele>948</ele>
        <time>2014-08-28T11:13:41Z</time>
      </trkpt>
      <trkpt lat="45.38012" lon="6.03359">
        <ele>948</ele>
        <time>2014-08-28T11:13:45Z</time>
      </trkpt>
      <trkpt lat="45.38016" lon="6.03362">
        <ele>948</ele>
        <time>2014-08-28T11:13:47Z</time>
      </trkpt>
      <trkpt lat="45.38023" lon="6.03372">
        <ele>949</ele>
        <time>2014-08-28T11:13:53Z</time>
      </trkpt>
      <trkpt lat="45.38036" lon="6.03411">
        <ele>950</ele>
        <time>2014-08-28T11:14:08Z</time>
      </trkpt>
      <trkpt lat="45.38043" lon="6.03424">
        <ele>952</ele>
        <time>2014-08-28T11:14:14Z</time>
      </trkpt>
      <trkpt lat="45.38044" lon="6.03435">
        <ele>952</ele>
        <time>2014-08-28T11:14:18Z</time>
      </trkpt>
      <trkpt lat="45.38046" lon="6.0344">
        <ele>952</ele>
        <time>2014-08-28T11:14:20Z</time>
      </trkpt>
      <trkpt lat="45.38053" lon="6.03452">
        <ele>952</ele>
        <time>2014-08-28T11:14:25Z</time>
      </trkpt>
      <trkpt lat="45.38067" lon="6.03467">
        <ele>952</ele>
        <time>2014-08-28T11:14:29Z</time>
      </trkpt>
      <trkpt lat="45.38086" lon="6.03479">
        <ele>952</ele>
        <time>2014-08-28T11:14:33Z</time>
      </trkpt>
      <trkpt lat="45.38111" lon="6.03489">
        <ele>951</ele>
        <time>2014-08-28T11:14:37Z</time>
      </trkpt>
      <trkpt lat="45.38124" lon="6.03499">
        <ele>950</ele>
        <time>2014-08-28T11:14:41Z</time>
      </trkpt>
      <trkpt lat="45.38136" lon="6.03504">
        <ele>950</ele>
        <time>2014-08-28T11:14:46Z</time>
      </trkpt>
      <trkpt lat="45.38151" lon="6.03506">
        <ele>952</ele>
        <time>2014-08-28T11:14:52Z</time>
      </trkpt>
      <trkpt lat="45.38168" lon="6.03504">
        <ele>952</ele>
        <time>2014-08-28T11:14:58Z</time>
      </trkpt>
      <trkpt lat="45.38181" lon="6.03505">
        <ele>954</ele>
        <time>2014-08-28T11:15:03Z</time>
      </trkpt>
      <trkpt lat="45.38181" lon="6.03514">
        <ele>954</ele>
        <time>2014-08-28T11:15:07Z</time>
      </trkpt>
      <trkpt lat="45.38176" lon="6.03537">
        <ele>957</ele>
        <time>2014-08-28T11:15:15Z</time>
      </trkpt>
      <trkpt lat="45.38174" lon="6.03555">
        <ele>957</ele>
        <time>2014-08-28T11:15:22Z</time>
      </trkpt>
      <trkpt lat="45.38178" lon="6.03565">
        <ele>957</ele>
        <time>2014-08-28T11:15:27Z</time>
      </trkpt>
      <trkpt lat="45.38185" lon="6.03572">
        <ele>957</ele>
        <time>2014-08-28T11:15:30Z</time>
      </trkpt>
      <trkpt lat="45.38201" lon="6.03582">
        <ele>957</ele>
        <time>2014-08-28T11:15:37Z</time>
      </trkpt>
      <trkpt lat="45.38204" lon="6.03586">
        <ele>959</ele>
        <time>2014-08-28T11:15:40Z</time>
      </trkpt>
      <trkpt lat="45.38214" lon="6.03579">
        <ele>961</ele>
        <time>2014-08-28T11:15:52Z</time>
      </trkpt>
      <trkpt lat="45.38233" lon="6.03575">
        <ele>961</ele>
        <time>2014-08-28T11:16:05Z</time>
      </trkpt>
      <trkpt lat="45.38253" lon="6.03567">
        <ele>963</ele>
        <time>2014-08-28T11:16:15Z</time>
      </trkpt>
      <trkpt lat="45.38263" lon="6.03568">
        <ele>963</ele>
        <time>2014-08-28T11:16:20Z</time>
      </trkpt>
      <trkpt lat="45.38265" lon="6.03572">
        <ele>963</ele>
        <time>2014-08-28T11:16:22Z</time>
      </trkpt>
      <trkpt lat="45.38265" lon="6.03577">
        <ele>963</ele>
        <time>2014-08-28T11:16:24Z</time>
      </trkpt>
      <trkpt lat="45.38262" lon="6.03629">
        <ele>967</ele>
        <time>2014-08-28T11:16:43Z</time>
      </trkpt>
      <trkpt lat="45.38277" lon="6.03661">
        <ele>967</ele>
        <time>2014-08-28T11:16:53Z</time>
      </trkpt>
      <trkpt lat="45.38284" lon="6.03671">
        <ele>967</ele>
        <time>2014-08-28T11:16:56Z</time>
      </trkpt>
      <trkpt lat="45.38293" lon="6.03682">
        <ele>967</ele>
        <time>2014-08-28T11:17:00Z</time>
      </trkpt>
      <trkpt lat="45.38344" lon="6.03727">
        <ele>964</ele>
        <time>2014-08-28T11:17:13Z</time>
      </trkpt>
      <trkpt lat="45.38351" lon="6.03737">
        <ele>962</ele>
        <time>2014-08-28T11:17:15Z</time>
      </trkpt>
      <trkpt lat="45.38356" lon="6.03752">
        <ele>961</ele>
        <time>2014-08-28T11:17:17Z</time>
      </trkpt>
      <trkpt lat="45.38362" lon="6.03783">
        <ele>959</ele>
        <time>2014-08-28T11:17:21Z</time>
      </trkpt>
      <trkpt lat="45.38374" lon="6.03824">
        <ele>955</ele>
        <time>2014-08-28T11:17:26Z</time>
      </trkpt>
      <trkpt lat="45.38382" lon="6.03858">
        <ele>952</ele>
        <time>2014-08-28T11:17:31Z</time>
      </trkpt>
      <trkpt lat="45.3839" lon="6.03875">
        <ele>950</ele>
        <time>2014-08-28T11:17:34Z</time>
      </trkpt>
      <trkpt lat="45.38413" lon="6.03906">
        <ele>946</ele>
        <time>2014-08-28T11:17:40Z</time>
      </trkpt>
      <trkpt lat="45.38417" lon="6.0392">
        <ele>945</ele>
        <time>2014-08-28T11:17:42Z</time>
      </trkpt>
      <trkpt lat="45.38417" lon="6.03941">
        <ele>943</ele>
        <time>2014-08-28T11:17:45Z</time>
      </trkpt>
      <trkpt lat="45.38418" lon="6.03947">
        <ele>942</ele>
        <time>2014-08-28T11:17:46Z</time>
      </trkpt>
      <trkpt lat="45.38421" lon="6.03953">
        <ele>942</ele>
        <time>2014-08-28T11:17:47Z</time>
      </trkpt>
      <trkpt lat="45.38445" lon="6.03993">
        <ele>937</ele>
        <time>2014-08-28T11:17:54Z</time>
      </trkpt>
      <trkpt lat="45.38463" lon="6.04018">
        <ele>935</ele>
        <time>2014-08-28T11:17:59Z</time>
      </trkpt>
      <trkpt lat="45.385" lon="6.04054">
        <ele>930</ele>
        <time>2014-08-28T11:18:07Z</time>
      </trkpt>
      <trkpt lat="45.38528" lon="6.04086">
        <ele>927</ele>
        <time>2014-08-28T11:18:12Z</time>
      </trkpt>
      <trkpt lat="45.38555" lon="6.04129">
        <ele>924</ele>
        <time>2014-08-28T11:18:17Z</time>
      </trkpt>
      <trkpt lat="45.38562" lon="6.04134">
        <ele>924</ele>
        <time>2014-08-28T11:18:18Z</time>
      </trkpt>
      <trkpt lat="45.38569" lon="6.04137">
        <ele>923</ele>
        <time>2014-08-28T11:18:19Z</time>
      </trkpt>
      <trkpt lat="45.38587" lon="6.04139">
        <ele>922</ele>
        <time>2014-08-28T11:18:22Z</time>
      </trkpt>
      <trkpt lat="45.38611" lon="6.04145">
        <ele>922</ele>
        <time>2014-08-28T11:18:31Z</time>
      </trkpt>
      <trkpt lat="45.38625" lon="6.04154">
        <ele>924</ele>
        <time>2014-08-28T11:18:41Z</time>
      </trkpt>
      <trkpt lat="45.38634" lon="6.04155">
        <ele>926</ele>
        <time>2014-08-28T11:18:46Z</time>
      </trkpt>
      <trkpt lat="45.3864" lon="6.0416">
        <ele>926</ele>
        <time>2014-08-28T11:18:52Z</time>
      </trkpt>
      <trkpt lat="45.38646" lon="6.04174">
        <ele>928</ele>
        <time>2014-08-28T11:19:03Z</time>
      </trkpt>
      <trkpt lat="45.38649" lon="6.04209">
        <ele>930</ele>
        <time>2014-08-28T11:19:14Z</time>
      </trkpt>
      <trkpt lat="45.38658" lon="6.04227">
        <ele>932</ele>
        <time>2014-08-28T11:19:24Z</time>
      </trkpt>
      <trkpt lat="45.38661" lon="6.04239">
        <ele>933</ele>
        <time>2014-08-28T11:19:30Z</time>
      </trkpt>
      <trkpt lat="45.38666" lon="6.04268">
        <ele>935</ele>
        <time>2014-08-28T11:19:43Z</time>
      </trkpt>
      <trkpt lat="45.38675" lon="6.04279">
        <ele>936</ele>
        <time>2014-08-28T11:19:50Z</time>
      </trkpt>
      <trkpt lat="45.38681" lon="6.04296">
        <ele>937</ele>
        <time>2014-08-28T11:19:57Z</time>
      </trkpt>
      <trkpt lat="45.38682" lon="6.04308">
        <ele>938</ele>
        <time>2014-08-28T11:20:02Z</time>
      </trkpt>
      <trkpt lat="45.38689" lon="6.04319">
        <ele>939</ele>
        <time>2014-08-28T11:20:09Z</time>
      </trkpt>
      <trkpt lat="45.38695" lon="6.04324">
        <ele>940</ele>
        <time>2014-08-28T11:20:13Z</time>
      </trkpt>
      <trkpt lat="45.38699" lon="6.04331">
        <ele>940</ele>
        <time>2014-08-28T11:20:17Z</time>
      </trkpt>
      <trkpt lat="45.38697" lon="6.0435">
        <ele>940</ele>
        <time>2014-08-28T11:20:23Z</time>
      </trkpt>
      <trkpt lat="45.38703" lon="6.0436">
        <ele>942</ele>
        <time>2014-08-28T11:20:29Z</time>
      </trkpt>
      <trkpt lat="45.38716" lon="6.0437">
        <ele>943</ele>
        <time>2014-08-28T11:20:38Z</time>
      </trkpt>
      <trkpt lat="45.3874" lon="6.04382">
        <ele>946</ele>
        <time>2014-08-28T11:20:54Z</time>
      </trkpt>
      <trkpt lat="45.38762" lon="6.04386">
        <ele>948</ele>
        <time>2014-08-28T11:21:05Z</time>
      </trkpt>
      <trkpt lat="45.38769" lon="6.0439">
        <ele>948</ele>
        <time>2014-08-28T11:21:09Z</time>
      </trkpt>
      <trkpt lat="45.38779" lon="6.04403">
        <ele>950</ele>
        <time>2014-08-28T11:21:16Z</time>
      </trkpt>
      <trkpt lat="45.38795" lon="6.04412">
        <ele>951</ele>
        <time>2014-08-28T11:21:26Z</time>
      </trkpt>
      <trkpt lat="45.38811" lon="6.04431">
        <ele>953</ele>
        <time>2014-08-28T11:21:37Z</time>
      </trkpt>
      <trkpt lat="45.38834" lon="6.0445">
        <ele>956</ele>
        <time>2014-08-28T11:21:52Z</time>
      </trkpt>
      <trkpt lat="45.38844" lon="6.0445">
        <ele>957</ele>
        <time>2014-08-28T11:21:56Z</time>
      </trkpt>
      <trkpt lat="45.38866" lon="6.04454">
        <ele>959</ele>
        <time>2014-08-28T11:22:09Z</time>
      </trkpt>
      <trkpt lat="45.38874" lon="6.0445">
        <ele>959</ele>
        <time>2014-08-28T11:22:17Z</time>
      </trkpt>
      <trkpt lat="45.3889" lon="6.04451">
        <ele>961</ele>
        <time>2014-08-28T11:22:26Z</time>
      </trkpt>
      <trkpt lat="45.38895" lon="6.04468">
        <ele>961</ele>
        <time>2014-08-28T11:22:31Z</time>
      </trkpt>
      <trkpt lat="45.38897" lon="6.04495">
        <ele>961</ele>
        <time>2014-08-28T11:22:36Z</time>
      </trkpt>
      <trkpt lat="45.38897" lon="6.04559">
        <ele>961</ele>
        <time>2014-08-28T11:22:45Z</time>
      </trkpt>
      <trkpt lat="45.38899" lon="6.04573">
        <ele>961</ele>
        <time>2014-08-28T11:22:47Z</time>
      </trkpt>
      <trkpt lat="45.38916" lon="6.04588">
        <ele>961</ele>
        <time>2014-08-28T11:22:50Z</time>
      </trkpt>
      <trkpt lat="45.38947" lon="6.04648">
        <ele>959</ele>
        <time>2014-08-28T11:22:58Z</time>
      </trkpt>
      <trkpt lat="45.3897" lon="6.04668">
        <ele>958</ele>
        <time>2014-08-28T11:23:01Z</time>
      </trkpt>
      <trkpt lat="45.38997" lon="6.047">
        <ele>956</ele>
        <time>2014-08-28T11:23:05Z</time>
      </trkpt>
      <trkpt lat="45.39011" lon="6.04713">
        <ele>955</ele>
        <time>2014-08-28T11:23:07Z</time>
      </trkpt>
      <trkpt lat="45.39061" lon="6.04744">
        <ele>953</ele>
        <time>2014-08-28T11:23:13Z</time>
      </trkpt>
      <trkpt lat="45.39076" lon="6.04755">
        <ele>951</ele>
        <time>2014-08-28T11:23:15Z</time>
      </trkpt>
      <trkpt lat="45.39103" lon="6.04782">
        <ele>949</ele>
        <time>2014-08-28T11:23:19Z</time>
      </trkpt>
      <trkpt lat="45.39127" lon="6.04814">
        <ele>947</ele>
        <time>2014-08-28T11:23:23Z</time>
      </trkpt>
      <trkpt lat="45.39148" lon="6.04835">
        <ele>947</ele>
        <time>2014-08-28T11:23:26Z</time>
      </trkpt>
      <trkpt lat="45.39163" lon="6.04846">
        <ele>946</ele>
        <time>2014-08-28T11:23:28Z</time>
      </trkpt>
      <trkpt lat="45.39195" lon="6.0486">
        <ele>944</ele>
        <time>2014-08-28T11:23:32Z</time>
      </trkpt>
      <trkpt lat="45.39208" lon="6.04868">
        <ele>943</ele>
        <time>2014-08-28T11:23:34Z</time>
      </trkpt>
      <trkpt lat="45.39226" lon="6.04886">
        <ele>941</ele>
        <time>2014-08-28T11:23:39Z</time>
      </trkpt>
      <trkpt lat="45.39253" lon="6.04905">
        <ele>939</ele>
        <time>2014-08-28T11:23:48Z</time>
      </trkpt>
      <trkpt lat="45.3929" lon="6.04938">
        <ele>937</ele>
        <time>2014-08-28T11:23:56Z</time>
      </trkpt>
      <trkpt lat="45.39316" lon="6.04971">
        <ele>936</ele>
        <time>2014-08-28T11:24:01Z</time>
      </trkpt>
      <trkpt lat="45.39329" lon="6.04983">
        <ele>935</ele>
        <time>2014-08-28T11:24:03Z</time>
      </trkpt>
      <trkpt lat="45.39383" lon="6.05029">
        <ele>933</ele>
        <time>2014-08-28T11:24:11Z</time>
      </trkpt>
      <trkpt lat="45.3942" lon="6.05055">
        <ele>931</ele>
        <time>2014-08-28T11:24:16Z</time>
      </trkpt>
      <trkpt lat="45.39466" lon="6.05084">
        <ele>930</ele>
        <time>2014-08-28T11:24:23Z</time>
      </trkpt>
      <trkpt lat="45.39576" lon="6.0514">
        <ele>928</ele>
        <time>2014-08-28T11:24:42Z</time>
      </trkpt>
      <trkpt lat="45.39585" lon="6.05143">
        <ele>928</ele>
        <time>2014-08-28T11:24:44Z</time>
      </trkpt>
      <trkpt lat="45.39626" lon="6.05152">
        <ele>928</ele>
        <time>2014-08-28T11:24:54Z</time>
      </trkpt>
      <trkpt lat="45.39629" lon="6.05153">
        <ele>928</ele>
        <time>2014-08-28T11:24:55Z</time>
      </trkpt>
      <trkpt lat="45.39641" lon="6.05166">
        <ele>928</ele>
        <time>2014-08-28T11:25:00Z</time>
      </trkpt>
      <trkpt lat="45.39653" lon="6.05165">
        <ele>928</ele>
        <time>2014-08-28T11:25:04Z</time>
      </trkpt>
      <trkpt lat="45.39673" lon="6.0515">
        <ele>928</ele>
        <time>2014-08-28T11:25:12Z</time>
      </trkpt>
      <trkpt lat="45.39687" lon="6.05146">
        <ele>928</ele>
        <time>2014-08-28T11:25:17Z</time>
      </trkpt>
      <trkpt lat="45.39696" lon="6.05148">
        <ele>928</ele>
        <time>2014-08-28T11:25:19Z</time>
      </trkpt>
      <trkpt lat="45.39706" lon="6.05156">
        <ele>928</ele>
        <time>2014-08-28T11:25:21Z</time>
      </trkpt>
      <trkpt lat="45.39754" lon="6.05228">
        <ele>923</ele>
        <time>2014-08-28T11:25:31Z</time>
      </trkpt>
      <trkpt lat="45.39759" lon="6.05236">
        <ele>923</ele>
        <time>2014-08-28T11:25:32Z</time>
      </trkpt>
      <trkpt lat="45.39766" lon="6.05271">
        <ele>919</ele>
        <time>2014-08-28T11:25:36Z</time>
      </trkpt>
      <trkpt lat="45.39781" lon="6.05293">
        <ele>918</ele>
        <time>2014-08-28T11:25:39Z</time>
      </trkpt>
      <trkpt lat="45.39803" lon="6.05323">
        <ele>914</ele>
        <time>2014-08-28T11:25:44Z</time>
      </trkpt>
      <trkpt lat="45.39823" lon="6.05359">
        <ele>911</ele>
        <time>2014-08-28T11:25:49Z</time>
      </trkpt>
      <trkpt lat="45.3983" lon="6.05387">
        <ele>909</ele>
        <time>2014-08-28T11:25:52Z</time>
      </trkpt>
      <trkpt lat="45.39838" lon="6.05447">
        <ele>904</ele>
        <time>2014-08-28T11:25:58Z</time>
      </trkpt>
      <trkpt lat="45.3985" lon="6.05472">
        <ele>902</ele>
        <time>2014-08-28T11:26:01Z</time>
      </trkpt>
      <trkpt lat="45.39853" lon="6.05481">
        <ele>902</ele>
        <time>2014-08-28T11:26:02Z</time>
      </trkpt>
      <trkpt lat="45.39856" lon="6.05499">
        <ele>900</ele>
        <time>2014-08-28T11:26:04Z</time>
      </trkpt>
      <trkpt lat="45.39868" lon="6.05535">
        <ele>897</ele>
        <time>2014-08-28T11:26:08Z</time>
      </trkpt>
      <trkpt lat="45.3987" lon="6.05557">
        <ele>895</ele>
        <time>2014-08-28T11:26:10Z</time>
      </trkpt>
      <trkpt lat="45.39872" lon="6.05601">
        <ele>892</ele>
        <time>2014-08-28T11:26:15Z</time>
      </trkpt>
      <trkpt lat="45.39875" lon="6.05607">
        <ele>890</ele>
        <time>2014-08-28T11:26:17Z</time>
      </trkpt>
      <trkpt lat="45.3989" lon="6.05604">
        <ele>886</ele>
        <time>2014-08-28T11:26:25Z</time>
      </trkpt>
      <trkpt lat="45.39897" lon="6.05613">
        <ele>886</ele>
        <time>2014-08-28T11:26:30Z</time>
      </trkpt>
      <trkpt lat="45.399" lon="6.05621">
        <ele>886</ele>
        <time>2014-08-28T11:26:33Z</time>
      </trkpt>
      <trkpt lat="45.39904" lon="6.05636">
        <ele>886</ele>
        <time>2014-08-28T11:26:39Z</time>
      </trkpt>
      <trkpt lat="45.39906" lon="6.0564">
        <ele>886</ele>
        <time>2014-08-28T11:26:41Z</time>
      </trkpt>
      <trkpt lat="45.3992" lon="6.05659">
        <ele>888</ele>
        <time>2014-08-28T11:26:51Z</time>
      </trkpt>
      <trkpt lat="45.39931" lon="6.05665">
        <ele>888</ele>
        <time>2014-08-28T11:26:57Z</time>
      </trkpt>
      <trkpt lat="45.39944" lon="6.05669">
        <ele>890</ele>
        <time>2014-08-28T11:27:04Z</time>
      </trkpt>
      <trkpt lat="45.39976" lon="6.05668">
        <ele>891</ele>
        <time>2014-08-28T11:27:19Z</time>
      </trkpt>
      <trkpt lat="45.39986" lon="6.05666">
        <ele>893</ele>
        <time>2014-08-28T11:27:24Z</time>
      </trkpt>
      <trkpt lat="45.40004" lon="6.05668">
        <ele>893</ele>
        <time>2014-08-28T11:27:32Z</time>
      </trkpt>
      <trkpt lat="45.40053" lon="6.05682">
        <ele>896</ele>
        <time>2014-08-28T11:27:56Z</time>
      </trkpt>
      <trkpt lat="45.40058" lon="6.05685">
        <ele>897</ele>
        <time>2014-08-28T11:27:59Z</time>
      </trkpt>
      <trkpt lat="45.40068" lon="6.05686">
        <ele>897</ele>
        <time>2014-08-28T11:28:04Z</time>
      </trkpt>
      <trkpt lat="45.40079" lon="6.05691">
        <ele>897</ele>
        <time>2014-08-28T11:28:09Z</time>
      </trkpt>
      <trkpt lat="45.40088" lon="6.05693">
        <ele>899</ele>
        <time>2014-08-28T11:28:14Z</time>
      </trkpt>
      <trkpt lat="45.40122" lon="6.05694">
        <ele>901</ele>
        <time>2014-08-28T11:28:33Z</time>
      </trkpt>
      <trkpt lat="45.40147" lon="6.05697">
        <ele>904</ele>
        <time>2014-08-28T11:28:50Z</time>
      </trkpt>
      <trkpt lat="45.40162" lon="6.0569">
        <ele>905</ele>
        <time>2014-08-28T11:28:58Z</time>
      </trkpt>
      <trkpt lat="45.40174" lon="6.05693">
        <ele>905</ele>
        <time>2014-08-28T11:29:03Z</time>
      </trkpt>
      <trkpt lat="45.40185" lon="6.057">
        <ele>906</ele>
        <time>2014-08-28T11:29:08Z</time>
      </trkpt>
      <trkpt lat="45.402" lon="6.05717">
        <ele>908</ele>
        <time>2014-08-28T11:29:17Z</time>
      </trkpt>
      <trkpt lat="45.4021" lon="6.05733">
        <ele>908</ele>
        <time>2014-08-28T11:29:24Z</time>
      </trkpt>
      <trkpt lat="45.4023" lon="6.0578">
        <ele>910</ele>
        <time>2014-08-28T11:29:42Z</time>
      </trkpt>
      <trkpt lat="45.40244" lon="6.05807">
        <ele>911</ele>
        <time>2014-08-28T11:29:54Z</time>
      </trkpt>
      <trkpt lat="45.40253" lon="6.05813">
        <ele>912</ele>
        <time>2014-08-28T11:29:59Z</time>
      </trkpt>
      <trkpt lat="45.40262" lon="6.05809">
        <ele>912</ele>
        <time>2014-08-28T11:30:06Z</time>
      </trkpt>
      <trkpt lat="45.40265" lon="6.05801">
        <ele>913</ele>
        <time>2014-08-28T11:30:10Z</time>
      </trkpt>
      <trkpt lat="45.40264" lon="6.0579">
        <ele>914</ele>
        <time>2014-08-28T11:30:16Z</time>
      </trkpt>
      <trkpt lat="45.40257" lon="6.05778">
        <ele>914</ele>
        <time>2014-08-28T11:30:23Z</time>
      </trkpt>
      <trkpt lat="45.40243" lon="6.05761">
        <ele>916</ele>
        <time>2014-08-28T11:30:36Z</time>
      </trkpt>
      <trkpt lat="45.40237" lon="6.05748">
        <ele>916</ele>
        <time>2014-08-28T11:30:43Z</time>
      </trkpt>
      <trkpt lat="45.40233" lon="6.05742">
        <ele>918</ele>
        <time>2014-08-28T11:30:46Z</time>
      </trkpt>
      <trkpt lat="45.40212" lon="6.05685">
        <ele>922</ele>
        <time>2014-08-28T11:31:14Z</time>
      </trkpt>
      <trkpt lat="45.40196" lon="6.05663">
        <ele>922</ele>
        <time>2014-08-28T11:31:25Z</time>
      </trkpt>
      <trkpt lat="45.40184" lon="6.05651">
        <ele>922</ele>
        <time>2014-08-28T11:31:32Z</time>
      </trkpt>
      <trkpt lat="45.40158" lon="6.05631">
        <ele>924</ele>
        <time>2014-08-28T11:31:45Z</time>
      </trkpt>
      <trkpt lat="45.40137" lon="6.05611">
        <ele>926</ele>
        <time>2014-08-28T11:31:57Z</time>
      </trkpt>
      <trkpt lat="45.40124" lon="6.05592">
        <ele>927</ele>
        <time>2014-08-28T11:32:07Z</time>
      </trkpt>
      <trkpt lat="45.40116" lon="6.05575">
        <ele>928</ele>
        <time>2014-08-28T11:32:15Z</time>
      </trkpt>
      <trkpt lat="45.40098" lon="6.05553">
        <ele>931</ele>
        <time>2014-08-28T11:32:29Z</time>
      </trkpt>
      <trkpt lat="45.40095" lon="6.05548">
        <ele>932</ele>
        <time>2014-08-28T11:32:32Z</time>
      </trkpt>
      <trkpt lat="45.40084" lon="6.05536">
        <ele>932</ele>
        <time>2014-08-28T11:32:39Z</time>
      </trkpt>
      <trkpt lat="45.40079" lon="6.05533">
        <ele>933</ele>
        <time>2014-08-28T11:32:42Z</time>
      </trkpt>
      <trkpt lat="45.40074" lon="6.05527">
        <ele>934</ele>
        <time>2014-08-28T11:32:46Z</time>
      </trkpt>
      <trkpt lat="45.40047" lon="6.05507">
        <ele>937</ele>
        <time>2014-08-28T11:33:00Z</time>
      </trkpt>
      <trkpt lat="45.40039" lon="6.05499">
        <ele>937</ele>
        <time>2014-08-28T11:33:07Z</time>
      </trkpt>
      <trkpt lat="45.40003" lon="6.05479">
        <ele>940</ele>
        <time>2014-08-28T11:33:27Z</time>
      </trkpt>
      <trkpt lat="45.39989" lon="6.05469">
        <ele>941</ele>
        <time>2014-08-28T11:33:35Z</time>
      </trkpt>
      <trkpt lat="45.39972" lon="6.05454">
        <ele>942</ele>
        <time>2014-08-28T11:33:45Z</time>
      </trkpt>
      <trkpt lat="45.39959" lon="6.05432">
        <ele>943</ele>
        <time>2014-08-28T11:33:56Z</time>
      </trkpt>
      <trkpt lat="45.3994" lon="6.05386">
        <ele>947</ele>
        <time>2014-08-28T11:34:16Z</time>
      </trkpt>
      <trkpt lat="45.3993" lon="6.05372">
        <ele>949</ele>
        <time>2014-08-28T11:34:24Z</time>
      </trkpt>
      <trkpt lat="45.39924" lon="6.05349">
        <ele>950</ele>
        <time>2014-08-28T11:34:35Z</time>
      </trkpt>
      <trkpt lat="45.39921" lon="6.05346">
        <ele>951</ele>
        <time>2014-08-28T11:34:37Z</time>
      </trkpt>
      <trkpt lat="45.39921" lon="6.05336">
        <ele>951</ele>
        <time>2014-08-28T11:34:41Z</time>
      </trkpt>
      <trkpt lat="45.39908" lon="6.05303">
        <ele>953</ele>
        <time>2014-08-28T11:34:57Z</time>
      </trkpt>
      <trkpt lat="45.39906" lon="6.05293">
        <ele>954</ele>
        <time>2014-08-28T11:35:01Z</time>
      </trkpt>
      <trkpt lat="45.39897" lon="6.05273">
        <ele>955</ele>
        <time>2014-08-28T11:35:10Z</time>
      </trkpt>
      <trkpt lat="45.39888" lon="6.05257">
        <ele>957</ele>
        <time>2014-08-28T11:35:19Z</time>
      </trkpt>
      <trkpt lat="45.39878" lon="6.05224">
        <ele>960</ele>
        <time>2014-08-28T11:35:32Z</time>
      </trkpt>
      <trkpt lat="45.39855" lon="6.05191">
        <ele>962</ele>
        <time>2014-08-28T11:35:47Z</time>
      </trkpt>
      <trkpt lat="45.39841" lon="6.05175">
        <ele>962</ele>
        <time>2014-08-28T11:35:56Z</time>
      </trkpt>
      <trkpt lat="45.39823" lon="6.05146">
        <ele>964</ele>
        <time>2014-08-28T11:36:11Z</time>
      </trkpt>
      <trkpt lat="45.39809" lon="6.05126">
        <ele>966</ele>
        <time>2014-08-28T11:36:22Z</time>
      </trkpt>
      <trkpt lat="45.39806" lon="6.05119">
        <ele>968</ele>
        <time>2014-08-28T11:36:26Z</time>
      </trkpt>
      <trkpt lat="45.39795" lon="6.05106">
        <ele>969</ele>
        <time>2014-08-28T11:36:34Z</time>
      </trkpt>
      <trkpt lat="45.39792" lon="6.05099">
        <ele>970</ele>
        <time>2014-08-28T11:36:37Z</time>
      </trkpt>
      <trkpt lat="45.39774" lon="6.05079">
        <ele>972</ele>
        <time>2014-08-28T11:36:49Z</time>
      </trkpt>
      <trkpt lat="45.39766" lon="6.05067">
        <ele>972</ele>
        <time>2014-08-28T11:36:55Z</time>
      </trkpt>
      <trkpt lat="45.39761" lon="6.05053">
        <ele>974</ele>
        <time>2014-08-28T11:37:02Z</time>
      </trkpt>
      <trkpt lat="45.39749" lon="6.0504">
        <ele>974</ele>
        <time>2014-08-28T11:37:11Z</time>
      </trkpt>
      <trkpt lat="45.39737" lon="6.05023">
        <ele>976</ele>
        <time>2014-08-28T11:37:21Z</time>
      </trkpt>
      <trkpt lat="45.39725" lon="6.05014">
        <ele>976</ele>
        <time>2014-08-28T11:37:29Z</time>
      </trkpt>
      <trkpt lat="45.3971" lon="6.05014">
        <ele>978</ele>
        <time>2014-08-28T11:37:36Z</time>
      </trkpt>
      <trkpt lat="45.39702" lon="6.05018">
        <ele>978</ele>
        <time>2014-08-28T11:37:41Z</time>
      </trkpt>
      <trkpt lat="45.39695" lon="6.05017">
        <ele>978</ele>
        <time>2014-08-28T11:37:44Z</time>
      </trkpt>
      <trkpt lat="45.39677" lon="6.05011">
        <ele>979</ele>
        <time>2014-08-28T11:37:53Z</time>
      </trkpt>
      <trkpt lat="45.39655" lon="6.04998">
        <ele>981</ele>
        <time>2014-08-28T11:38:05Z</time>
      </trkpt>
      <trkpt lat="45.39646" lon="6.04988">
        <ele>983</ele>
        <time>2014-08-28T11:38:13Z</time>
      </trkpt>
      <trkpt lat="45.39633" lon="6.04979">
        <ele>985</ele>
        <time>2014-08-28T11:38:20Z</time>
      </trkpt>
      <trkpt lat="45.39625" lon="6.0497">
        <ele>985</ele>
        <time>2014-08-28T11:38:26Z</time>
      </trkpt>
      <trkpt lat="45.39615" lon="6.04964">
        <ele>986</ele>
        <time>2014-08-28T11:38:31Z</time>
      </trkpt>
      <trkpt lat="45.39611" lon="6.04963">
        <ele>987</ele>
        <time>2014-08-28T11:38:33Z</time>
      </trkpt>
      <trkpt lat="45.39596" lon="6.04953">
        <ele>987</ele>
        <time>2014-08-28T11:38:42Z</time>
      </trkpt>
      <trkpt lat="45.39588" lon="6.04942">
        <ele>989</ele>
        <time>2014-08-28T11:38:51Z</time>
      </trkpt>
      <trkpt lat="45.39585" lon="6.04934">
        <ele>989</ele>
        <time>2014-08-28T11:38:55Z</time>
      </trkpt>
      <trkpt lat="45.39573" lon="6.04922">
        <ele>991</ele>
        <time>2014-08-28T11:39:04Z</time>
      </trkpt>
      <trkpt lat="45.39559" lon="6.04912">
        <ele>991</ele>
        <time>2014-08-28T11:39:12Z</time>
      </trkpt>
      <trkpt lat="45.39488" lon="6.0485">
        <ele>997</ele>
        <time>2014-08-28T11:39:58Z</time>
      </trkpt>
      <trkpt lat="45.39478" lon="6.04843">
        <ele>999</ele>
        <time>2014-08-28T11:40:04Z</time>
      </trkpt>
      <trkpt lat="45.39463" lon="6.04827">
        <ele>1001</ele>
        <time>2014-08-28T11:40:15Z</time>
      </trkpt>
      <trkpt lat="45.39446" lon="6.04813">
        <ele>1003</ele>
        <time>2014-08-28T11:40:25Z</time>
      </trkpt>
      <trkpt lat="45.39437" lon="6.04799">
        <ele>1004</ele>
        <time>2014-08-28T11:40:34Z</time>
      </trkpt>
      <trkpt lat="45.39427" lon="6.0479">
        <ele>1006</ele>
        <time>2014-08-28T11:40:42Z</time>
      </trkpt>
      <trkpt lat="45.39414" lon="6.04783">
        <ele>1006</ele>
        <time>2014-08-28T11:40:50Z</time>
      </trkpt>
      <trkpt lat="45.39405" lon="6.04771">
        <ele>1008</ele>
        <time>2014-08-28T11:40:58Z</time>
      </trkpt>
      <trkpt lat="45.39387" lon="6.04755">
        <ele>1010</ele>
        <time>2014-08-28T11:41:12Z</time>
      </trkpt>
      <trkpt lat="45.3938" lon="6.04742">
        <ele>1010</ele>
        <time>2014-08-28T11:41:19Z</time>
      </trkpt>
      <trkpt lat="45.39372" lon="6.04734">
        <ele>1012</ele>
        <time>2014-08-28T11:41:24Z</time>
      </trkpt>
      <trkpt lat="45.39358" lon="6.04709">
        <ele>1014</ele>
        <time>2014-08-28T11:41:37Z</time>
      </trkpt>
      <trkpt lat="45.39349" lon="6.04685">
        <ele>1014</ele>
        <time>2014-08-28T11:41:47Z</time>
      </trkpt>
      <trkpt lat="45.39323" lon="6.0465">
        <ele>1018</ele>
        <time>2014-08-28T11:42:07Z</time>
      </trkpt>
      <trkpt lat="45.39316" lon="6.04646">
        <ele>1018</ele>
        <time>2014-08-28T11:42:10Z</time>
      </trkpt>
      <trkpt lat="45.39302" lon="6.04642">
        <ele>1019</ele>
        <time>2014-08-28T11:42:17Z</time>
      </trkpt>
      <trkpt lat="45.39297" lon="6.04642">
        <ele>1020</ele>
        <time>2014-08-28T11:42:20Z</time>
      </trkpt>
      <trkpt lat="45.39275" lon="6.0463">
        <ele>1022</ele>
        <time>2014-08-28T11:42:33Z</time>
      </trkpt>
      <trkpt lat="45.39262" lon="6.04614">
        <ele>1022</ele>
        <time>2014-08-28T11:42:44Z</time>
      </trkpt>
      <trkpt lat="45.39244" lon="6.04599">
        <ele>1024</ele>
        <time>2014-08-28T11:42:55Z</time>
      </trkpt>
      <trkpt lat="45.39231" lon="6.04592">
        <ele>1027</ele>
        <time>2014-08-28T11:43:03Z</time>
      </trkpt>
      <trkpt lat="45.39223" lon="6.04585">
        <ele>1027</ele>
        <time>2014-08-28T11:43:08Z</time>
      </trkpt>
      <trkpt lat="45.39202" lon="6.04572">
        <ele>1029</ele>
        <time>2014-08-28T11:43:21Z</time>
      </trkpt>
      <trkpt lat="45.39197" lon="6.04562">
        <ele>1030</ele>
        <time>2014-08-28T11:43:26Z</time>
      </trkpt>
      <trkpt lat="45.39194" lon="6.04562">
        <ele>1031</ele>
        <time>2014-08-28T11:43:28Z</time>
      </trkpt>
      <trkpt lat="45.39189" lon="6.04555">
        <ele>1031</ele>
        <time>2014-08-28T11:43:32Z</time>
      </trkpt>
      <trkpt lat="45.39183" lon="6.0455">
        <ele>1031</ele>
        <time>2014-08-28T11:43:36Z</time>
      </trkpt>
      <trkpt lat="45.39175" lon="6.04537">
        <ele>1033</ele>
        <time>2014-08-28T11:43:45Z</time>
      </trkpt>
      <trkpt lat="45.39143" lon="6.04497">
        <ele>1037</ele>
        <time>2014-08-28T11:44:06Z</time>
      </trkpt>
      <trkpt lat="45.39138" lon="6.04484">
        <ele>1037</ele>
        <time>2014-08-28T11:44:12Z</time>
      </trkpt>
      <trkpt lat="45.39128" lon="6.04468">
        <ele>1039</ele>
        <time>2014-08-28T11:44:20Z</time>
      </trkpt>
      <trkpt lat="45.39108" lon="6.04449">
        <ele>1041</ele>
        <time>2014-08-28T11:44:33Z</time>
      </trkpt>
      <trkpt lat="45.39096" lon="6.04429">
        <ele>1042</ele>
        <time>2014-08-28T11:44:42Z</time>
      </trkpt>
      <trkpt lat="45.39089" lon="6.04408">
        <ele>1043</ele>
        <time>2014-08-28T11:44:52Z</time>
      </trkpt>
      <trkpt lat="45.39083" lon="6.04397">
        <ele>1045</ele>
        <time>2014-08-28T11:44:57Z</time>
      </trkpt>
      <trkpt lat="45.39062" lon="6.04365">
        <ele>1047</ele>
        <time>2014-08-28T11:45:13Z</time>
      </trkpt>
      <trkpt lat="45.39034" lon="6.04313">
        <ele>1051</ele>
        <time>2014-08-28T11:45:38Z</time>
      </trkpt>
      <trkpt lat="45.39021" lon="6.04281">
        <ele>1053</ele>
        <time>2014-08-28T11:45:53Z</time>
      </trkpt>
      <trkpt lat="45.39007" lon="6.04257">
        <ele>1055</ele>
        <time>2014-08-28T11:46:05Z</time>
      </trkpt>
      <trkpt lat="45.3899" lon="6.04236">
        <ele>1058</ele>
        <time>2014-08-28T11:46:18Z</time>
      </trkpt>
      <trkpt lat="45.3898" lon="6.04204">
        <ele>1060</ele>
        <time>2014-08-28T11:46:32Z</time>
      </trkpt>
      <trkpt lat="45.38977" lon="6.04178">
        <ele>1060</ele>
        <time>2014-08-28T11:46:42Z</time>
      </trkpt>
      <trkpt lat="45.38979" lon="6.04161">
        <ele>1062</ele>
        <time>2014-08-28T11:46:50Z</time>
      </trkpt>
      <trkpt lat="45.38978" lon="6.0415">
        <ele>1062</ele>
        <time>2014-08-28T11:46:55Z</time>
      </trkpt>
      <trkpt lat="45.38972" lon="6.04106">
        <ele>1064</ele>
        <time>2014-08-28T11:47:11Z</time>
      </trkpt>
      <trkpt lat="45.38965" lon="6.04086">
        <ele>1066</ele>
        <time>2014-08-28T11:47:18Z</time>
      </trkpt>
      <trkpt lat="45.3896" lon="6.04057">
        <ele>1068</ele>
        <time>2014-08-28T11:47:30Z</time>
      </trkpt>
      <trkpt lat="45.38952" lon="6.04035">
        <ele>1068</ele>
        <time>2014-08-28T11:47:38Z</time>
      </trkpt>
      <trkpt lat="45.38946" lon="6.04012">
        <ele>1070</ele>
        <time>2014-08-28T11:47:49Z</time>
      </trkpt>
      <trkpt lat="45.38939" lon="6.04006">
        <ele>1070</ele>
        <time>2014-08-28T11:47:53Z</time>
      </trkpt>
      <trkpt lat="45.38927" lon="6.03992">
        <ele>1072</ele>
        <time>2014-08-28T11:48:01Z</time>
      </trkpt>
      <trkpt lat="45.38914" lon="6.03967">
        <ele>1074</ele>
        <time>2014-08-28T11:48:13Z</time>
      </trkpt>
      <trkpt lat="45.38918" lon="6.0395">
        <ele>1074</ele>
        <time>2014-08-28T11:48:20Z</time>
      </trkpt>
      <trkpt lat="45.38921" lon="6.03945">
        <ele>1075</ele>
        <time>2014-08-28T11:48:23Z</time>
      </trkpt>
      <trkpt lat="45.38926" lon="6.03942">
        <ele>1076</ele>
        <time>2014-08-28T11:48:26Z</time>
      </trkpt>
      <trkpt lat="45.38935" lon="6.03942">
        <ele>1076</ele>
        <time>2014-08-28T11:48:32Z</time>
      </trkpt>
      <trkpt lat="45.38943" lon="6.03947">
        <ele>1077</ele>
        <time>2014-08-28T11:48:37Z</time>
      </trkpt>
      <trkpt lat="45.38953" lon="6.03961">
        <ele>1078</ele>
        <time>2014-08-28T11:48:46Z</time>
      </trkpt>
      <trkpt lat="45.38966" lon="6.03984">
        <ele>1079</ele>
        <time>2014-08-28T11:48:56Z</time>
      </trkpt>
      <trkpt lat="45.38977" lon="6.0401">
        <ele>1081</ele>
        <time>2014-08-28T11:49:07Z</time>
      </trkpt>
      <trkpt lat="45.38977" lon="6.04017">
        <ele>1082</ele>
        <time>2014-08-28T11:49:10Z</time>
      </trkpt>
      <trkpt lat="45.38992" lon="6.0408">
        <ele>1085</ele>
        <time>2014-08-28T11:49:35Z</time>
      </trkpt>
      <trkpt lat="45.38995" lon="6.04086">
        <ele>1087</ele>
        <time>2014-08-28T11:49:38Z</time>
      </trkpt>
      <trkpt lat="45.39007" lon="6.04099">
        <ele>1088</ele>
        <time>2014-08-28T11:49:48Z</time>
      </trkpt>
      <trkpt lat="45.39031" lon="6.04107">
        <ele>1091</ele>
        <time>2014-08-28T11:50:03Z</time>
      </trkpt>
      <trkpt lat="45.3905" lon="6.04119">
        <ele>1093</ele>
        <time>2014-08-28T11:50:15Z</time>
      </trkpt>
      <trkpt lat="45.39084" lon="6.04137">
        <ele>1097</ele>
        <time>2014-08-28T11:50:37Z</time>
      </trkpt>
      <trkpt lat="45.39115" lon="6.04163">
        <ele>1099</ele>
        <time>2014-08-28T11:50:58Z</time>
      </trkpt>
      <trkpt lat="45.3916" lon="6.04194">
        <ele>1105</ele>
        <time>2014-08-28T11:51:28Z</time>
      </trkpt>
      <trkpt lat="45.39169" lon="6.04202">
        <ele>1106</ele>
        <time>2014-08-28T11:51:35Z</time>
      </trkpt>
      <trkpt lat="45.39195" lon="6.04218">
        <ele>1109</ele>
        <time>2014-08-28T11:51:53Z</time>
      </trkpt>
      <trkpt lat="45.39216" lon="6.04224">
        <ele>1111</ele>
        <time>2014-08-28T11:52:07Z</time>
      </trkpt>
      <trkpt lat="45.39221" lon="6.04231">
        <ele>1113</ele>
        <time>2014-08-28T11:52:13Z</time>
      </trkpt>
      <trkpt lat="45.39238" lon="6.04237">
        <ele>1115</ele>
        <time>2014-08-28T11:52:23Z</time>
      </trkpt>
      <trkpt lat="45.39243" lon="6.04236">
        <ele>1115</ele>
        <time>2014-08-28T11:52:26Z</time>
      </trkpt>
      <trkpt lat="45.39252" lon="6.04238">
        <ele>1115</ele>
        <time>2014-08-28T11:52:31Z</time>
      </trkpt>
      <trkpt lat="45.39257" lon="6.04243">
        <ele>1116</ele>
        <time>2014-08-28T11:52:35Z</time>
      </trkpt>
      <trkpt lat="45.39302" lon="6.04255">
        <ele>1121</ele>
        <time>2014-08-28T11:53:01Z</time>
      </trkpt>
      <trkpt lat="45.39308" lon="6.04258">
        <ele>1121</ele>
        <time>2014-08-28T11:53:04Z</time>
      </trkpt>
      <trkpt lat="45.39318" lon="6.0427">
        <ele>1122</ele>
        <time>2014-08-28T11:53:11Z</time>
      </trkpt>
      <trkpt lat="45.39337" lon="6.04287">
        <ele>1124</ele>
        <time>2014-08-28T11:53:24Z</time>
      </trkpt>
      <trkpt lat="45.39343" lon="6.04294">
        <ele>1126</ele>
        <time>2014-08-28T11:53:29Z</time>
      </trkpt>
      <trkpt lat="45.39361" lon="6.04299">
        <ele>1128</ele>
        <time>2014-08-28T11:53:39Z</time>
      </trkpt>
      <trkpt lat="45.39365" lon="6.04298">
        <ele>1128</ele>
        <time>2014-08-28T11:53:41Z</time>
      </trkpt>
      <trkpt lat="45.39375" lon="6.04303">
        <ele>1128</ele>
        <time>2014-08-28T11:53:48Z</time>
      </trkpt>
      <trkpt lat="45.39385" lon="6.04318">
        <ele>1130</ele>
        <time>2014-08-28T11:53:55Z</time>
      </trkpt>
      <trkpt lat="45.39395" lon="6.04348">
        <ele>1132</ele>
        <time>2014-08-28T11:54:08Z</time>
      </trkpt>
      <trkpt lat="45.39401" lon="6.04358">
        <ele>1132</ele>
        <time>2014-08-28T11:54:13Z</time>
      </trkpt>
      <trkpt lat="45.39408" lon="6.04362">
        <ele>1133</ele>
        <time>2014-08-28T11:54:16Z</time>
      </trkpt>
      <trkpt lat="45.39417" lon="6.04364">
        <ele>1134</ele>
        <time>2014-08-28T11:54:21Z</time>
      </trkpt>
      <trkpt lat="45.39428" lon="6.04363">
        <ele>1135</ele>
        <time>2014-08-28T11:54:27Z</time>
      </trkpt>
      <trkpt lat="45.39431" lon="6.04366">
        <ele>1135</ele>
        <time>2014-08-28T11:54:29Z</time>
      </trkpt>
      <trkpt lat="45.39438" lon="6.04369">
        <ele>1136</ele>
        <time>2014-08-28T11:54:34Z</time>
      </trkpt>
      <trkpt lat="45.39443" lon="6.04368">
        <ele>1136</ele>
        <time>2014-08-28T11:54:36Z</time>
      </trkpt>
      <trkpt lat="45.3945" lon="6.04368">
        <ele>1138</ele>
        <time>2014-08-28T11:54:40Z</time>
      </trkpt>
      <trkpt lat="45.39459" lon="6.04372">
        <ele>1138</ele>
        <time>2014-08-28T11:54:46Z</time>
      </trkpt>
      <trkpt lat="45.39467" lon="6.04377">
        <ele>1140</ele>
        <time>2014-08-28T11:54:51Z</time>
      </trkpt>
      <trkpt lat="45.39489" lon="6.04388">
        <ele>1140</ele>
        <time>2014-08-28T11:55:00Z</time>
      </trkpt>
      <trkpt lat="45.39493" lon="6.04388">
        <ele>1140</ele>
        <time>2014-08-28T11:55:01Z</time>
      </trkpt>
      <trkpt lat="45.39507" lon="6.04393">
        <ele>1142</ele>
        <time>2014-08-28T11:55:05Z</time>
      </trkpt>
      <trkpt lat="45.39532" lon="6.04406">
        <ele>1144</ele>
        <time>2014-08-28T11:55:19Z</time>
      </trkpt>
      <trkpt lat="45.3957" lon="6.04432">
        <ele>1148</ele>
        <time>2014-08-28T11:55:44Z</time>
      </trkpt>
      <trkpt lat="45.39586" lon="6.04439">
        <ele>1149</ele>
        <time>2014-08-28T11:55:54Z</time>
      </trkpt>
      <trkpt lat="45.39613" lon="6.04456">
        <ele>1153</ele>
        <time>2014-08-28T11:56:11Z</time>
      </trkpt>
      <trkpt lat="45.39646" lon="6.04481">
        <ele>1155</ele>
        <time>2014-08-28T11:56:32Z</time>
      </trkpt>
      <trkpt lat="45.39653" lon="6.04488">
        <ele>1155</ele>
        <time>2014-08-28T11:56:37Z</time>
      </trkpt>
      <trkpt lat="45.39661" lon="6.04494">
        <ele>1157</ele>
        <time>2014-08-28T11:56:42Z</time>
      </trkpt>
      <trkpt lat="45.39677" lon="6.04502">
        <ele>1158</ele>
        <time>2014-08-28T11:56:52Z</time>
      </trkpt>
      <trkpt lat="45.3968" lon="6.04502">
        <ele>1158</ele>
        <time>2014-08-28T11:56:54Z</time>
      </trkpt>
      <trkpt lat="45.39697" lon="6.0451">
        <ele>1159</ele>
        <time>2014-08-28T11:57:02Z</time>
      </trkpt>
      <trkpt lat="45.39703" lon="6.04511">
        <ele>1160</ele>
        <time>2014-08-28T11:57:05Z</time>
      </trkpt>
      <trkpt lat="45.39718" lon="6.04525">
        <ele>1161</ele>
        <time>2014-08-28T11:57:16Z</time>
      </trkpt>
      <trkpt lat="45.39726" lon="6.04535">
        <ele>1161</ele>
        <time>2014-08-28T11:57:22Z</time>
      </trkpt>
      <trkpt lat="45.39743" lon="6.04548">
        <ele>1163</ele>
        <time>2014-08-28T11:57:33Z</time>
      </trkpt>
      <trkpt lat="45.3976" lon="6.04554">
        <ele>1166</ele>
        <time>2014-08-28T11:57:44Z</time>
      </trkpt>
      <trkpt lat="45.39783" lon="6.04548">
        <ele>1166</ele>
        <time>2014-08-28T11:57:55Z</time>
      </trkpt>
      <trkpt lat="45.39807" lon="6.0455">
        <ele>1166</ele>
        <time>2014-08-28T11:58:04Z</time>
      </trkpt>
      <trkpt lat="45.3983" lon="6.04551">
        <ele>1168</ele>
        <time>2014-08-28T11:58:13Z</time>
      </trkpt>
      <trkpt lat="45.39853" lon="6.04571">
        <ele>1168</ele>
        <time>2014-08-28T11:58:24Z</time>
      </trkpt>
      <trkpt lat="45.39865" lon="6.04588">
        <ele>1168</ele>
        <time>2014-08-28T11:58:30Z</time>
      </trkpt>
      <trkpt lat="45.39878" lon="6.04599">
        <ele>1168</ele>
        <time>2014-08-28T11:58:34Z</time>
      </trkpt>
      <trkpt lat="45.39896" lon="6.04617">
        <ele>1168</ele>
        <time>2014-08-28T11:58:39Z</time>
      </trkpt>
      <trkpt lat="45.39937" lon="6.04633">
        <ele>1168</ele>
        <time>2014-08-28T11:58:45Z</time>
      </trkpt>
      <trkpt lat="45.39957" lon="6.04643">
        <ele>1168</ele>
        <time>2014-08-28T11:58:51Z</time>
      </trkpt>
      <trkpt lat="45.39975" lon="6.0466">
        <ele>1168</ele>
        <time>2014-08-28T11:58:57Z</time>
      </trkpt>
      <trkpt lat="45.39992" lon="6.04681">
        <ele>1167</ele>
        <time>2014-08-28T11:59:03Z</time>
      </trkpt>
      <trkpt lat="45.40001" lon="6.0469">
        <ele>1166</ele>
        <time>2014-08-28T11:59:06Z</time>
      </trkpt>
      <trkpt lat="45.40059" lon="6.04725">
        <ele>1166</ele>
        <time>2014-08-28T11:59:24Z</time>
      </trkpt>
      <trkpt lat="45.4014" lon="6.04753">
        <ele>1166</ele>
        <time>2014-08-28T11:59:49Z</time>
      </trkpt>
      <trkpt lat="45.40149" lon="6.04758">
        <ele>1165</ele>
        <time>2014-08-28T11:59:52Z</time>
      </trkpt>
      <trkpt lat="45.4016" lon="6.04759">
        <ele>1164</ele>
        <time>2014-08-28T11:59:55Z</time>
      </trkpt>
      <trkpt lat="45.40175" lon="6.04765">
        <ele>1164</ele>
        <time>2014-08-28T12:00:00Z</time>
      </trkpt>
      <trkpt lat="45.40188" lon="6.04766">
        <ele>1164</ele>
        <time>2014-08-28T12:00:04Z</time>
      </trkpt>
      <trkpt lat="45.40202" lon="6.04768">
        <ele>1162</ele>
        <time>2014-08-28T12:00:10Z</time>
      </trkpt>
      <trkpt lat="45.40199" lon="6.04767">
        <ele>1161</ele>
        <time>2014-08-28T12:00:11Z</time>
      </trkpt>
      <trkpt lat="45.40201" lon="6.04764">
        <ele>1161</ele>
        <time>2014-08-28T12:01:05Z</time>
      </trkpt>
      <trkpt lat="45.40205" lon="6.04765">
        <ele>1161</ele>
        <time>2014-08-28T12:01:08Z</time>
      </trkpt>
      <trkpt lat="45.40221" lon="6.0476">
        <ele>1161</ele>
        <time>2014-08-28T12:01:16Z</time>
      </trkpt>
      <trkpt lat="45.40246" lon="6.04757">
        <ele>1159</ele>
        <time>2014-08-28T12:01:26Z</time>
      </trkpt>
      <trkpt lat="45.40252" lon="6.04752">
        <ele>1157</ele>
        <time>2014-08-28T12:01:34Z</time>
      </trkpt>
      <trkpt lat="45.40258" lon="6.04749">
        <ele>1153</ele>
        <time>2014-08-28T12:02:03Z</time>
      </trkpt>
      <trkpt lat="45.40267" lon="6.04751">
        <ele>1157</ele>
        <time>2014-08-28T12:02:07Z</time>
      </trkpt>
      <trkpt lat="45.40305" lon="6.04764">
        <ele>1159</ele>
        <time>2014-08-28T12:02:24Z</time>
      </trkpt>
      <trkpt lat="45.40309" lon="6.04763">
        <ele>1160</ele>
        <time>2014-08-28T12:02:26Z</time>
      </trkpt>
      <trkpt lat="45.40287" lon="6.04751">
        <ele>1159</ele>
        <time>2014-08-28T12:02:28Z</time>
      </trkpt>
      <trkpt lat="45.40289" lon="6.0475">
        <ele>1159</ele>
        <time>2014-08-28T12:02:29Z</time>
      </trkpt>
      <trkpt lat="45.40288" lon="6.04749">
        <ele>1158</ele>
        <time>2014-08-28T12:02:35Z</time>
      </trkpt>
      <trkpt lat="45.40258" lon="6.04751">
        <ele>1157</ele>
        <time>2014-08-28T12:08:56Z</time>
      </trkpt>
      <trkpt lat="45.40259" lon="6.04744">
        <ele>1157</ele>
        <time>2014-08-28T12:09:00Z</time>
      </trkpt>
      <trkpt lat="45.40262" lon="6.04738">
        <ele>1157</ele>
        <time>2014-08-28T12:10:03Z</time>
      </trkpt>
      <trkpt lat="45.40275" lon="6.04722">
        <ele>1157</ele>
        <time>2014-08-28T12:10:09Z</time>
      </trkpt>
      <trkpt lat="45.40288" lon="6.04715">
        <ele>1155</ele>
        <time>2014-08-28T12:10:13Z</time>
      </trkpt>
      <trkpt lat="45.40303" lon="6.04716">
        <ele>1155</ele>
        <time>2014-08-28T12:10:18Z</time>
      </trkpt>
      <trkpt lat="45.40324" lon="6.04722">
        <ele>1153</ele>
        <time>2014-08-28T12:10:22Z</time>
      </trkpt>
      <trkpt lat="45.40362" lon="6.04726">
        <ele>1151</ele>
        <time>2014-08-28T12:10:30Z</time>
      </trkpt>
      <trkpt lat="45.40394" lon="6.04733">
        <ele>1149</ele>
        <time>2014-08-28T12:10:36Z</time>
      </trkpt>
      <trkpt lat="45.4044" lon="6.0474">
        <ele>1145</ele>
        <time>2014-08-28T12:10:46Z</time>
      </trkpt>
      <trkpt lat="45.40459" lon="6.04738">
        <ele>1143</ele>
        <time>2014-08-28T12:10:51Z</time>
      </trkpt>
      <trkpt lat="45.40496" lon="6.04739">
        <ele>1142</ele>
        <time>2014-08-28T12:10:58Z</time>
      </trkpt>
      <trkpt lat="45.40518" lon="6.04731">
        <ele>1140</ele>
        <time>2014-08-28T12:11:04Z</time>
      </trkpt>
      <trkpt lat="45.40534" lon="6.04723">
        <ele>1140</ele>
        <time>2014-08-28T12:11:12Z</time>
      </trkpt>
      <trkpt lat="45.4055" lon="6.04721">
        <ele>1142</ele>
        <time>2014-08-28T12:11:19Z</time>
      </trkpt>
      <trkpt lat="45.40555" lon="6.04722">
        <ele>1142</ele>
        <time>2014-08-28T12:11:21Z</time>
      </trkpt>
      <trkpt lat="45.4057" lon="6.04731">
        <ele>1142</ele>
        <time>2014-08-28T12:11:27Z</time>
      </trkpt>
      <trkpt lat="45.4058" lon="6.04744">
        <ele>1142</ele>
        <time>2014-08-28T12:11:32Z</time>
      </trkpt>
      <trkpt lat="45.40599" lon="6.04762">
        <ele>1144</ele>
        <time>2014-08-28T12:11:39Z</time>
      </trkpt>
      <trkpt lat="45.40619" lon="6.04789">
        <ele>1144</ele>
        <time>2014-08-28T12:11:48Z</time>
      </trkpt>
      <trkpt lat="45.40625" lon="6.04795">
        <ele>1143</ele>
        <time>2014-08-28T12:11:50Z</time>
      </trkpt>
      <trkpt lat="45.40639" lon="6.04801">
        <ele>1142</ele>
        <time>2014-08-28T12:11:54Z</time>
      </trkpt>
      <trkpt lat="45.40654" lon="6.04801">
        <ele>1140</ele>
        <time>2014-08-28T12:12:12Z</time>
      </trkpt>
      <trkpt lat="45.40657" lon="6.04803">
        <ele>1140</ele>
        <time>2014-08-28T12:12:15Z</time>
      </trkpt>
      <trkpt lat="45.40661" lon="6.04812">
        <ele>1140</ele>
        <time>2014-08-28T12:12:20Z</time>
      </trkpt>
      <trkpt lat="45.40685" lon="6.04841">
        <ele>1140</ele>
        <time>2014-08-28T12:12:30Z</time>
      </trkpt>
      <trkpt lat="45.40695" lon="6.04861">
        <ele>1139</ele>
        <time>2014-08-28T12:12:34Z</time>
      </trkpt>
      <trkpt lat="45.407" lon="6.04878">
        <ele>1138</ele>
        <time>2014-08-28T12:12:37Z</time>
      </trkpt>
      <trkpt lat="45.40714" lon="6.04909">
        <ele>1137</ele>
        <time>2014-08-28T12:12:43Z</time>
      </trkpt>
      <trkpt lat="45.4073" lon="6.04935">
        <ele>1135</ele>
        <time>2014-08-28T12:12:50Z</time>
      </trkpt>
      <trkpt lat="45.40736" lon="6.0495">
        <ele>1133</ele>
        <time>2014-08-28T12:12:54Z</time>
      </trkpt>
      <trkpt lat="45.40743" lon="6.04961">
        <ele>1132</ele>
        <time>2014-08-28T12:12:57Z</time>
      </trkpt>
      <trkpt lat="45.40776" lon="6.04986">
        <ele>1129</ele>
        <time>2014-08-28T12:13:05Z</time>
      </trkpt>
      <trkpt lat="45.40818" lon="6.05006">
        <ele>1127</ele>
        <time>2014-08-28T12:13:15Z</time>
      </trkpt>
      <trkpt lat="45.40831" lon="6.0501">
        <ele>1126</ele>
        <time>2014-08-28T12:13:18Z</time>
      </trkpt>
      <trkpt lat="45.40858" lon="6.05009">
        <ele>1124</ele>
        <time>2014-08-28T12:13:20Z</time>
      </trkpt>
      <trkpt lat="45.40868" lon="6.05012">
        <ele>1124</ele>
        <time>2014-08-28T12:13:21Z</time>
      </trkpt>
      <trkpt lat="45.40893" lon="6.0502">
        <ele>1124</ele>
        <time>2014-08-28T12:13:23Z</time>
      </trkpt>
      <trkpt lat="45.40913" lon="6.05034">
        <ele>1124</ele>
        <time>2014-08-28T12:13:26Z</time>
      </trkpt>
      <trkpt lat="45.40927" lon="6.05054">
        <ele>1124</ele>
        <time>2014-08-28T12:13:30Z</time>
      </trkpt>
      <trkpt lat="45.40931" lon="6.05077">
        <ele>1124</ele>
        <time>2014-08-28T12:13:34Z</time>
      </trkpt>
      <trkpt lat="45.40928" lon="6.05099">
        <ele>1124</ele>
        <time>2014-08-28T12:13:38Z</time>
      </trkpt>
      <trkpt lat="45.40931" lon="6.05134">
        <ele>1124</ele>
        <time>2014-08-28T12:13:44Z</time>
      </trkpt>
      <trkpt lat="45.40935" lon="6.05166">
        <ele>1124</ele>
        <time>2014-08-28T12:13:50Z</time>
      </trkpt>
      <trkpt lat="45.40941" lon="6.05193">
        <ele>1124</ele>
        <time>2014-08-28T12:13:56Z</time>
      </trkpt>
      <trkpt lat="45.40955" lon="6.05283">
        <ele>1124</ele>
        <time>2014-08-28T12:14:19Z</time>
      </trkpt>
      <trkpt lat="45.40963" lon="6.05317">
        <ele>1124</ele>
        <time>2014-08-28T12:14:26Z</time>
      </trkpt>
      <trkpt lat="45.40986" lon="6.05382">
        <ele>1124</ele>
        <time>2014-08-28T12:14:37Z</time>
      </trkpt>
      <trkpt lat="45.41016" lon="6.05446">
        <ele>1121</ele>
        <time>2014-08-28T12:14:49Z</time>
      </trkpt>
      <trkpt lat="45.41057" lon="6.05497">
        <ele>1117</ele>
        <time>2014-08-28T12:14:58Z</time>
      </trkpt>
      <trkpt lat="45.4107" lon="6.05511">
        <ele>1116</ele>
        <time>2014-08-28T12:15:01Z</time>
      </trkpt>
      <trkpt lat="45.41085" lon="6.05531">
        <ele>1114</ele>
        <time>2014-08-28T12:15:06Z</time>
      </trkpt>
      <trkpt lat="45.41086" lon="6.05535">
        <ele>1113</ele>
        <time>2014-08-28T12:15:07Z</time>
      </trkpt>
      <trkpt lat="45.41099" lon="6.05546">
        <ele>1112</ele>
        <time>2014-08-28T12:15:10Z</time>
      </trkpt>
      <trkpt lat="45.41122" lon="6.05569">
        <ele>1111</ele>
        <time>2014-08-28T12:15:15Z</time>
      </trkpt>
      <trkpt lat="45.41134" lon="6.05578">
        <ele>1110</ele>
        <time>2014-08-28T12:15:17Z</time>
      </trkpt>
      <trkpt lat="45.41147" lon="6.05595">
        <ele>1109</ele>
        <time>2014-08-28T12:15:20Z</time>
      </trkpt>
      <trkpt lat="45.41167" lon="6.0561">
        <ele>1106</ele>
        <time>2014-08-28T12:15:24Z</time>
      </trkpt>
      <trkpt lat="45.41182" lon="6.0563">
        <ele>1104</ele>
        <time>2014-08-28T12:15:29Z</time>
      </trkpt>
      <trkpt lat="45.41195" lon="6.0564">
        <ele>1104</ele>
        <time>2014-08-28T12:15:34Z</time>
      </trkpt>
      <trkpt lat="45.41209" lon="6.05644">
        <ele>1104</ele>
        <time>2014-08-28T12:15:39Z</time>
      </trkpt>
      <trkpt lat="45.41222" lon="6.05645">
        <ele>1104</ele>
        <time>2014-08-28T12:15:44Z</time>
      </trkpt>
      <trkpt lat="45.41231" lon="6.0565">
        <ele>1105</ele>
        <time>2014-08-28T12:15:48Z</time>
      </trkpt>
      <trkpt lat="45.41277" lon="6.05688">
        <ele>1107</ele>
        <time>2014-08-28T12:16:03Z</time>
      </trkpt>
      <trkpt lat="45.41296" lon="6.05708">
        <ele>1107</ele>
        <time>2014-08-28T12:16:09Z</time>
      </trkpt>
      <trkpt lat="45.41316" lon="6.05733">
        <ele>1107</ele>
        <time>2014-08-28T12:16:15Z</time>
      </trkpt>
      <trkpt lat="45.41339" lon="6.05759">
        <ele>1107</ele>
        <time>2014-08-28T12:16:21Z</time>
      </trkpt>
      <trkpt lat="45.41368" lon="6.05767">
        <ele>1104</ele>
        <time>2014-08-28T12:16:29Z</time>
      </trkpt>
      <trkpt lat="45.41379" lon="6.05772">
        <ele>1104</ele>
        <time>2014-08-28T12:16:34Z</time>
      </trkpt>
      <trkpt lat="45.4142" lon="6.05784">
        <ele>1104</ele>
        <time>2014-08-28T12:16:50Z</time>
      </trkpt>
      <trkpt lat="45.41469" lon="6.05822">
        <ele>1104</ele>
        <time>2014-08-28T12:17:07Z</time>
      </trkpt>
      <trkpt lat="45.41506" lon="6.05857">
        <ele>1104</ele>
        <time>2014-08-28T12:17:20Z</time>
      </trkpt>
      <trkpt lat="45.41546" lon="6.05882">
        <ele>1104</ele>
        <time>2014-08-28T12:17:33Z</time>
      </trkpt>
      <trkpt lat="45.41598" lon="6.05908">
        <ele>1104</ele>
        <time>2014-08-28T12:17:50Z</time>
      </trkpt>
      <trkpt lat="45.41604" lon="6.05914">
        <ele>1104</ele>
        <time>2014-08-28T12:17:54Z</time>
      </trkpt>
      <trkpt lat="45.41613" lon="6.05918">
        <ele>1104</ele>
        <time>2014-08-28T12:17:59Z</time>
      </trkpt>
      <trkpt lat="45.41645" lon="6.05926">
        <ele>1106</ele>
        <time>2014-08-28T12:18:10Z</time>
      </trkpt>
      <trkpt lat="45.41652" lon="6.05931">
        <ele>1106</ele>
        <time>2014-08-28T12:18:14Z</time>
      </trkpt>
      <trkpt lat="45.41678" lon="6.05959">
        <ele>1106</ele>
        <time>2014-08-28T12:18:25Z</time>
      </trkpt>
      <trkpt lat="45.41695" lon="6.05982">
        <ele>1106</ele>
        <time>2014-08-28T12:18:32Z</time>
      </trkpt>
      <trkpt lat="45.41724" lon="6.06006">
        <ele>1106</ele>
        <time>2014-08-28T12:18:42Z</time>
      </trkpt>
      <trkpt lat="45.41733" lon="6.06019">
        <ele>1106</ele>
        <time>2014-08-28T12:18:47Z</time>
      </trkpt>
      <trkpt lat="45.41737" lon="6.06035">
        <ele>1106</ele>
        <time>2014-08-28T12:18:52Z</time>
      </trkpt>
      <trkpt lat="45.41736" lon="6.06049">
        <ele>1106</ele>
        <time>2014-08-28T12:18:57Z</time>
      </trkpt>
      <trkpt lat="45.41737" lon="6.06056">
        <ele>1107</ele>
        <time>2014-08-28T12:18:59Z</time>
      </trkpt>
      <trkpt lat="45.41741" lon="6.06066">
        <ele>1108</ele>
        <time>2014-08-28T12:19:02Z</time>
      </trkpt>
      <trkpt lat="45.41755" lon="6.06092">
        <ele>1108</ele>
        <time>2014-08-28T12:19:12Z</time>
      </trkpt>
      <trkpt lat="45.41758" lon="6.06105">
        <ele>1108</ele>
        <time>2014-08-28T12:19:17Z</time>
      </trkpt>
      <trkpt lat="45.41759" lon="6.06141">
        <ele>1108</ele>
        <time>2014-08-28T12:19:29Z</time>
      </trkpt>
      <trkpt lat="45.41764" lon="6.06172">
        <ele>1110</ele>
        <time>2014-08-28T12:19:38Z</time>
      </trkpt>
      <trkpt lat="45.41768" lon="6.06174">
        <ele>1110</ele>
        <time>2014-08-28T12:19:39Z</time>
      </trkpt>
      <trkpt lat="45.41771" lon="6.06184">
        <ele>1110</ele>
        <time>2014-08-28T12:19:42Z</time>
      </trkpt>
      <trkpt lat="45.41776" lon="6.06211">
        <ele>1110</ele>
        <time>2014-08-28T12:19:50Z</time>
      </trkpt>
      <trkpt lat="45.4178" lon="6.06242">
        <ele>1110</ele>
        <time>2014-08-28T12:19:58Z</time>
      </trkpt>
      <trkpt lat="45.418" lon="6.06305">
        <ele>1110</ele>
        <time>2014-08-28T12:20:14Z</time>
      </trkpt>
      <trkpt lat="45.41808" lon="6.06321">
        <ele>1110</ele>
        <time>2014-08-28T12:20:20Z</time>
      </trkpt>
      <trkpt lat="45.41826" lon="6.06364">
        <ele>1110</ele>
        <time>2014-08-28T12:20:31Z</time>
      </trkpt>
      <trkpt lat="45.41832" lon="6.06402">
        <ele>1110</ele>
        <time>2014-08-28T12:20:42Z</time>
      </trkpt>
      <trkpt lat="45.41842" lon="6.0642">
        <ele>1110</ele>
        <time>2014-08-28T12:20:46Z</time>
      </trkpt>
      <trkpt lat="45.41861" lon="6.06448">
        <ele>1108</ele>
        <time>2014-08-28T12:20:52Z</time>
      </trkpt>
      <trkpt lat="45.41882" lon="6.06471">
        <ele>1108</ele>
        <time>2014-08-28T12:20:57Z</time>
      </trkpt>
      <trkpt lat="45.41909" lon="6.06493">
        <ele>1107</ele>
        <time>2014-08-28T12:21:04Z</time>
      </trkpt>
      <trkpt lat="45.41913" lon="6.06495">
        <ele>1107</ele>
        <time>2014-08-28T12:21:06Z</time>
      </trkpt>
      <trkpt lat="45.4194" lon="6.06529">
        <ele>1106</ele>
        <time>2014-08-28T12:21:20Z</time>
      </trkpt>
      <trkpt lat="45.41972" lon="6.06548">
        <ele>1106</ele>
        <time>2014-08-28T12:21:36Z</time>
      </trkpt>
      <trkpt lat="45.41986" lon="6.06561">
        <ele>1106</ele>
        <time>2014-08-28T12:21:42Z</time>
      </trkpt>
      <trkpt lat="45.41996" lon="6.06579">
        <ele>1106</ele>
        <time>2014-08-28T12:21:49Z</time>
      </trkpt>
      <trkpt lat="45.42005" lon="6.06603">
        <ele>1104</ele>
        <time>2014-08-28T12:21:56Z</time>
      </trkpt>
      <trkpt lat="45.42013" lon="6.0662">
        <ele>1104</ele>
        <time>2014-08-28T12:22:01Z</time>
      </trkpt>
      <trkpt lat="45.42027" lon="6.06639">
        <ele>1104</ele>
        <time>2014-08-28T12:22:07Z</time>
      </trkpt>
      <trkpt lat="45.42053" lon="6.06648">
        <ele>1102</ele>
        <time>2014-08-28T12:22:17Z</time>
      </trkpt>
      <trkpt lat="45.42069" lon="6.06656">
        <ele>1102</ele>
        <time>2014-08-28T12:22:23Z</time>
      </trkpt>
      <trkpt lat="45.42078" lon="6.06662">
        <ele>1102</ele>
        <time>2014-08-28T12:22:28Z</time>
      </trkpt>
      <trkpt lat="45.42096" lon="6.06678">
        <ele>1102</ele>
        <time>2014-08-28T12:22:38Z</time>
      </trkpt>
      <trkpt lat="45.42108" lon="6.06686">
        <ele>1102</ele>
        <time>2014-08-28T12:22:46Z</time>
      </trkpt>
      <trkpt lat="45.42123" lon="6.06706">
        <ele>1100</ele>
        <time>2014-08-28T12:22:51Z</time>
      </trkpt>
      <trkpt lat="45.42138" lon="6.06719">
        <ele>1100</ele>
        <time>2014-08-28T12:22:57Z</time>
      </trkpt>
      <trkpt lat="45.42161" lon="6.06724">
        <ele>1099</ele>
        <time>2014-08-28T12:23:05Z</time>
      </trkpt>
      <trkpt lat="45.42189" lon="6.06756">
        <ele>1098</ele>
        <time>2014-08-28T12:23:13Z</time>
      </trkpt>
      <trkpt lat="45.42206" lon="6.06766">
        <ele>1098</ele>
        <time>2014-08-28T12:23:17Z</time>
      </trkpt>
      <trkpt lat="45.42214" lon="6.06772">
        <ele>1098</ele>
        <time>2014-08-28T12:23:19Z</time>
      </trkpt>
      <trkpt lat="45.42218" lon="6.06778">
        <ele>1098</ele>
        <time>2014-08-28T12:23:21Z</time>
      </trkpt>
      <trkpt lat="45.42224" lon="6.06794">
        <ele>1098</ele>
        <time>2014-08-28T12:23:28Z</time>
      </trkpt>
      <trkpt lat="45.42232" lon="6.06802">
        <ele>1098</ele>
        <time>2014-08-28T12:23:31Z</time>
      </trkpt>
      <trkpt lat="45.42271" lon="6.0683">
        <ele>1097</ele>
        <time>2014-08-28T12:23:45Z</time>
      </trkpt>
      <trkpt lat="45.42281" lon="6.06833">
        <ele>1096</ele>
        <time>2014-08-28T12:23:47Z</time>
      </trkpt>
      <trkpt lat="45.42296" lon="6.06843">
        <ele>1095</ele>
        <time>2014-08-28T12:23:53Z</time>
      </trkpt>
      <trkpt lat="45.42336" lon="6.06859">
        <ele>1089</ele>
        <time>2014-08-28T12:24:08Z</time>
      </trkpt>
      <trkpt lat="45.42359" lon="6.06878">
        <ele>1086</ele>
        <time>2014-08-28T12:24:16Z</time>
      </trkpt>
      <trkpt lat="45.42371" lon="6.06889">
        <ele>1084</ele>
        <time>2014-08-28T12:24:20Z</time>
      </trkpt>
      <trkpt lat="45.42385" lon="6.069">
        <ele>1082</ele>
        <time>2014-08-28T12:24:25Z</time>
      </trkpt>
      <trkpt lat="45.42417" lon="6.06932">
        <ele>1077</ele>
        <time>2014-08-28T12:24:35Z</time>
      </trkpt>
      <trkpt lat="45.42444" lon="6.06954">
        <ele>1073</ele>
        <time>2014-08-28T12:24:42Z</time>
      </trkpt>
      <trkpt lat="45.42452" lon="6.06963">
        <ele>1072</ele>
        <time>2014-08-28T12:24:44Z</time>
      </trkpt>
      <trkpt lat="45.42458" lon="6.06974">
        <ele>1071</ele>
        <time>2014-08-28T12:24:46Z</time>
      </trkpt>
      <trkpt lat="45.42459" lon="6.06989">
        <ele>1071</ele>
        <time>2014-08-28T12:24:48Z</time>
      </trkpt>
      <trkpt lat="45.42467" lon="6.07007">
        <ele>1069</ele>
        <time>2014-08-28T12:24:51Z</time>
      </trkpt>
      <trkpt lat="45.42468" lon="6.07016">
        <ele>1068</ele>
        <time>2014-08-28T12:24:53Z</time>
      </trkpt>
      <trkpt lat="45.42473" lon="6.07029">
        <ele>1067</ele>
        <time>2014-08-28T12:24:55Z</time>
      </trkpt>
      <trkpt lat="45.42481" lon="6.07045">
        <ele>1066</ele>
        <time>2014-08-28T12:24:58Z</time>
      </trkpt>
      <trkpt lat="45.42493" lon="6.07062">
        <ele>1064</ele>
        <time>2014-08-28T12:25:02Z</time>
      </trkpt>
      <trkpt lat="45.42492" lon="6.07072">
        <ele>1064</ele>
        <time>2014-08-28T12:25:03Z</time>
      </trkpt>
      <trkpt lat="45.42489" lon="6.07078">
        <ele>1063</ele>
        <time>2014-08-28T12:25:04Z</time>
      </trkpt>
      <trkpt lat="45.42488" lon="6.07093">
        <ele>1062</ele>
        <time>2014-08-28T12:25:06Z</time>
      </trkpt>
      <trkpt lat="45.42491" lon="6.07101">
        <ele>1061</ele>
        <time>2014-08-28T12:25:08Z</time>
      </trkpt>
      <trkpt lat="45.42493" lon="6.07105">
        <ele>1060</ele>
        <time>2014-08-28T12:25:09Z</time>
      </trkpt>
      <trkpt lat="45.42499" lon="6.07109">
        <ele>1059</ele>
        <time>2014-08-28T12:25:11Z</time>
      </trkpt>
      <trkpt lat="45.42505" lon="6.07108">
        <ele>1058</ele>
        <time>2014-08-28T12:25:13Z</time>
      </trkpt>
      <trkpt lat="45.4251" lon="6.07106">
        <ele>1057</ele>
        <time>2014-08-28T12:25:15Z</time>
      </trkpt>
      <trkpt lat="45.42515" lon="6.07099">
        <ele>1056</ele>
        <time>2014-08-28T12:25:18Z</time>
      </trkpt>
      <trkpt lat="45.42518" lon="6.07088">
        <ele>1054</ele>
        <time>2014-08-28T12:25:21Z</time>
      </trkpt>
      <trkpt lat="45.42519" lon="6.07072">
        <ele>1052</ele>
        <time>2014-08-28T12:25:25Z</time>
      </trkpt>
      <trkpt lat="45.42527" lon="6.0706">
        <ele>1050</ele>
        <time>2014-08-28T12:25:31Z</time>
      </trkpt>
      <trkpt lat="45.42526" lon="6.07045">
        <ele>1048</ele>
        <time>2014-08-28T12:25:36Z</time>
      </trkpt>
      <trkpt lat="45.42527" lon="6.0704">
        <ele>1047</ele>
        <time>2014-08-28T12:25:38Z</time>
      </trkpt>
      <trkpt lat="45.42531" lon="6.0704">
        <ele>1046</ele>
        <time>2014-08-28T12:25:40Z</time>
      </trkpt>
      <trkpt lat="45.42541" lon="6.07044">
        <ele>1044</ele>
        <time>2014-08-28T12:25:43Z</time>
      </trkpt>
      <trkpt lat="45.42562" lon="6.07058">
        <ele>1044</ele>
        <time>2014-08-28T12:25:47Z</time>
      </trkpt>
      <trkpt lat="45.4259" lon="6.07067">
        <ele>1042</ele>
        <time>2014-08-28T12:25:53Z</time>
      </trkpt>
      <trkpt lat="45.426" lon="6.07074">
        <ele>1042</ele>
        <time>2014-08-28T12:25:56Z</time>
      </trkpt>
      <trkpt lat="45.42606" lon="6.0708">
        <ele>1041</ele>
        <time>2014-08-28T12:25:58Z</time>
      </trkpt>
      <trkpt lat="45.42613" lon="6.07083">
        <ele>1041</ele>
        <time>2014-08-28T12:26:00Z</time>
      </trkpt>
      <trkpt lat="45.4263" lon="6.07086">
        <ele>1039</ele>
        <time>2014-08-28T12:26:07Z</time>
      </trkpt>
      <trkpt lat="45.42641" lon="6.07103">
        <ele>1037</ele>
        <time>2014-08-28T12:26:14Z</time>
      </trkpt>
      <trkpt lat="45.42657" lon="6.07109">
        <ele>1035</ele>
        <time>2014-08-28T12:26:20Z</time>
      </trkpt>
      <trkpt lat="45.42673" lon="6.07112">
        <ele>1033</ele>
        <time>2014-08-28T12:26:25Z</time>
      </trkpt>
      <trkpt lat="45.42681" lon="6.07118">
        <ele>1033</ele>
        <time>2014-08-28T12:26:28Z</time>
      </trkpt>
      <trkpt lat="45.42719" lon="6.07153">
        <ele>1026</ele>
        <time>2014-08-28T12:26:42Z</time>
      </trkpt>
      <trkpt lat="45.42726" lon="6.07162">
        <ele>1024</ele>
        <time>2014-08-28T12:26:45Z</time>
      </trkpt>
      <trkpt lat="45.42728" lon="6.07174">
        <ele>1024</ele>
        <time>2014-08-28T12:26:48Z</time>
      </trkpt>
      <trkpt lat="45.42729" lon="6.07184">
        <ele>1023</ele>
        <time>2014-08-28T12:26:49Z</time>
      </trkpt>
      <trkpt lat="45.42726" lon="6.07211">
        <ele>1021</ele>
        <time>2014-08-28T12:26:53Z</time>
      </trkpt>
      <trkpt lat="45.42731" lon="6.07246">
        <ele>1018</ele>
        <time>2014-08-28T12:27:03Z</time>
      </trkpt>
      <trkpt lat="45.42728" lon="6.07273">
        <ele>1016</ele>
        <time>2014-08-28T12:27:07Z</time>
      </trkpt>
      <trkpt lat="45.4273" lon="6.07294">
        <ele>1015</ele>
        <time>2014-08-28T12:27:10Z</time>
      </trkpt>
      <trkpt lat="45.42728" lon="6.07312">
        <ele>1013</ele>
        <time>2014-08-28T12:27:13Z</time>
      </trkpt>
      <trkpt lat="45.42723" lon="6.07332">
        <ele>1011</ele>
        <time>2014-08-28T12:27:17Z</time>
      </trkpt>
      <trkpt lat="45.42714" lon="6.07355">
        <ele>1010</ele>
        <time>2014-08-28T12:27:21Z</time>
      </trkpt>
      <trkpt lat="45.42705" lon="6.07369">
        <ele>1008</ele>
        <time>2014-08-28T12:27:24Z</time>
      </trkpt>
      <trkpt lat="45.42699" lon="6.07373">
        <ele>1007</ele>
        <time>2014-08-28T12:27:26Z</time>
      </trkpt>
      <trkpt lat="45.42681" lon="6.07376">
        <ele>1005</ele>
        <time>2014-08-28T12:27:31Z</time>
      </trkpt>
      <trkpt lat="45.4265" lon="6.07386">
        <ele>1000</ele>
        <time>2014-08-28T12:27:38Z</time>
      </trkpt>
      <trkpt lat="45.42617" lon="6.07403">
        <ele>996</ele>
        <time>2014-08-28T12:27:47Z</time>
      </trkpt>
      <trkpt lat="45.42609" lon="6.07405">
        <ele>995</ele>
        <time>2014-08-28T12:27:49Z</time>
      </trkpt>
      <trkpt lat="45.42598" lon="6.07406">
        <ele>995</ele>
        <time>2014-08-28T12:27:52Z</time>
      </trkpt>
      <trkpt lat="45.42581" lon="6.07403">
        <ele>993</ele>
        <time>2014-08-28T12:27:57Z</time>
      </trkpt>
      <trkpt lat="45.42529" lon="6.07407">
        <ele>993</ele>
        <time>2014-08-28T12:28:10Z</time>
      </trkpt>
      <trkpt lat="45.42511" lon="6.07402">
        <ele>993</ele>
        <time>2014-08-28T12:28:18Z</time>
      </trkpt>
      <trkpt lat="45.42507" lon="6.07399">
        <ele>992</ele>
        <time>2014-08-28T12:28:20Z</time>
      </trkpt>
      <trkpt lat="45.42492" lon="6.07393">
        <ele>991</ele>
        <time>2014-08-28T12:28:25Z</time>
      </trkpt>
      <trkpt lat="45.4245" lon="6.07391">
        <ele>989</ele>
        <time>2014-08-28T12:28:34Z</time>
      </trkpt>
      <trkpt lat="45.42429" lon="6.07388">
        <ele>987</ele>
        <time>2014-08-28T12:28:38Z</time>
      </trkpt>
      <trkpt lat="45.42425" lon="6.07389">
        <ele>986</ele>
        <time>2014-08-28T12:28:39Z</time>
      </trkpt>
      <trkpt lat="45.42403" lon="6.07398">
        <ele>984</ele>
        <time>2014-08-28T12:28:44Z</time>
      </trkpt>
      <trkpt lat="45.42386" lon="6.07402">
        <ele>983</ele>
        <time>2014-08-28T12:28:48Z</time>
      </trkpt>
      <trkpt lat="45.42358" lon="6.07412">
        <ele>980</ele>
        <time>2014-08-28T12:28:54Z</time>
      </trkpt>
      <trkpt lat="45.4233" lon="6.07419">
        <ele>977</ele>
        <time>2014-08-28T12:28:59Z</time>
      </trkpt>
      <trkpt lat="45.423" lon="6.0743">
        <ele>975</ele>
        <time>2014-08-28T12:29:04Z</time>
      </trkpt>
      <trkpt lat="45.42289" lon="6.07433">
        <ele>974</ele>
        <time>2014-08-28T12:29:06Z</time>
      </trkpt>
      <trkpt lat="45.42268" lon="6.07432">
        <ele>972</ele>
        <time>2014-08-28T12:29:10Z</time>
      </trkpt>
      <trkpt lat="45.42252" lon="6.07429">
        <ele>969</ele>
        <time>2014-08-28T12:29:14Z</time>
      </trkpt>
      <trkpt lat="45.42217" lon="6.07409">
        <ele>966</ele>
        <time>2014-08-28T12:29:21Z</time>
      </trkpt>
      <trkpt lat="45.42199" lon="6.07401">
        <ele>963</ele>
        <time>2014-08-28T12:29:24Z</time>
      </trkpt>
      <trkpt lat="45.42148" lon="6.07395">
        <ele>958</ele>
        <time>2014-08-28T12:29:32Z</time>
      </trkpt>
      <trkpt lat="45.42094" lon="6.0736">
        <ele>951</ele>
        <time>2014-08-28T12:29:44Z</time>
      </trkpt>
      <trkpt lat="45.42078" lon="6.07353">
        <ele>949</ele>
        <time>2014-08-28T12:29:48Z</time>
      </trkpt>
      <trkpt lat="45.42069" lon="6.07351">
        <ele>948</ele>
        <time>2014-08-28T12:29:50Z</time>
      </trkpt>
      <trkpt lat="45.4206" lon="6.07348">
        <ele>947</ele>
        <time>2014-08-28T12:29:52Z</time>
      </trkpt>
      <trkpt lat="45.42051" lon="6.07346">
        <ele>946</ele>
        <time>2014-08-28T12:29:54Z</time>
      </trkpt>
      <trkpt lat="45.42021" lon="6.07347">
        <ele>943</ele>
        <time>2014-08-28T12:30:00Z</time>
      </trkpt>
      <trkpt lat="45.41985" lon="6.07344">
        <ele>939</ele>
        <time>2014-08-28T12:30:07Z</time>
      </trkpt>
      <trkpt lat="45.41953" lon="6.07334">
        <ele>934</ele>
        <time>2014-08-28T12:30:15Z</time>
      </trkpt>
      <trkpt lat="45.41952" lon="6.07334">
        <ele>933</ele>
        <time>2014-08-28T12:30:16Z</time>
      </trkpt>
      <trkpt lat="45.41956" lon="6.07332">
        <ele>932</ele>
        <time>2014-08-28T12:30:24Z</time>
      </trkpt>
      <trkpt lat="45.41937" lon="6.07323">
        <ele>931</ele>
        <time>2014-08-28T12:30:31Z</time>
      </trkpt>
      <trkpt lat="45.41921" lon="6.07326">
        <ele>930</ele>
        <time>2014-08-28T12:30:35Z</time>
      </trkpt>
      <trkpt lat="45.41882" lon="6.07323">
        <ele>925</ele>
        <time>2014-08-28T12:30:45Z</time>
      </trkpt>
      <trkpt lat="45.41878" lon="6.07322">
        <ele>924</ele>
        <time>2014-08-28T12:30:46Z</time>
      </trkpt>
      <trkpt lat="45.41865" lon="6.07309">
        <ele>923</ele>
        <time>2014-08-28T12:30:49Z</time>
      </trkpt>
      <trkpt lat="45.41859" lon="6.07298">
        <ele>922</ele>
        <time>2014-08-28T12:30:51Z</time>
      </trkpt>
      <trkpt lat="45.41854" lon="6.07286">
        <ele>921</ele>
        <time>2014-08-28T12:30:53Z</time>
      </trkpt>
      <trkpt lat="45.41845" lon="6.07272">
        <ele>920</ele>
        <time>2014-08-28T12:30:56Z</time>
      </trkpt>
      <trkpt lat="45.41838" lon="6.0727">
        <ele>919</ele>
        <time>2014-08-28T12:30:58Z</time>
      </trkpt>
      <trkpt lat="45.41834" lon="6.07276">
        <ele>918</ele>
        <time>2014-08-28T12:30:59Z</time>
      </trkpt>
      <trkpt lat="45.4183" lon="6.07288">
        <ele>917</ele>
        <time>2014-08-28T12:31:01Z</time>
      </trkpt>
      <trkpt lat="45.41832" lon="6.07308">
        <ele>914</ele>
        <time>2014-08-28T12:31:04Z</time>
      </trkpt>
      <trkpt lat="45.41841" lon="6.07341">
        <ele>912</ele>
        <time>2014-08-28T12:31:10Z</time>
      </trkpt>
      <trkpt lat="45.41848" lon="6.07358">
        <ele>911</ele>
        <time>2014-08-28T12:31:13Z</time>
      </trkpt>
      <trkpt lat="45.41859" lon="6.07376">
        <ele>909</ele>
        <time>2014-08-28T12:31:17Z</time>
      </trkpt>
      <trkpt lat="45.41882" lon="6.07399">
        <ele>906</ele>
        <time>2014-08-28T12:31:22Z</time>
      </trkpt>
      <trkpt lat="45.41903" lon="6.07417">
        <ele>904</ele>
        <time>2014-08-28T12:31:26Z</time>
      </trkpt>
      <trkpt lat="45.41935" lon="6.07441">
        <ele>901</ele>
        <time>2014-08-28T12:31:32Z</time>
      </trkpt>
      <trkpt lat="45.41974" lon="6.07465">
        <ele>896</ele>
        <time>2014-08-28T12:31:39Z</time>
      </trkpt>
      <trkpt lat="45.42008" lon="6.07509">
        <ele>891</ele>
        <time>2014-08-28T12:31:49Z</time>
      </trkpt>
      <trkpt lat="45.42035" lon="6.07554">
        <ele>886</ele>
        <time>2014-08-28T12:31:57Z</time>
      </trkpt>
      <trkpt lat="45.42057" lon="6.0758">
        <ele>882</ele>
        <time>2014-08-28T12:32:04Z</time>
      </trkpt>
      <trkpt lat="45.42078" lon="6.07608">
        <ele>880</ele>
        <time>2014-08-28T12:32:09Z</time>
      </trkpt>
      <trkpt lat="45.42108" lon="6.07639">
        <ele>877</ele>
        <time>2014-08-28T12:32:15Z</time>
      </trkpt>
      <trkpt lat="45.42134" lon="6.07662">
        <ele>874</ele>
        <time>2014-08-28T12:32:20Z</time>
      </trkpt>
      <trkpt lat="45.42154" lon="6.07687">
        <ele>872</ele>
        <time>2014-08-28T12:32:24Z</time>
      </trkpt>
      <trkpt lat="45.42176" lon="6.07711">
        <ele>870</ele>
        <time>2014-08-28T12:32:28Z</time>
      </trkpt>
      <trkpt lat="45.42239" lon="6.07771">
        <ele>860</ele>
        <time>2014-08-28T12:32:42Z</time>
      </trkpt>
      <trkpt lat="45.42287" lon="6.07802">
        <ele>853</ele>
        <time>2014-08-28T12:32:51Z</time>
      </trkpt>
      <trkpt lat="45.42303" lon="6.0781">
        <ele>852</ele>
        <time>2014-08-28T12:32:54Z</time>
      </trkpt>
      <trkpt lat="45.42348" lon="6.07831">
        <ele>849</ele>
        <time>2014-08-28T12:33:01Z</time>
      </trkpt>
      <trkpt lat="45.42371" lon="6.07852">
        <ele>848</ele>
        <time>2014-08-28T12:33:05Z</time>
      </trkpt>
      <trkpt lat="45.42398" lon="6.07886">
        <ele>845</ele>
        <time>2014-08-28T12:33:11Z</time>
      </trkpt>
      <trkpt lat="45.42406" lon="6.07894">
        <ele>844</ele>
        <time>2014-08-28T12:33:13Z</time>
      </trkpt>
      <trkpt lat="45.42418" lon="6.07903">
        <ele>843</ele>
        <time>2014-08-28T12:33:16Z</time>
      </trkpt>
      <trkpt lat="45.42428" lon="6.07908">
        <ele>842</ele>
        <time>2014-08-28T12:33:18Z</time>
      </trkpt>
      <trkpt lat="45.4244" lon="6.07918">
        <ele>841</ele>
        <time>2014-08-28T12:33:20Z</time>
      </trkpt>
      <trkpt lat="45.42468" lon="6.07947">
        <ele>839</ele>
        <time>2014-08-28T12:33:25Z</time>
      </trkpt>
      <trkpt lat="45.42498" lon="6.07964">
        <ele>837</ele>
        <time>2014-08-28T12:33:30Z</time>
      </trkpt>
      <trkpt lat="45.4255" lon="6.07999">
        <ele>833</ele>
        <time>2014-08-28T12:33:37Z</time>
      </trkpt>
      <trkpt lat="45.42564" lon="6.0801">
        <ele>832</ele>
        <time>2014-08-28T12:33:39Z</time>
      </trkpt>
      <trkpt lat="45.42573" lon="6.08016">
        <ele>831</ele>
        <time>2014-08-28T12:33:40Z</time>
      </trkpt>
      <trkpt lat="45.42591" lon="6.08032">
        <ele>829</ele>
        <time>2014-08-28T12:33:43Z</time>
      </trkpt>
      <trkpt lat="45.42608" lon="6.08044">
        <ele>827</ele>
        <time>2014-08-28T12:33:46Z</time>
      </trkpt>
      <trkpt lat="45.42618" lon="6.08053">
        <ele>826</ele>
        <time>2014-08-28T12:33:48Z</time>
      </trkpt>
      <trkpt lat="45.42641" lon="6.08066">
        <ele>825</ele>
        <time>2014-08-28T12:33:52Z</time>
      </trkpt>
      <trkpt lat="45.42669" lon="6.08078">
        <ele>823</ele>
        <time>2014-08-28T12:33:57Z</time>
      </trkpt>
      <trkpt lat="45.42696" lon="6.08095">
        <ele>821</ele>
        <time>2014-08-28T12:34:02Z</time>
      </trkpt>
      <trkpt lat="45.42726" lon="6.0811">
        <ele>818</ele>
        <time>2014-08-28T12:34:08Z</time>
      </trkpt>
      <trkpt lat="45.42743" lon="6.08116">
        <ele>817</ele>
        <time>2014-08-28T12:34:11Z</time>
      </trkpt>
      <trkpt lat="45.42756" lon="6.08118">
        <ele>816</ele>
        <time>2014-08-28T12:34:13Z</time>
      </trkpt>
      <trkpt lat="45.42778" lon="6.08116">
        <ele>814</ele>
        <time>2014-08-28T12:34:17Z</time>
      </trkpt>
      <trkpt lat="45.42815" lon="6.08103">
        <ele>809</ele>
        <time>2014-08-28T12:34:25Z</time>
      </trkpt>
      <trkpt lat="45.42838" lon="6.08105">
        <ele>807</ele>
        <time>2014-08-28T12:34:30Z</time>
      </trkpt>
      <trkpt lat="45.42861" lon="6.08112">
        <ele>804</ele>
        <time>2014-08-28T12:34:35Z</time>
      </trkpt>
      <trkpt lat="45.42884" lon="6.08125">
        <ele>802</ele>
        <time>2014-08-28T12:34:40Z</time>
      </trkpt>
      <trkpt lat="45.42903" lon="6.0814">
        <ele>801</ele>
        <time>2014-08-28T12:34:44Z</time>
      </trkpt>
      <trkpt lat="45.42923" lon="6.0816">
        <ele>799</ele>
        <time>2014-08-28T12:34:48Z</time>
      </trkpt>
      <trkpt lat="45.42942" lon="6.08176">
        <ele>797</ele>
        <time>2014-08-28T12:34:52Z</time>
      </trkpt>
      <trkpt lat="45.42975" lon="6.08197">
        <ele>794</ele>
        <time>2014-08-28T12:34:59Z</time>
      </trkpt>
      <trkpt lat="45.42981" lon="6.08199">
        <ele>793</ele>
        <time>2014-08-28T12:35:00Z</time>
      </trkpt>
      <trkpt lat="45.43039" lon="6.08215">
        <ele>788</ele>
        <time>2014-08-28T12:35:10Z</time>
      </trkpt>
      <trkpt lat="45.43062" lon="6.08225">
        <ele>785</ele>
        <time>2014-08-28T12:35:14Z</time>
      </trkpt>
      <trkpt lat="45.43081" lon="6.08236">
        <ele>784</ele>
        <time>2014-08-28T12:35:17Z</time>
      </trkpt>
      <trkpt lat="45.43095" lon="6.08241">
        <ele>783</ele>
        <time>2014-08-28T12:35:19Z</time>
      </trkpt>
      <trkpt lat="45.43124" lon="6.08245">
        <ele>782</ele>
        <time>2014-08-28T12:35:23Z</time>
      </trkpt>
      <trkpt lat="45.4315" lon="6.08246">
        <ele>780</ele>
        <time>2014-08-28T12:35:27Z</time>
      </trkpt>
      <trkpt lat="45.43155" lon="6.08247">
        <ele>780</ele>
        <time>2014-08-28T12:35:28Z</time>
      </trkpt>
      <trkpt lat="45.43159" lon="6.08256">
        <ele>780</ele>
        <time>2014-08-28T12:35:30Z</time>
      </trkpt>
      <trkpt lat="45.43157" lon="6.08266">
        <ele>779</ele>
        <time>2014-08-28T12:35:32Z</time>
      </trkpt>
      <trkpt lat="45.43153" lon="6.08274">
        <ele>777</ele>
        <time>2014-08-28T12:35:34Z</time>
      </trkpt>
      <trkpt lat="45.43075" lon="6.08276">
        <ele>772</ele>
        <time>2014-08-28T12:35:47Z</time>
      </trkpt>
      <trkpt lat="45.43028" lon="6.08292">
        <ele>769</ele>
        <time>2014-08-28T12:35:55Z</time>
      </trkpt>
      <trkpt lat="45.43013" lon="6.08296">
        <ele>768</ele>
        <time>2014-08-28T12:35:57Z</time>
      </trkpt>
      <trkpt lat="45.42989" lon="6.08296">
        <ele>766</ele>
        <time>2014-08-28T12:36:00Z</time>
      </trkpt>
      <trkpt lat="45.42981" lon="6.08296">
        <ele>766</ele>
        <time>2014-08-28T12:36:01Z</time>
      </trkpt>
      <trkpt lat="45.42975" lon="6.08294">
        <ele>765</ele>
        <time>2014-08-28T12:36:02Z</time>
      </trkpt>
      <trkpt lat="45.42931" lon="6.08293">
        <ele>762</ele>
        <time>2014-08-28T12:36:08Z</time>
      </trkpt>
      <trkpt lat="45.42895" lon="6.08285">
        <ele>761</ele>
        <time>2014-08-28T12:36:14Z</time>
      </trkpt>
      <trkpt lat="45.42878" lon="6.08287">
        <ele>761</ele>
        <time>2014-08-28T12:36:17Z</time>
      </trkpt>
      <trkpt lat="45.42874" lon="6.0829">
        <ele>760</ele>
        <time>2014-08-28T12:36:18Z</time>
      </trkpt>
      <trkpt lat="45.42869" lon="6.08296">
        <ele>759</ele>
        <time>2014-08-28T12:36:20Z</time>
      </trkpt>
      <trkpt lat="45.4287" lon="6.083">
        <ele>759</ele>
        <time>2014-08-28T12:36:21Z</time>
      </trkpt>
      <trkpt lat="45.42878" lon="6.08311">
        <ele>758</ele>
        <time>2014-08-28T12:36:23Z</time>
      </trkpt>
      <trkpt lat="45.42894" lon="6.08324">
        <ele>756</ele>
        <time>2014-08-28T12:36:27Z</time>
      </trkpt>
      <trkpt lat="45.42902" lon="6.08325">
        <ele>755</ele>
        <time>2014-08-28T12:36:28Z</time>
      </trkpt>
      <trkpt lat="45.42921" lon="6.08334">
        <ele>754</ele>
        <time>2014-08-28T12:36:31Z</time>
      </trkpt>
      <trkpt lat="45.43005" lon="6.08356">
        <ele>748</ele>
        <time>2014-08-28T12:36:44Z</time>
      </trkpt>
      <trkpt lat="45.43025" lon="6.08352">
        <ele>748</ele>
        <time>2014-08-28T12:36:47Z</time>
      </trkpt>
      <trkpt lat="45.43036" lon="6.08347">
        <ele>748</ele>
        <time>2014-08-28T12:36:49Z</time>
      </trkpt>
      <trkpt lat="45.43047" lon="6.08343">
        <ele>747</ele>
        <time>2014-08-28T12:36:51Z</time>
      </trkpt>
      <trkpt lat="45.43061" lon="6.08342">
        <ele>746</ele>
        <time>2014-08-28T12:36:53Z</time>
      </trkpt>
      <trkpt lat="45.43068" lon="6.08344">
        <ele>745</ele>
        <time>2014-08-28T12:36:54Z</time>
      </trkpt>
      <trkpt lat="45.43095" lon="6.08352">
        <ele>744</ele>
        <time>2014-08-28T12:36:58Z</time>
      </trkpt>
      <trkpt lat="45.43159" lon="6.0839">
        <ele>739</ele>
        <time>2014-08-28T12:37:09Z</time>
      </trkpt>
      <trkpt lat="45.43177" lon="6.08396">
        <ele>738</ele>
        <time>2014-08-28T12:37:12Z</time>
      </trkpt>
      <trkpt lat="45.43223" lon="6.08407">
        <ele>733</ele>
        <time>2014-08-28T12:37:19Z</time>
      </trkpt>
      <trkpt lat="45.43234" lon="6.08411">
        <ele>732</ele>
        <time>2014-08-28T12:37:21Z</time>
      </trkpt>
      <trkpt lat="45.43265" lon="6.08417">
        <ele>729</ele>
        <time>2014-08-28T12:37:26Z</time>
      </trkpt>
      <trkpt lat="45.43284" lon="6.08417">
        <ele>728</ele>
        <time>2014-08-28T12:37:29Z</time>
      </trkpt>
      <trkpt lat="45.4331" lon="6.08406">
        <ele>725</ele>
        <time>2014-08-28T12:37:34Z</time>
      </trkpt>
      <trkpt lat="45.43321" lon="6.08402">
        <ele>723</ele>
        <time>2014-08-28T12:37:36Z</time>
      </trkpt>
      <trkpt lat="45.43333" lon="6.08401">
        <ele>721</ele>
        <time>2014-08-28T12:37:38Z</time>
      </trkpt>
      <trkpt lat="45.43371" lon="6.08403">
        <ele>717</ele>
        <time>2014-08-28T12:37:43Z</time>
      </trkpt>
      <trkpt lat="45.43394" lon="6.08411">
        <ele>716</ele>
        <time>2014-08-28T12:37:46Z</time>
      </trkpt>
      <trkpt lat="45.4341" lon="6.08413">
        <ele>715</ele>
        <time>2014-08-28T12:37:48Z</time>
      </trkpt>
      <trkpt lat="45.43431" lon="6.08419">
        <ele>714</ele>
        <time>2014-08-28T12:37:51Z</time>
      </trkpt>
      <trkpt lat="45.43444" lon="6.08417">
        <ele>712</ele>
        <time>2014-08-28T12:37:53Z</time>
      </trkpt>
      <trkpt lat="45.43487" lon="6.08405">
        <ele>708</ele>
        <time>2014-08-28T12:38:00Z</time>
      </trkpt>
      <trkpt lat="45.43511" lon="6.08391">
        <ele>704</ele>
        <time>2014-08-28T12:38:05Z</time>
      </trkpt>
      <trkpt lat="45.43526" lon="6.08391">
        <ele>703</ele>
        <time>2014-08-28T12:38:08Z</time>
      </trkpt>
      <trkpt lat="45.43536" lon="6.08386">
        <ele>702</ele>
        <time>2014-08-28T12:38:10Z</time>
      </trkpt>
      <trkpt lat="45.43684" lon="6.0829">
        <ele>693</ele>
        <time>2014-08-28T12:38:34Z</time>
      </trkpt>
      <trkpt lat="45.43693" lon="6.08277">
        <ele>692</ele>
        <time>2014-08-28T12:38:36Z</time>
      </trkpt>
      <trkpt lat="45.43712" lon="6.08244">
        <ele>689</ele>
        <time>2014-08-28T12:38:40Z</time>
      </trkpt>
      <trkpt lat="45.43717" lon="6.08238">
        <ele>689</ele>
        <time>2014-08-28T12:38:41Z</time>
      </trkpt>
      <trkpt lat="45.43729" lon="6.08227">
        <ele>687</ele>
        <time>2014-08-28T12:38:43Z</time>
      </trkpt>
      <trkpt lat="45.43743" lon="6.08225">
        <ele>686</ele>
        <time>2014-08-28T12:38:45Z</time>
      </trkpt>
      <trkpt lat="45.43758" lon="6.08225">
        <ele>685</ele>
        <time>2014-08-28T12:38:47Z</time>
      </trkpt>
      <trkpt lat="45.43771" lon="6.08223">
        <ele>683</ele>
        <time>2014-08-28T12:38:49Z</time>
      </trkpt>
      <trkpt lat="45.43777" lon="6.0822">
        <ele>683</ele>
        <time>2014-08-28T12:38:50Z</time>
      </trkpt>
      <trkpt lat="45.43787" lon="6.0821">
        <ele>681</ele>
        <time>2014-08-28T12:38:52Z</time>
      </trkpt>
      <trkpt lat="45.43792" lon="6.08205">
        <ele>681</ele>
        <time>2014-08-28T12:38:53Z</time>
      </trkpt>
      <trkpt lat="45.43794" lon="6.08199">
        <ele>680</ele>
        <time>2014-08-28T12:38:54Z</time>
      </trkpt>
      <trkpt lat="45.43796" lon="6.08183">
        <ele>679</ele>
        <time>2014-08-28T12:38:56Z</time>
      </trkpt>
      <trkpt lat="45.43797" lon="6.08175">
        <ele>679</ele>
        <time>2014-08-28T12:38:57Z</time>
      </trkpt>
      <trkpt lat="45.43791" lon="6.08133">
        <ele>676</ele>
        <time>2014-08-28T12:39:02Z</time>
      </trkpt>
      <trkpt lat="45.43791" lon="6.08125">
        <ele>676</ele>
        <time>2014-08-28T12:39:03Z</time>
      </trkpt>
      <trkpt lat="45.43794" lon="6.08118">
        <ele>676</ele>
        <time>2014-08-28T12:39:04Z</time>
      </trkpt>
      <trkpt lat="45.43812" lon="6.08087">
        <ele>674</ele>
        <time>2014-08-28T12:39:08Z</time>
      </trkpt>
      <trkpt lat="45.43822" lon="6.0805">
        <ele>673</ele>
        <time>2014-08-28T12:39:12Z</time>
      </trkpt>
      <trkpt lat="45.43823" lon="6.08042">
        <ele>672</ele>
        <time>2014-08-28T12:39:13Z</time>
      </trkpt>
      <trkpt lat="45.43826" lon="6.08031">
        <ele>671</ele>
        <time>2014-08-28T12:39:15Z</time>
      </trkpt>
      <trkpt lat="45.43828" lon="6.08028">
        <ele>670</ele>
        <time>2014-08-28T12:39:16Z</time>
      </trkpt>
      <trkpt lat="45.43833" lon="6.08028">
        <ele>669</ele>
        <time>2014-08-28T12:39:17Z</time>
      </trkpt>
      <trkpt lat="45.43836" lon="6.08032">
        <ele>668</ele>
        <time>2014-08-28T12:39:18Z</time>
      </trkpt>
      <trkpt lat="45.43841" lon="6.08047">
        <ele>668</ele>
        <time>2014-08-28T12:39:21Z</time>
      </trkpt>
      <trkpt lat="45.43839" lon="6.08073">
        <ele>666</ele>
        <time>2014-08-28T12:39:26Z</time>
      </trkpt>
      <trkpt lat="45.43835" lon="6.08091">
        <ele>666</ele>
        <time>2014-08-28T12:39:29Z</time>
      </trkpt>
      <trkpt lat="45.43834" lon="6.08157">
        <ele>664</ele>
        <time>2014-08-28T12:39:37Z</time>
      </trkpt>
      <trkpt lat="45.43838" lon="6.08193">
        <ele>662</ele>
        <time>2014-08-28T12:39:41Z</time>
      </trkpt>
      <trkpt lat="45.43845" lon="6.08211">
        <ele>661</ele>
        <time>2014-08-28T12:39:43Z</time>
      </trkpt>
      <trkpt lat="45.43852" lon="6.08242">
        <ele>659</ele>
        <time>2014-08-28T12:39:46Z</time>
      </trkpt>
      <trkpt lat="45.43853" lon="6.08253">
        <ele>659</ele>
        <time>2014-08-28T12:39:47Z</time>
      </trkpt>
      <trkpt lat="45.43842" lon="6.08327">
        <ele>655</ele>
        <time>2014-08-28T12:39:54Z</time>
      </trkpt>
      <trkpt lat="45.43838" lon="6.08335">
        <ele>654</ele>
        <time>2014-08-28T12:39:55Z</time>
      </trkpt>
      <trkpt lat="45.43822" lon="6.08391">
        <ele>652</ele>
        <time>2014-08-28T12:40:01Z</time>
      </trkpt>
      <trkpt lat="45.43807" lon="6.08404">
        <ele>651</ele>
        <time>2014-08-28T12:40:03Z</time>
      </trkpt>
      <trkpt lat="45.43802" lon="6.08411">
        <ele>650</ele>
        <time>2014-08-28T12:40:04Z</time>
      </trkpt>
      <trkpt lat="45.43799" lon="6.08419">
        <ele>649</ele>
        <time>2014-08-28T12:40:05Z</time>
      </trkpt>
      <trkpt lat="45.43791" lon="6.08442">
        <ele>647</ele>
        <time>2014-08-28T12:40:08Z</time>
      </trkpt>
      <trkpt lat="45.43788" lon="6.0846">
        <ele>646</ele>
        <time>2014-08-28T12:40:10Z</time>
      </trkpt>
      <trkpt lat="45.43792" lon="6.08498">
        <ele>644</ele>
        <time>2014-08-28T12:40:14Z</time>
      </trkpt>
      <trkpt lat="45.43806" lon="6.08564">
        <ele>641</ele>
        <time>2014-08-28T12:40:20Z</time>
      </trkpt>
      <trkpt lat="45.43811" lon="6.08592">
        <ele>639</ele>
        <time>2014-08-28T12:40:23Z</time>
      </trkpt>
      <trkpt lat="45.4381" lon="6.08628">
        <ele>637</ele>
        <time>2014-08-28T12:40:27Z</time>
      </trkpt>
      <trkpt lat="45.43808" lon="6.08645">
        <ele>636</ele>
        <time>2014-08-28T12:40:29Z</time>
      </trkpt>
      <trkpt lat="45.43804" lon="6.08661">
        <ele>635</ele>
        <time>2014-08-28T12:40:31Z</time>
      </trkpt>
      <trkpt lat="45.43787" lon="6.08697">
        <ele>633</ele>
        <time>2014-08-28T12:40:35Z</time>
      </trkpt>
      <trkpt lat="45.43781" lon="6.08698">
        <ele>632</ele>
        <time>2014-08-28T12:40:36Z</time>
      </trkpt>
      <trkpt lat="45.43773" lon="6.08704">
        <ele>631</ele>
        <time>2014-08-28T12:40:38Z</time>
      </trkpt>
      <trkpt lat="45.43769" lon="6.08704">
        <ele>631</ele>
        <time>2014-08-28T12:40:39Z</time>
      </trkpt>
      <trkpt lat="45.43752" lon="6.087">
        <ele>628</ele>
        <time>2014-08-28T12:40:45Z</time>
      </trkpt>
      <trkpt lat="45.43744" lon="6.08695">
        <ele>628</ele>
        <time>2014-08-28T12:40:49Z</time>
      </trkpt>
      <trkpt lat="45.43736" lon="6.08695">
        <ele>627</ele>
        <time>2014-08-28T12:40:58Z</time>
      </trkpt>
      <trkpt lat="45.43718" lon="6.08701">
        <ele>626</ele>
        <time>2014-08-28T12:41:26Z</time>
      </trkpt>
      <trkpt lat="45.43697" lon="6.08713">
        <ele>626</ele>
        <time>2014-08-28T12:41:31Z</time>
      </trkpt>
      <trkpt lat="45.43681" lon="6.08726">
        <ele>625</ele>
        <time>2014-08-28T12:41:35Z</time>
      </trkpt>
      <trkpt lat="45.4365" lon="6.08759">
        <ele>622</ele>
        <time>2014-08-28T12:41:43Z</time>
      </trkpt>
      <trkpt lat="45.43615" lon="6.0883">
        <ele>618</ele>
        <time>2014-08-28T12:41:52Z</time>
      </trkpt>
      <trkpt lat="45.43604" lon="6.08841">
        <ele>617</ele>
        <time>2014-08-28T12:41:54Z</time>
      </trkpt>
      <trkpt lat="45.43598" lon="6.08843">
        <ele>617</ele>
        <time>2014-08-28T12:41:55Z</time>
      </trkpt>
      <trkpt lat="45.43576" lon="6.08841">
        <ele>615</ele>
        <time>2014-08-28T12:41:58Z</time>
      </trkpt>
      <trkpt lat="45.43484" lon="6.08809">
        <ele>612</ele>
        <time>2014-08-28T12:42:10Z</time>
      </trkpt>
      <trkpt lat="45.43419" lon="6.08782">
        <ele>609</ele>
        <time>2014-08-28T12:42:18Z</time>
      </trkpt>
      <trkpt lat="45.43403" lon="6.08779">
        <ele>608</ele>
        <time>2014-08-28T12:42:20Z</time>
      </trkpt>
      <trkpt lat="45.43325" lon="6.08779">
        <ele>606</ele>
        <time>2014-08-28T12:42:29Z</time>
      </trkpt>
      <trkpt lat="45.43212" lon="6.08803">
        <ele>604</ele>
        <time>2014-08-28T12:42:43Z</time>
      </trkpt>
      <trkpt lat="45.43189" lon="6.08802">
        <ele>602</ele>
        <time>2014-08-28T12:42:46Z</time>
      </trkpt>
      <trkpt lat="45.43167" lon="6.08795">
        <ele>602</ele>
        <time>2014-08-28T12:42:49Z</time>
      </trkpt>
      <trkpt lat="45.43153" lon="6.088">
        <ele>602</ele>
        <time>2014-08-28T12:42:51Z</time>
      </trkpt>
      <trkpt lat="45.43112" lon="6.08824">
        <ele>601</ele>
        <time>2014-08-28T12:42:57Z</time>
      </trkpt>
      <trkpt lat="45.43097" lon="6.0883">
        <ele>600</ele>
        <time>2014-08-28T12:42:59Z</time>
      </trkpt>
      <trkpt lat="45.43081" lon="6.08831">
        <ele>600</ele>
        <time>2014-08-28T12:43:01Z</time>
      </trkpt>
      <trkpt lat="45.43035" lon="6.08827">
        <ele>599</ele>
        <time>2014-08-28T12:43:07Z</time>
      </trkpt>
      <trkpt lat="45.43028" lon="6.08827">
        <ele>599</ele>
        <time>2014-08-28T12:43:08Z</time>
      </trkpt>
      <trkpt lat="45.43023" lon="6.08831">
        <ele>598</ele>
        <time>2014-08-28T12:43:09Z</time>
      </trkpt>
      <trkpt lat="45.43009" lon="6.08854">
        <ele>596</ele>
        <time>2014-08-28T12:43:13Z</time>
      </trkpt>
      <trkpt lat="45.43004" lon="6.08858">
        <ele>596</ele>
        <time>2014-08-28T12:43:14Z</time>
      </trkpt>
      <trkpt lat="45.42998" lon="6.08859">
        <ele>595</ele>
        <time>2014-08-28T12:43:15Z</time>
      </trkpt>
      <trkpt lat="45.42889" lon="6.0886">
        <ele>595</ele>
        <time>2014-08-28T12:43:40Z</time>
      </trkpt>
      <trkpt lat="45.42854" lon="6.08858">
        <ele>595</ele>
        <time>2014-08-28T12:43:47Z</time>
      </trkpt>
      <trkpt lat="45.42709" lon="6.08827">
        <ele>592</ele>
        <time>2014-08-28T12:44:11Z</time>
      </trkpt>
      <trkpt lat="45.42697" lon="6.08821">
        <ele>591</ele>
        <time>2014-08-28T12:44:13Z</time>
      </trkpt>
      <trkpt lat="45.42638" lon="6.08776">
        <ele>591</ele>
        <time>2014-08-28T12:44:23Z</time>
      </trkpt>
      <trkpt lat="45.42595" lon="6.08752">
        <ele>591</ele>
        <time>2014-08-28T12:44:30Z</time>
      </trkpt>
      <trkpt lat="45.42561" lon="6.08727">
        <ele>589</ele>
        <time>2014-08-28T12:44:36Z</time>
      </trkpt>
      <trkpt lat="45.42518" lon="6.08702">
        <ele>589</ele>
        <time>2014-08-28T12:44:43Z</time>
      </trkpt>
      <trkpt lat="45.42489" lon="6.08691">
        <ele>587</ele>
        <time>2014-08-28T12:44:47Z</time>
      </trkpt>
      <trkpt lat="45.42421" lon="6.0866">
        <ele>585</ele>
        <time>2014-08-28T12:44:57Z</time>
      </trkpt>
      <trkpt lat="45.42373" lon="6.08644">
        <ele>585</ele>
        <time>2014-08-28T12:45:04Z</time>
      </trkpt>
      <trkpt lat="45.42288" lon="6.08621">
        <ele>583</ele>
        <time>2014-08-28T12:45:18Z</time>
      </trkpt>
      <trkpt lat="45.42272" lon="6.08613">
        <ele>582</ele>
        <time>2014-08-28T12:45:21Z</time>
      </trkpt>
      <trkpt lat="45.42199" lon="6.08574">
        <ele>579</ele>
        <time>2014-08-28T12:45:34Z</time>
      </trkpt>
      <trkpt lat="45.42177" lon="6.08553">
        <ele>578</ele>
        <time>2014-08-28T12:45:38Z</time>
      </trkpt>
      <trkpt lat="45.42105" lon="6.08504">
        <ele>577</ele>
        <time>2014-08-28T12:45:50Z</time>
      </trkpt>
      <trkpt lat="45.42076" lon="6.08488">
        <ele>576</ele>
        <time>2014-08-28T12:45:55Z</time>
      </trkpt>
      <trkpt lat="45.42034" lon="6.08478">
        <ele>575</ele>
        <time>2014-08-28T12:46:02Z</time>
      </trkpt>
      <trkpt lat="45.42021" lon="6.08472">
        <ele>574</ele>
        <time>2014-08-28T12:46:04Z</time>
      </trkpt>
      <trkpt lat="45.42002" lon="6.0847">
        <ele>574</ele>
        <time>2014-08-28T12:46:07Z</time>
      </trkpt>
      <trkpt lat="45.4199" lon="6.08479">
        <ele>574</ele>
        <time>2014-08-28T12:46:09Z</time>
      </trkpt>
      <trkpt lat="45.4197" lon="6.08503">
        <ele>572</ele>
        <time>2014-08-28T12:46:13Z</time>
      </trkpt>
      <trkpt lat="45.41964" lon="6.08507">
        <ele>572</ele>
        <time>2014-08-28T12:46:14Z</time>
      </trkpt>
      <trkpt lat="45.4195" lon="6.08509">
        <ele>572</ele>
        <time>2014-08-28T12:46:16Z</time>
      </trkpt>
      <trkpt lat="45.4193" lon="6.08498">
        <ele>572</ele>
        <time>2014-08-28T12:46:19Z</time>
      </trkpt>
      <trkpt lat="45.41919" lon="6.08487">
        <ele>572</ele>
        <time>2014-08-28T12:46:21Z</time>
      </trkpt>
      <trkpt lat="45.41915" lon="6.08479">
        <ele>571</ele>
        <time>2014-08-28T12:46:22Z</time>
      </trkpt>
      <trkpt lat="45.41894" lon="6.08451">
        <ele>570</ele>
        <time>2014-08-28T12:46:26Z</time>
      </trkpt>
      <trkpt lat="45.41882" lon="6.0844">
        <ele>570</ele>
        <time>2014-08-28T12:46:28Z</time>
      </trkpt>
      <trkpt lat="45.418" lon="6.08406">
        <ele>568</ele>
        <time>2014-08-28T12:46:40Z</time>
      </trkpt>
      <trkpt lat="45.41778" lon="6.08404">
        <ele>566</ele>
        <time>2014-08-28T12:46:43Z</time>
      </trkpt>
      <trkpt lat="45.41763" lon="6.08401">
        <ele>565</ele>
        <time>2014-08-28T12:46:45Z</time>
      </trkpt>
      <trkpt lat="45.41725" lon="6.08389">
        <ele>565</ele>
        <time>2014-08-28T12:46:50Z</time>
      </trkpt>
      <trkpt lat="45.41665" lon="6.08362">
        <ele>563</ele>
        <time>2014-08-28T12:46:58Z</time>
      </trkpt>
      <trkpt lat="45.41643" lon="6.08348">
        <ele>562</ele>
        <time>2014-08-28T12:47:01Z</time>
      </trkpt>
      <trkpt lat="45.41587" lon="6.08308">
        <ele>559</ele>
        <time>2014-08-28T12:47:09Z</time>
      </trkpt>
      <trkpt lat="45.41573" lon="6.08296">
        <ele>559</ele>
        <time>2014-08-28T12:47:11Z</time>
      </trkpt>
      <trkpt lat="45.4156" lon="6.08288">
        <ele>559</ele>
        <time>2014-08-28T12:47:13Z</time>
      </trkpt>
      <trkpt lat="45.41547" lon="6.08286">
        <ele>558</ele>
        <time>2014-08-28T12:47:15Z</time>
      </trkpt>
      <trkpt lat="45.41538" lon="6.08287">
        <ele>557</ele>
        <time>2014-08-28T12:47:17Z</time>
      </trkpt>
      <trkpt lat="45.41521" lon="6.08295">
        <ele>557</ele>
        <time>2014-08-28T12:47:20Z</time>
      </trkpt>
      <trkpt lat="45.41501" lon="6.08294">
        <ele>557</ele>
        <time>2014-08-28T12:47:23Z</time>
      </trkpt>
      <trkpt lat="45.41488" lon="6.0829">
        <ele>556</ele>
        <time>2014-08-28T12:47:25Z</time>
      </trkpt>
      <trkpt lat="45.41465" lon="6.08277">
        <ele>555</ele>
        <time>2014-08-28T12:47:29Z</time>
      </trkpt>
      <trkpt lat="45.41434" lon="6.08256">
        <ele>555</ele>
        <time>2014-08-28T12:47:34Z</time>
      </trkpt>
      <trkpt lat="45.414" lon="6.08235">
        <ele>553</ele>
        <time>2014-08-28T12:47:39Z</time>
      </trkpt>
      <trkpt lat="45.41353" lon="6.08202">
        <ele>551</ele>
        <time>2014-08-28T12:47:46Z</time>
      </trkpt>
      <trkpt lat="45.41323" lon="6.08184">
        <ele>551</ele>
        <time>2014-08-28T12:47:50Z</time>
      </trkpt>
      <trkpt lat="45.41315" lon="6.08183">
        <ele>550</ele>
        <time>2014-08-28T12:47:51Z</time>
      </trkpt>
      <trkpt lat="45.41306" lon="6.08183">
        <ele>550</ele>
        <time>2014-08-28T12:47:52Z</time>
      </trkpt>
      <trkpt lat="45.41265" lon="6.08196">
        <ele>548</ele>
        <time>2014-08-28T12:47:57Z</time>
      </trkpt>
      <trkpt lat="45.41257" lon="6.08196">
        <ele>547</ele>
        <time>2014-08-28T12:47:58Z</time>
      </trkpt>
      <trkpt lat="45.4125" lon="6.08192">
        <ele>547</ele>
        <time>2014-08-28T12:47:59Z</time>
      </trkpt>
      <trkpt lat="45.41232" lon="6.08169">
        <ele>545</ele>
        <time>2014-08-28T12:48:02Z</time>
      </trkpt>
      <trkpt lat="45.41226" lon="6.08163">
        <ele>545</ele>
        <time>2014-08-28T12:48:03Z</time>
      </trkpt>
      <trkpt lat="45.4122" lon="6.08159">
        <ele>544</ele>
        <time>2014-08-28T12:48:04Z</time>
      </trkpt>
      <trkpt lat="45.41188" lon="6.08153">
        <ele>544</ele>
        <time>2014-08-28T12:48:08Z</time>
      </trkpt>
      <trkpt lat="45.41153" lon="6.08137">
        <ele>542</ele>
        <time>2014-08-28T12:48:12Z</time>
      </trkpt>
      <trkpt lat="45.41144" lon="6.08135">
        <ele>541</ele>
        <time>2014-08-28T12:48:13Z</time>
      </trkpt>
      <trkpt lat="45.41134" lon="6.08138">
        <ele>541</ele>
        <time>2014-08-28T12:48:14Z</time>
      </trkpt>
      <trkpt lat="45.41107" lon="6.08143">
        <ele>541</ele>
        <time>2014-08-28T12:48:17Z</time>
      </trkpt>
      <trkpt lat="45.41098" lon="6.08142">
        <ele>540</ele>
        <time>2014-08-28T12:48:18Z</time>
      </trkpt>
      <trkpt lat="45.41089" lon="6.08138">
        <ele>540</ele>
        <time>2014-08-28T12:48:19Z</time>
      </trkpt>
      <trkpt lat="45.41074" lon="6.08125">
        <ele>539</ele>
        <time>2014-08-28T12:48:21Z</time>
      </trkpt>
      <trkpt lat="45.41053" lon="6.0809">
        <ele>537</ele>
        <time>2014-08-28T12:48:25Z</time>
      </trkpt>
      <trkpt lat="45.41047" lon="6.08083">
        <ele>537</ele>
        <time>2014-08-28T12:48:26Z</time>
      </trkpt>
      <trkpt lat="45.41039" lon="6.08078">
        <ele>537</ele>
        <time>2014-08-28T12:48:27Z</time>
      </trkpt>
      <trkpt lat="45.41015" lon="6.08075">
        <ele>537</ele>
        <time>2014-08-28T12:48:30Z</time>
      </trkpt>
      <trkpt lat="45.40981" lon="6.08074">
        <ele>535</ele>
        <time>2014-08-28T12:48:34Z</time>
      </trkpt>
      <trkpt lat="45.40942" lon="6.08065">
        <ele>534</ele>
        <time>2014-08-28T12:48:39Z</time>
      </trkpt>
      <trkpt lat="45.4089" lon="6.08046">
        <ele>532</ele>
        <time>2014-08-28T12:48:46Z</time>
      </trkpt>
      <trkpt lat="45.40876" lon="6.08038">
        <ele>531</ele>
        <time>2014-08-28T12:48:48Z</time>
      </trkpt>
      <trkpt lat="45.40869" lon="6.08032">
        <ele>531</ele>
        <time>2014-08-28T12:48:49Z</time>
      </trkpt>
      <trkpt lat="45.40847" lon="6.08006">
        <ele>530</ele>
        <time>2014-08-28T12:48:53Z</time>
      </trkpt>
      <trkpt lat="45.40829" lon="6.08004">
        <ele>530</ele>
        <time>2014-08-28T12:48:56Z</time>
      </trkpt>
      <trkpt lat="45.40816" lon="6.08004">
        <ele>530</ele>
        <time>2014-08-28T12:48:58Z</time>
      </trkpt>
      <trkpt lat="45.40803" lon="6.08001">
        <ele>530</ele>
        <time>2014-08-28T12:49:00Z</time>
      </trkpt>
      <trkpt lat="45.40797" lon="6.07998">
        <ele>530</ele>
        <time>2014-08-28T12:49:01Z</time>
      </trkpt>
      <trkpt lat="45.40791" lon="6.07994">
        <ele>529</ele>
        <time>2014-08-28T12:49:02Z</time>
      </trkpt>
      <trkpt lat="45.4078" lon="6.07984">
        <ele>528</ele>
        <time>2014-08-28T12:49:04Z</time>
      </trkpt>
      <trkpt lat="45.40736" lon="6.07934">
        <ele>527</ele>
        <time>2014-08-28T12:49:12Z</time>
      </trkpt>
      <trkpt lat="45.40724" lon="6.07925">
        <ele>526</ele>
        <time>2014-08-28T12:49:14Z</time>
      </trkpt>
      <trkpt lat="45.40652" lon="6.0789">
        <ele>525</ele>
        <time>2014-08-28T12:49:25Z</time>
      </trkpt>
      <trkpt lat="45.40605" lon="6.07869">
        <ele>523</ele>
        <time>2014-08-28T12:49:32Z</time>
      </trkpt>
      <trkpt lat="45.40592" lon="6.0786">
        <ele>522</ele>
        <time>2014-08-28T12:49:34Z</time>
      </trkpt>
      <trkpt lat="45.40578" lon="6.07838">
        <ele>522</ele>
        <time>2014-08-28T12:49:37Z</time>
      </trkpt>
      <trkpt lat="45.40571" lon="6.07821">
        <ele>521</ele>
        <time>2014-08-28T12:49:39Z</time>
      </trkpt>
      <trkpt lat="45.40561" lon="6.07806">
        <ele>520</ele>
        <time>2014-08-28T12:49:41Z</time>
      </trkpt>
      <trkpt lat="45.40523" lon="6.07773">
        <ele>520</ele>
        <time>2014-08-28T12:49:47Z</time>
      </trkpt>
      <trkpt lat="45.40509" lon="6.07775">
        <ele>520</ele>
        <time>2014-08-28T12:49:49Z</time>
      </trkpt>
      <trkpt lat="45.40484" lon="6.0779">
        <ele>518</ele>
        <time>2014-08-28T12:49:53Z</time>
      </trkpt>
      <trkpt lat="45.40477" lon="6.07791">
        <ele>518</ele>
        <time>2014-08-28T12:49:54Z</time>
      </trkpt>
      <trkpt lat="45.40459" lon="6.07782">
        <ele>518</ele>
        <time>2014-08-28T12:49:57Z</time>
      </trkpt>
      <trkpt lat="45.40425" lon="6.07752">
        <ele>518</ele>
        <time>2014-08-28T12:50:03Z</time>
      </trkpt>
      <trkpt lat="45.40383" lon="6.0771">
        <ele>516</ele>
        <time>2014-08-28T12:50:10Z</time>
      </trkpt>
      <trkpt lat="45.40353" lon="6.07677">
        <ele>515</ele>
        <time>2014-08-28T12:50:15Z</time>
      </trkpt>
      <trkpt lat="45.40296" lon="6.07592">
        <ele>512</ele>
        <time>2014-08-28T12:50:26Z</time>
      </trkpt>
      <trkpt lat="45.40246" lon="6.07536">
        <ele>510</ele>
        <time>2014-08-28T12:50:34Z</time>
      </trkpt>
      <trkpt lat="45.40219" lon="6.07512">
        <ele>509</ele>
        <time>2014-08-28T12:50:38Z</time>
      </trkpt>
      <trkpt lat="45.40198" lon="6.07498">
        <ele>509</ele>
        <time>2014-08-28T12:50:41Z</time>
      </trkpt>
      <trkpt lat="45.40161" lon="6.07476">
        <ele>507</ele>
        <time>2014-08-28T12:50:46Z</time>
      </trkpt>
      <trkpt lat="45.40118" lon="6.07452">
        <ele>506</ele>
        <time>2014-08-28T12:50:52Z</time>
      </trkpt>
      <trkpt lat="45.39972" lon="6.07387">
        <ele>502</ele>
        <time>2014-08-28T12:51:13Z</time>
      </trkpt>
      <trkpt lat="45.39958" lon="6.0738">
        <ele>501</ele>
        <time>2014-08-28T12:51:15Z</time>
      </trkpt>
      <trkpt lat="45.39928" lon="6.07369">
        <ele>500</ele>
        <time>2014-08-28T12:51:19Z</time>
      </trkpt>
      <trkpt lat="45.39911" lon="6.07366">
        <ele>500</ele>
        <time>2014-08-28T12:51:21Z</time>
      </trkpt>
      <trkpt lat="45.39895" lon="6.07369">
        <ele>499</ele>
        <time>2014-08-28T12:51:23Z</time>
      </trkpt>
      <trkpt lat="45.39794" lon="6.07407">
        <ele>496</ele>
        <time>2014-08-28T12:51:35Z</time>
      </trkpt>
      <trkpt lat="45.39776" lon="6.07412">
        <ele>495</ele>
        <time>2014-08-28T12:51:37Z</time>
      </trkpt>
      <trkpt lat="45.39701" lon="6.07441">
        <ele>491</ele>
        <time>2014-08-28T12:51:47Z</time>
      </trkpt>
      <trkpt lat="45.3969" lon="6.07444">
        <ele>490</ele>
        <time>2014-08-28T12:51:49Z</time>
      </trkpt>
      <trkpt lat="45.39674" lon="6.07435">
        <ele>490</ele>
        <time>2014-08-28T12:51:52Z</time>
      </trkpt>
      <trkpt lat="45.39661" lon="6.07417">
        <ele>490</ele>
        <time>2014-08-28T12:51:56Z</time>
      </trkpt>
      <trkpt lat="45.39622" lon="6.07351">
        <ele>490</ele>
        <time>2014-08-28T12:52:12Z</time>
      </trkpt>
      <trkpt lat="45.39574" lon="6.07279">
        <ele>492</ele>
        <time>2014-08-28T12:52:31Z</time>
      </trkpt>
      <trkpt lat="45.39557" lon="6.07259">
        <ele>494</ele>
        <time>2014-08-28T12:52:38Z</time>
      </trkpt>
      <trkpt lat="45.39546" lon="6.0725">
        <ele>494</ele>
        <time>2014-08-28T12:52:42Z</time>
      </trkpt>
      <trkpt lat="45.3952" lon="6.07231">
        <ele>496</ele>
        <time>2014-08-28T12:52:51Z</time>
      </trkpt>
      <trkpt lat="45.39502" lon="6.0722">
        <ele>496</ele>
        <time>2014-08-28T12:52:57Z</time>
      </trkpt>
      <trkpt lat="45.39481" lon="6.0721">
        <ele>498</ele>
        <time>2014-08-28T12:53:03Z</time>
      </trkpt>
      <trkpt lat="45.39437" lon="6.07192">
        <ele>498</ele>
        <time>2014-08-28T12:53:15Z</time>
      </trkpt>
      <trkpt lat="45.39386" lon="6.07173">
        <ele>498</ele>
        <time>2014-08-28T12:53:28Z</time>
      </trkpt>
      <trkpt lat="45.39366" lon="6.07167">
        <ele>499</ele>
        <time>2014-08-28T12:53:33Z</time>
      </trkpt>
      <trkpt lat="45.39313" lon="6.07146">
        <ele>501</ele>
        <time>2014-08-28T12:53:49Z</time>
      </trkpt>
      <trkpt lat="45.39278" lon="6.07134">
        <ele>503</ele>
        <time>2014-08-28T12:54:00Z</time>
      </trkpt>
      <trkpt lat="45.39265" lon="6.07131">
        <ele>504</ele>
        <time>2014-08-28T12:54:04Z</time>
      </trkpt>
      <trkpt lat="45.39238" lon="6.0712">
        <ele>505</ele>
        <time>2014-08-28T12:54:12Z</time>
      </trkpt>
      <trkpt lat="45.39231" lon="6.07119">
        <ele>506</ele>
        <time>2014-08-28T12:54:14Z</time>
      </trkpt>
      <trkpt lat="45.39146" lon="6.07091">
        <ele>509</ele>
        <time>2014-08-28T12:54:39Z</time>
      </trkpt>
      <trkpt lat="45.39133" lon="6.07089">
        <ele>511</ele>
        <time>2014-08-28T12:54:43Z</time>
      </trkpt>
      <trkpt lat="45.39071" lon="6.0707">
        <ele>513</ele>
        <time>2014-08-28T12:55:01Z</time>
      </trkpt>
      <trkpt lat="45.39037" lon="6.07067">
        <ele>513</ele>
        <time>2014-08-28T12:55:09Z</time>
      </trkpt>
      <trkpt lat="45.39013" lon="6.07063">
        <ele>513</ele>
        <time>2014-08-28T12:55:14Z</time>
      </trkpt>
      <trkpt lat="45.38977" lon="6.07032">
        <ele>513</ele>
        <time>2014-08-28T12:55:25Z</time>
      </trkpt>
      <trkpt lat="45.38896" lon="6.06959">
        <ele>515</ele>
        <time>2014-08-28T12:55:50Z</time>
      </trkpt>
      <trkpt lat="45.38799" lon="6.06874">
        <ele>517</ele>
        <time>2014-08-28T12:56:13Z</time>
      </trkpt>
      <trkpt lat="45.38791" lon="6.06863">
        <ele>517</ele>
        <time>2014-08-28T12:56:15Z</time>
      </trkpt>
      <trkpt lat="45.38687" lon="6.06687">
        <ele>513</ele>
        <time>2014-08-28T12:56:41Z</time>
      </trkpt>
      <trkpt lat="45.38657" lon="6.06632">
        <ele>512</ele>
        <time>2014-08-28T12:56:49Z</time>
      </trkpt>
      <trkpt lat="45.38646" lon="6.06603">
        <ele>511</ele>
        <time>2014-08-28T12:56:53Z</time>
      </trkpt>
      <trkpt lat="45.38642" lon="6.06589">
        <ele>511</ele>
        <time>2014-08-28T12:56:55Z</time>
      </trkpt>
      <trkpt lat="45.38635" lon="6.06553">
        <ele>511</ele>
        <time>2014-08-28T12:57:00Z</time>
      </trkpt>
      <trkpt lat="45.38621" lon="6.0644">
        <ele>513</ele>
        <time>2014-08-28T12:57:17Z</time>
      </trkpt>
      <trkpt lat="45.38612" lon="6.06403">
        <ele>515</ele>
        <time>2014-08-28T12:57:23Z</time>
      </trkpt>
      <trkpt lat="45.38588" lon="6.0634">
        <ele>515</ele>
        <time>2014-08-28T12:57:34Z</time>
      </trkpt>
      <trkpt lat="45.38563" lon="6.06292">
        <ele>517</ele>
        <time>2014-08-28T12:57:43Z</time>
      </trkpt>
      <trkpt lat="45.3854" lon="6.06237">
        <ele>517</ele>
        <time>2014-08-28T12:57:53Z</time>
      </trkpt>
      <trkpt lat="45.38528" lon="6.06194">
        <ele>519</ele>
        <time>2014-08-28T12:58:00Z</time>
      </trkpt>
      <trkpt lat="45.38519" lon="6.06147">
        <ele>519</ele>
        <time>2014-08-28T12:58:07Z</time>
      </trkpt>
      <trkpt lat="45.38515" lon="6.06099">
        <ele>519</ele>
        <time>2014-08-28T12:58:14Z</time>
      </trkpt>
      <trkpt lat="45.38513" lon="6.0597">
        <ele>519</ele>
        <time>2014-08-28T12:58:31Z</time>
      </trkpt>
      <trkpt lat="45.38505" lon="6.05907">
        <ele>519</ele>
        <time>2014-08-28T12:58:39Z</time>
      </trkpt>
      <trkpt lat="45.38492" lon="6.05853">
        <ele>519</ele>
        <time>2014-08-28T12:58:46Z</time>
      </trkpt>
      <trkpt lat="45.38476" lon="6.05808">
        <ele>519</ele>
        <time>2014-08-28T12:58:52Z</time>
      </trkpt>
      <trkpt lat="45.38448" lon="6.05754">
        <ele>519</ele>
        <time>2014-08-28T12:59:00Z</time>
      </trkpt>
      <trkpt lat="45.3838" lon="6.05649">
        <ele>519</ele>
        <time>2014-08-28T12:59:17Z</time>
      </trkpt>
      <trkpt lat="45.38347" lon="6.05604">
        <ele>519</ele>
        <time>2014-08-28T12:59:25Z</time>
      </trkpt>
      <trkpt lat="45.38296" lon="6.05547">
        <ele>519</ele>
        <time>2014-08-28T12:59:37Z</time>
      </trkpt>
      <trkpt lat="45.38166" lon="6.05406">
        <ele>519</ele>
        <time>2014-08-28T13:00:07Z</time>
      </trkpt>
      <trkpt lat="45.38132" lon="6.05377">
        <ele>519</ele>
        <time>2014-08-28T13:00:14Z</time>
      </trkpt>
      <trkpt lat="45.38094" lon="6.05356">
        <ele>519</ele>
        <time>2014-08-28T13:00:21Z</time>
      </trkpt>
      <trkpt lat="45.3805" lon="6.0534">
        <ele>519</ele>
        <time>2014-08-28T13:00:29Z</time>
      </trkpt>
      <trkpt lat="45.38011" lon="6.05336">
        <ele>519</ele>
        <time>2014-08-28T13:00:36Z</time>
      </trkpt>
      <trkpt lat="45.37966" lon="6.05342">
        <ele>519</ele>
        <time>2014-08-28T13:00:44Z</time>
      </trkpt>
      <trkpt lat="45.37915" lon="6.05352">
        <ele>519</ele>
        <time>2014-08-28T13:00:53Z</time>
      </trkpt>
      <trkpt lat="45.37898" lon="6.05352">
        <ele>519</ele>
        <time>2014-08-28T13:00:56Z</time>
      </trkpt>
      <trkpt lat="45.37875" lon="6.05345">
        <ele>517</ele>
        <time>2014-08-28T13:01:00Z</time>
      </trkpt>
      <trkpt lat="45.37849" lon="6.05328">
        <ele>517</ele>
        <time>2014-08-28T13:01:05Z</time>
      </trkpt>
      <trkpt lat="45.37823" lon="6.05295">
        <ele>517</ele>
        <time>2014-08-28T13:01:11Z</time>
      </trkpt>
      <trkpt lat="45.37772" lon="6.05219">
        <ele>517</ele>
        <time>2014-08-28T13:01:25Z</time>
      </trkpt>
      <trkpt lat="45.37758" lon="6.05208">
        <ele>517</ele>
        <time>2014-08-28T13:01:30Z</time>
      </trkpt>
    </trkseg>
  </trk>
</gpx>